PWSweather.com
Personal Weather Stations
Station Observations
HVALPSUND
Hvalpsund, FarsoeDK 9640

HvalpsundFarsoeDK 9640

Lat: 56.705311, Lon: 9.203638

Elevation: 5

Station Type: Vantage Pro2

http://hvalpsundvejr.dk

High Low Average
Temperature 51.0°F10.6°C 43.9°F6.6°C 48.0°F8.9°C
Dew Point 44.2°F6.8°C 38.5°F3.6°C 41.0°F5.0°C
Winds 21.7 mph 34.9 kmh 4.0 mph 6.4 kmh 13.0 mph SW20.9 kmh SW
Wind Gusts 26.0 mph41.8 kmh 7.0 mph11.3 kmh 17.0 mph27.4 kmh
Humidity 89% 66% 77%
Pressure 30.13 in1020.3 mb 29.74 in1007.1 mb -
Precipitation 0.09 in2.3 mm - -
Hour Temp Dew Point Humidity Winds Wind Gusts Pressure Precip Precip Rate Daily Precip Total
12:00 AM 49.2°F9.6°C 40.6°F4.8°C 72% 12.8 mph SE20.6 kmh SE 17.0 mph27.4 kmh 29.77 in1008.1 mb 0.00 in0.0 mm 0.00 in0.0 mm 0.00 in0.0 mm
12:01 AM 49.2°F9.6°C 40.6°F4.8°C 72% 11.0 mph SE17.7 kmh SE 17.0 mph27.4 kmh 29.77 in1008.1 mb 0.00 in0.0 mm 0.00 in0.0 mm 0.00 in0.0 mm
12:02 AM 49.2°F9.6°C 40.6°F4.8°C 72% 11.8 mph SE19.0 kmh SE 15.0 mph24.1 kmh 29.77 in1008.1 mb 0.00 in0.0 mm 0.00 in0.0 mm 0.00 in0.0 mm
12:03 AM 49.2°F9.6°C 40.6°F4.8°C 72% 10.7 mph SE17.2 kmh SE 16.0 mph25.7 kmh 29.77 in1008.1 mb 0.00 in0.0 mm 0.00 in0.0 mm 0.00 in0.0 mm
12:04 AM 49.2°F9.6°C 40.6°F4.8°C 72% 10.9 mph SE17.5 kmh SE 16.0 mph25.7 kmh 29.77 in1008.1 mb 0.00 in0.0 mm 0.00 in0.0 mm 0.00 in0.0 mm
12:05 AM 49.2°F9.6°C 40.6°F4.8°C 72% 11.5 mph SE18.5 kmh SE 15.0 mph24.1 kmh 29.77 in1008.1 mb 0.00 in0.0 mm 0.00 in0.0 mm 0.00 in0.0 mm
12:06 AM 49.1°F9.5°C 40.5°F4.7°C 72% 10.8 mph SE17.4 kmh SE 14.0 mph22.5 kmh 29.77 in1008.1 mb 0.00 in0.0 mm 0.00 in0.0 mm 0.00 in0.0 mm
12:07 AM 49.1°F9.5°C 40.5°F4.7°C 72% 9.8 mph SE15.8 kmh SE 13.0 mph20.9 kmh 29.77 in1008.1 mb 0.00 in0.0 mm 0.00 in0.0 mm 0.00 in0.0 mm
12:08 AM 49.1°F9.5°C 40.5°F4.7°C 72% 11.5 mph SE18.5 kmh SE 14.0 mph22.5 kmh 29.77 in1008.1 mb 0.00 in0.0 mm 0.00 in0.0 mm 0.00 in0.0 mm
12:09 AM 49.1°F9.5°C 40.5°F4.7°C 72% 10.3 mph SE16.6 kmh SE 15.0 mph24.1 kmh 29.77 in1008.1 mb 0.00 in0.0 mm 0.00 in0.0 mm 0.00 in0.0 mm
12:10 AM 49.2°F9.6°C 40.6°F4.8°C 72% 10.2 mph SE16.4 kmh SE 17.0 mph27.4 kmh 29.77 in1008.1 mb 0.00 in0.0 mm 0.00 in0.0 mm 0.00 in0.0 mm
12:11 AM 49.1°F9.5°C 40.5°F4.7°C 72% 11.7 mph SE18.8 kmh SE 17.0 mph27.4 kmh 29.77 in1008.1 mb 0.00 in0.0 mm 0.00 in0.0 mm 0.00 in0.0 mm
12:12 AM 49.1°F9.5°C 40.8°F4.9°C 73% 13.3 mph SE21.4 kmh SE 17.0 mph27.4 kmh 29.77 in1008.1 mb 0.00 in0.0 mm 0.00 in0.0 mm 0.00 in0.0 mm
12:13 AM 49.2°F9.6°C 40.6°F4.8°C 72% 11.9 mph SE19.2 kmh SE 18.0 mph29.0 kmh 29.77 in1008.1 mb 0.00 in0.0 mm 0.00 in0.0 mm 0.00 in0.0 mm
12:14 AM 49.2°F9.6°C 40.9°F4.9°C 73% 12.9 mph SE20.8 kmh SE 18.0 mph29.0 kmh 29.77 in1008.1 mb 0.00 in0.0 mm 0.00 in0.0 mm 0.00 in0.0 mm
12:15 AM 49.2°F9.6°C 40.9°F4.9°C 73% 10.4 mph SE16.7 kmh SE 17.0 mph27.4 kmh 29.77 in1008.1 mb 0.00 in0.0 mm 0.00 in0.0 mm 0.00 in0.0 mm
12:16 AM 49.2°F9.6°C 40.9°F4.9°C 73% 11.6 mph SE18.7 kmh SE 19.0 mph30.6 kmh 29.77 in1008.1 mb 0.00 in0.0 mm 0.00 in0.0 mm 0.00 in0.0 mm
12:17 AM 49.2°F9.6°C 40.9°F4.9°C 73% 12.5 mph SE20.1 kmh SE 19.0 mph30.6 kmh 29.77 in1008.1 mb 0.00 in0.0 mm 0.00 in0.0 mm 0.00 in0.0 mm
12:18 AM 49.2°F9.6°C 40.9°F4.9°C 73% 14.4 mph SE23.2 kmh SE 17.0 mph27.4 kmh 29.77 in1008.1 mb 0.00 in0.0 mm 0.00 in0.0 mm 0.00 in0.0 mm
12:19 AM 49.3°F9.6°C 41.0°F5.0°C 73% 12.0 mph SE19.3 kmh SE 17.0 mph27.4 kmh 29.77 in1008.1 mb 0.00 in0.0 mm 0.00 in0.0 mm 0.00 in0.0 mm
12:20 AM 49.3°F9.6°C 41.0°F5.0°C 73% 12.0 mph SE19.3 kmh SE 17.0 mph27.4 kmh 29.77 in1008.1 mb 0.00 in0.0 mm 0.00 in0.0 mm 0.00 in0.0 mm
12:21 AM 49.4°F9.7°C 41.1°F5.1°C 73% 11.6 mph SE18.7 kmh SE 17.0 mph27.4 kmh 29.77 in1008.1 mb 0.00 in0.0 mm 0.00 in0.0 mm 0.00 in0.0 mm
12:22 AM 49.4°F9.7°C 41.1°F5.1°C 73% 10.8 mph SE17.4 kmh SE 15.0 mph24.1 kmh 29.77 in1008.1 mb 0.00 in0.0 mm 0.00 in0.0 mm 0.00 in0.0 mm
12:23 AM 49.4°F9.7°C 41.1°F5.1°C 73% 11.0 mph SE17.7 kmh SE 14.0 mph22.5 kmh 29.77 in1008.1 mb 0.00 in0.0 mm 0.00 in0.0 mm 0.00 in0.0 mm
12:24 AM 49.4°F9.7°C 41.1°F5.1°C 73% 10.0 mph SE16.1 kmh SE 14.0 mph22.5 kmh 29.77 in1008.1 mb 0.00 in0.0 mm 0.00 in0.0 mm 0.00 in0.0 mm
12:25 AM 49.4°F9.7°C 41.1°F5.1°C 73% 9.9 mph SE15.9 kmh SE 15.0 mph24.1 kmh 29.77 in1008.1 mb 0.00 in0.0 mm 0.00 in0.0 mm 0.00 in0.0 mm
12:26 AM 49.4°F9.7°C 41.1°F5.1°C 73% 11.4 mph SE18.3 kmh SE 15.0 mph24.1 kmh 29.77 in1008.1 mb 0.00 in0.0 mm 0.00 in0.0 mm 0.00 in0.0 mm
12:27 AM 49.4°F9.7°C 41.1°F5.1°C 73% 11.0 mph SE17.7 kmh SE 15.0 mph24.1 kmh 29.77 in1008.1 mb 0.00 in0.0 mm 0.00 in0.0 mm 0.00 in0.0 mm
12:28 AM 49.4°F9.7°C 41.1°F5.1°C 73% 12.1 mph SE19.5 kmh SE 16.0 mph25.7 kmh 29.77 in1008.1 mb 0.00 in0.0 mm 0.00 in0.0 mm 0.00 in0.0 mm
12:29 AM 49.4°F9.7°C 41.1°F5.1°C 73% 10.2 mph SE16.4 kmh SE 16.0 mph25.7 kmh 29.77 in1008.1 mb 0.00 in0.0 mm 0.00 in0.0 mm 0.00 in0.0 mm
12:30 AM 49.4°F9.7°C 41.1°F5.1°C 73% 11.1 mph SE17.9 kmh SE 16.0 mph25.7 kmh 29.77 in1008.1 mb 0.00 in0.0 mm 0.00 in0.0 mm 0.00 in0.0 mm
12:31 AM 49.4°F9.7°C 41.1°F5.1°C 73% 10.0 mph SE16.1 kmh SE 14.0 mph22.5 kmh 29.77 in1008.1 mb 0.00 in0.0 mm 0.00 in0.0 mm 0.00 in0.0 mm
12:32 AM 49.4°F9.7°C 41.1°F5.1°C 73% 12.5 mph SE20.1 kmh SE 17.0 mph27.4 kmh 29.76 in1007.8 mb 0.00 in0.0 mm 0.00 in0.0 mm 0.00 in0.0 mm
12:33 AM 49.4°F9.7°C 41.1°F5.1°C 73% 11.9 mph SE19.2 kmh SE 17.0 mph27.4 kmh 29.76 in1007.8 mb 0.00 in0.0 mm 0.00 in0.0 mm 0.00 in0.0 mm
12:34 AM 49.4°F9.7°C 41.1°F5.1°C 73% 11.0 mph SE17.7 kmh SE 16.0 mph25.7 kmh 29.77 in1008.1 mb 0.00 in0.0 mm 0.00 in0.0 mm 0.00 in0.0 mm
12:35 AM 49.4°F9.7°C 41.1°F5.1°C 73% 11.2 mph SE18.0 kmh SE 15.0 mph24.1 kmh 29.77 in1008.1 mb 0.00 in0.0 mm 0.00 in0.0 mm 0.00 in0.0 mm
12:36 AM 49.4°F9.7°C 41.1°F5.1°C 73% 9.6 mph SE15.4 kmh SE 15.0 mph24.1 kmh 29.76 in1007.8 mb 0.00 in0.0 mm 0.00 in0.0 mm 0.00 in0.0 mm
12:37 AM 49.4°F9.7°C 41.1°F5.1°C 73% 10.6 mph SE17.1 kmh SE 16.0 mph25.7 kmh 29.76 in1007.8 mb 0.00 in0.0 mm 0.00 in0.0 mm 0.00 in0.0 mm
12:38 AM 49.4°F9.7°C 41.1°F5.1°C 73% 9.6 mph SE15.4 kmh SE 16.0 mph25.7 kmh 29.76 in1007.8 mb 0.00 in0.0 mm 0.00 in0.0 mm 0.00 in0.0 mm
12:39 AM 49.4°F9.7°C 41.1°F5.1°C 73% 10.8 mph SE17.4 kmh SE 16.0 mph25.7 kmh 29.76 in1007.8 mb 0.00 in0.0 mm 0.00 in0.0 mm 0.00 in0.0 mm
12:40 AM 49.3°F9.6°C 41.0°F5.0°C 73% 10.4 mph SE16.7 kmh SE 18.0 mph29.0 kmh 29.76 in1007.8 mb 0.00 in0.0 mm 0.00 in0.0 mm 0.00 in0.0 mm
12:41 AM 49.3°F9.6°C 41.0°F5.0°C 73% 12.0 mph SE19.3 kmh SE 18.0 mph29.0 kmh 29.76 in1007.8 mb 0.00 in0.0 mm 0.00 in0.0 mm 0.00 in0.0 mm
12:42 AM 49.4°F9.7°C 41.5°F5.3°C 74% 11.4 mph SE18.3 kmh SE 16.0 mph25.7 kmh 29.76 in1007.8 mb 0.00 in0.0 mm 0.00 in0.0 mm 0.00 in0.0 mm
12:43 AM 49.4°F9.7°C 41.5°F5.3°C 74% 11.0 mph SE17.7 kmh SE 16.0 mph25.7 kmh 29.76 in1007.8 mb 0.00 in0.0 mm 0.00 in0.0 mm 0.00 in0.0 mm
12:44 AM 49.3°F9.6°C 41.4°F5.2°C 74% 10.1 mph SE16.3 kmh SE 15.0 mph24.1 kmh 29.76 in1007.8 mb 0.00 in0.0 mm 0.00 in0.0 mm 0.00 in0.0 mm
12:45 AM 49.3°F9.6°C 41.4°F5.2°C 74% 13.4 mph SE21.6 kmh SE 17.0 mph27.4 kmh 29.76 in1007.8 mb 0.00 in0.0 mm 0.00 in0.0 mm 0.00 in0.0 mm
12:46 AM 49.4°F9.7°C 41.5°F5.3°C 74% 12.2 mph SE19.6 kmh SE 17.0 mph27.4 kmh 29.76 in1007.8 mb 0.00 in0.0 mm 0.00 in0.0 mm 0.00 in0.0 mm
12:47 AM 49.3°F9.6°C 41.4°F5.2°C 74% 10.2 mph SE16.4 kmh SE 17.0 mph27.4 kmh 29.76 in1007.8 mb 0.00 in0.0 mm 0.00 in0.0 mm 0.00 in0.0 mm
12:48 AM 49.4°F9.7°C 41.5°F5.3°C 74% 12.4 mph SE20.0 kmh SE 17.0 mph27.4 kmh 29.76 in1007.8 mb 0.00 in0.0 mm 0.00 in0.0 mm 0.00 in0.0 mm
12:49 AM 49.4°F9.7°C 41.5°F5.3°C 74% 13.9 mph SE22.4 kmh SE 18.0 mph29.0 kmh 29.76 in1007.8 mb 0.00 in0.0 mm 0.00 in0.0 mm 0.00 in0.0 mm
12:50 AM 49.4°F9.7°C 41.5°F5.3°C 74% 12.6 mph SE20.3 kmh SE 18.0 mph29.0 kmh 29.76 in1007.8 mb 0.00 in0.0 mm 0.00 in0.0 mm 0.00 in0.0 mm
12:51 AM 49.4°F9.7°C 41.5°F5.3°C 74% 13.0 mph SE20.9 kmh SE 19.0 mph30.6 kmh 29.76 in1007.8 mb 0.00 in0.0 mm 0.00 in0.0 mm 0.00 in0.0 mm
12:52 AM 49.4°F9.7°C 41.5°F5.3°C 74% 13.0 mph SE20.9 kmh SE 19.0 mph30.6 kmh 29.76 in1007.8 mb 0.00 in0.0 mm 0.00 in0.0 mm 0.00 in0.0 mm
12:53 AM 49.3°F9.6°C 41.4°F5.2°C 74% 12.6 mph SE20.3 kmh SE 18.0 mph29.0 kmh 29.75 in1007.5 mb 0.00 in0.0 mm 0.00 in0.0 mm 0.00 in0.0 mm
12:54 AM 49.3°F9.6°C 41.4°F5.2°C 74% 12.0 mph SE19.3 kmh SE 18.0 mph29.0 kmh 29.76 in1007.8 mb 0.00 in0.0 mm 0.00 in0.0 mm 0.00 in0.0 mm
12:55 AM 49.3°F9.6°C 41.4°F5.2°C 74% 9.7 mph SE15.6 kmh SE 16.0 mph25.7 kmh 29.75 in1007.5 mb 0.00 in0.0 mm 0.00 in0.0 mm 0.00 in0.0 mm
12:56 AM 49.3°F9.6°C 41.4°F5.2°C 74% 10.3 mph SE16.6 kmh SE 14.0 mph22.5 kmh 29.75 in1007.5 mb 0.00 in0.0 mm 0.00 in0.0 mm 0.00 in0.0 mm
12:57 AM 49.2°F9.6°C 41.3°F5.2°C 74% 14.1 mph SE22.7 kmh SE 19.0 mph30.6 kmh 29.75 in1007.5 mb 0.00 in0.0 mm 0.00 in0.0 mm 0.00 in0.0 mm
12:58 AM 49.2°F9.6°C 41.3°F5.2°C 74% 11.2 mph SE18.0 kmh SE 19.0 mph30.6 kmh 29.75 in1007.5 mb 0.00 in0.0 mm 0.00 in0.0 mm 0.00 in0.0 mm
12:59 AM 49.3°F9.6°C 41.4°F5.2°C 74% 11.3 mph SE18.2 kmh SE 15.0 mph24.1 kmh 29.75 in1007.5 mb 0.00 in0.0 mm 0.00 in0.0 mm 0.00 in0.0 mm
01:00 AM 49.3°F9.6°C 41.4°F5.2°C 74% 12.4 mph SE20.0 kmh SE 16.0 mph25.7 kmh 29.75 in1007.5 mb 0.00 in0.0 mm 0.00 in0.0 mm 0.00 in0.0 mm
01:01 AM 49.3°F9.6°C 41.4°F5.2°C 74% 12.0 mph SE19.3 kmh SE 17.0 mph27.4 kmh 29.75 in1007.5 mb 0.00 in0.0 mm 0.00 in0.0 mm 0.00 in0.0 mm
01:02 AM 49.3°F9.6°C 41.4°F5.2°C 74% 14.1 mph SE22.7 kmh SE 19.0 mph30.6 kmh 29.75 in1007.5 mb 0.00 in0.0 mm 0.00 in0.0 mm 0.00 in0.0 mm
01:03 AM 49.3°F9.6°C 41.4°F5.2°C 74% 10.7 mph SE17.2 kmh SE 19.0 mph30.6 kmh 29.75 in1007.5 mb 0.00 in0.0 mm 0.00 in0.0 mm 0.00 in0.0 mm
01:04 AM 49.3°F9.6°C 41.4°F5.2°C 74% 13.4 mph SE21.6 kmh SE 18.0 mph29.0 kmh 29.75 in1007.5 mb 0.00 in0.0 mm 0.00 in0.0 mm 0.00 in0.0 mm
01:05 AM 49.3°F9.6°C 41.4°F5.2°C 74% 11.8 mph SE19.0 kmh SE 19.0 mph30.6 kmh 29.75 in1007.5 mb 0.00 in0.0 mm 0.00 in0.0 mm 0.00 in0.0 mm
01:06 AM 49.3°F9.6°C 41.4°F5.2°C 74% 10.8 mph SE17.4 kmh SE 19.0 mph30.6 kmh 29.75 in1007.5 mb 0.00 in0.0 mm 0.00 in0.0 mm 0.00 in0.0 mm
01:07 AM 49.3°F9.6°C 41.4°F5.2°C 74% 14.3 mph SE23.0 kmh SE 19.0 mph30.6 kmh 29.75 in1007.5 mb 0.00 in0.0 mm 0.00 in0.0 mm 0.00 in0.0 mm
01:08 AM 49.3°F9.6°C 41.4°F5.2°C 74% 11.2 mph SE18.0 kmh SE 20.0 mph32.2 kmh 29.75 in1007.5 mb 0.00 in0.0 mm 0.00 in0.0 mm 0.00 in0.0 mm
01:09 AM 49.3°F9.6°C 41.4°F5.2°C 74% 12.8 mph SE20.6 kmh SE 20.0 mph32.2 kmh 29.75 in1007.5 mb 0.00 in0.0 mm 0.00 in0.0 mm 0.00 in0.0 mm
01:10 AM 49.3°F9.6°C 41.4°F5.2°C 74% 13.0 mph SE20.9 kmh SE 18.0 mph29.0 kmh 29.75 in1007.5 mb 0.00 in0.0 mm 0.00 in0.0 mm 0.00 in0.0 mm
01:11 AM 49.3°F9.6°C 41.4°F5.2°C 74% 12.9 mph SE20.8 kmh SE 19.0 mph30.6 kmh 29.75 in1007.5 mb 0.00 in0.0 mm 0.00 in0.0 mm 0.00 in0.0 mm
01:12 AM 49.3°F9.6°C 41.4°F5.2°C 74% 10.0 mph SE16.1 kmh SE 19.0 mph30.6 kmh 29.75 in1007.5 mb 0.00 in0.0 mm 0.00 in0.0 mm 0.00 in0.0 mm
01:13 AM 49.3°F9.6°C 41.4°F5.2°C 74% 13.2 mph SE21.2 kmh SE 18.0 mph29.0 kmh 29.75 in1007.5 mb 0.00 in0.0 mm 0.00 in0.0 mm 0.00 in0.0 mm
01:14 AM 49.3°F9.6°C 41.4°F5.2°C 74% 13.5 mph SE21.7 kmh SE 20.0 mph32.2 kmh 29.75 in1007.5 mb 0.00 in0.0 mm 0.00 in0.0 mm 0.00 in0.0 mm
01:15 AM 49.3°F9.6°C 41.4°F5.2°C 74% 15.6 mph SE25.1 kmh SE 20.0 mph32.2 kmh 29.75 in1007.5 mb 0.00 in0.0 mm 0.00 in0.0 mm 0.00 in0.0 mm
01:16 AM 49.3°F9.6°C 41.4°F5.2°C 74% 13.8 mph SE22.2 kmh SE 19.0 mph30.6 kmh 29.75 in1007.5 mb 0.00 in0.0 mm 0.00 in0.0 mm 0.00 in0.0 mm
01:17 AM 49.3°F9.6°C 41.4°F5.2°C 74% 11.9 mph SE19.2 kmh SE 18.0 mph29.0 kmh 29.75 in1007.5 mb 0.00 in0.0 mm 0.00 in0.0 mm 0.00 in0.0 mm
01:18 AM 49.3°F9.6°C 41.4°F5.2°C 74% 12.4 mph SE20.0 kmh SE 17.0 mph27.4 kmh 29.75 in1007.5 mb 0.00 in0.0 mm 0.00 in0.0 mm 0.00 in0.0 mm
01:19 AM 49.4°F9.7°C 41.5°F5.3°C 74% 12.8 mph SE20.6 kmh SE 17.0 mph27.4 kmh 29.75 in1007.5 mb 0.00 in0.0 mm 0.00 in0.0 mm 0.00 in0.0 mm
01:20 AM 49.3°F9.6°C 41.4°F5.2°C 74% 10.8 mph SE17.4 kmh SE 16.0 mph25.7 kmh 29.75 in1007.5 mb 0.00 in0.0 mm 0.00 in0.0 mm 0.00 in0.0 mm
01:21 AM 49.3°F9.6°C 41.7°F5.4°C 75% 10.3 mph SE16.6 kmh SE 14.0 mph22.5 kmh 29.75 in1007.5 mb 0.00 in0.0 mm 0.00 in0.0 mm 0.00 in0.0 mm
01:22 AM 49.3°F9.6°C 41.7°F5.4°C 75% 12.9 mph SE20.8 kmh SE 17.0 mph27.4 kmh 29.75 in1007.5 mb 0.00 in0.0 mm 0.00 in0.0 mm 0.00 in0.0 mm
01:23 AM 49.3°F9.6°C 41.7°F5.4°C 75% 12.1 mph SE19.5 kmh SE 17.0 mph27.4 kmh 29.75 in1007.5 mb 0.00 in0.0 mm 0.00 in0.0 mm 0.00 in0.0 mm
01:24 AM 49.3°F9.6°C 41.7°F5.4°C 75% 13.4 mph SE21.6 kmh SE 17.0 mph27.4 kmh 29.75 in1007.5 mb 0.00 in0.0 mm 0.00 in0.0 mm 0.00 in0.0 mm
01:25 AM 49.3°F9.6°C 41.7°F5.4°C 75% 11.6 mph SE18.7 kmh SE 17.0 mph27.4 kmh 29.75 in1007.5 mb 0.00 in0.0 mm 0.00 in0.0 mm 0.00 in0.0 mm
01:26 AM 49.3°F9.6°C 41.7°F5.4°C 75% 11.0 mph SE17.7 kmh SE 17.0 mph27.4 kmh 29.75 in1007.5 mb 0.00 in0.0 mm 0.00 in0.0 mm 0.00 in0.0 mm
01:27 AM 49.3°F9.6°C 41.7°F5.4°C 75% 9.9 mph SE15.9 kmh SE 18.0 mph29.0 kmh 29.75 in1007.5 mb 0.00 in0.0 mm 0.00 in0.0 mm 0.00 in0.0 mm
01:28 AM 49.3°F9.6°C 41.7°F5.4°C 75% 9.6 mph SE15.4 kmh SE 18.0 mph29.0 kmh 29.75 in1007.5 mb 0.00 in0.0 mm 0.00 in0.0 mm 0.00 in0.0 mm
01:29 AM 49.3°F9.6°C 41.7°F5.4°C 75% 11.0 mph SE17.7 kmh SE 15.0 mph24.1 kmh 29.75 in1007.5 mb 0.00 in0.0 mm 0.00 in0.0 mm 0.00 in0.0 mm
01:30 AM 49.2°F9.6°C 41.6°F5.3°C 75% 9.7 mph SE15.6 kmh SE 15.0 mph24.1 kmh 29.75 in1007.5 mb 0.00 in0.0 mm 0.00 in0.0 mm 0.00 in0.0 mm
01:31 AM 49.3°F9.6°C 41.7°F5.4°C 75% 8.8 mph SE14.2 kmh SE 14.0 mph22.5 kmh 29.75 in1007.5 mb 0.00 in0.0 mm 0.00 in0.0 mm 0.00 in0.0 mm
01:32 AM 49.2°F9.6°C 41.6°F5.3°C 75% 14.4 mph SE23.2 kmh SE 20.0 mph32.2 kmh 29.75 in1007.5 mb 0.00 in0.0 mm 0.00 in0.0 mm 0.00 in0.0 mm
01:33 AM 49.3°F9.6°C 41.7°F5.4°C 75% 14.3 mph SE23.0 kmh SE 20.0 mph32.2 kmh 29.75 in1007.5 mb 0.00 in0.0 mm 0.00 in0.0 mm 0.00 in0.0 mm
01:34 AM 49.2°F9.6°C 41.6°F5.3°C 75% 12.0 mph SE19.3 kmh SE 19.0 mph30.6 kmh 29.75 in1007.5 mb 0.00 in0.0 mm 0.00 in0.0 mm 0.00 in0.0 mm
01:35 AM 49.2°F9.6°C 41.6°F5.3°C 75% 10.6 mph SE17.1 kmh SE 17.0 mph27.4 kmh 29.75 in1007.5 mb 0.00 in0.0 mm 0.00 in0.0 mm 0.00 in0.0 mm
01:36 AM 49.2°F9.6°C 41.6°F5.3°C 75% 14.1 mph SE22.7 kmh SE 19.0 mph30.6 kmh 29.75 in1007.5 mb 0.00 in0.0 mm 0.00 in0.0 mm 0.00 in0.0 mm
01:37 AM 49.2°F9.6°C 41.6°F5.3°C 75% 13.0 mph SE20.9 kmh SE 19.0 mph30.6 kmh 29.75 in1007.5 mb 0.00 in0.0 mm 0.00 in0.0 mm 0.00 in0.0 mm
01:38 AM 49.2°F9.6°C 41.6°F5.3°C 75% 11.4 mph SE18.3 kmh SE 18.0 mph29.0 kmh 29.75 in1007.5 mb 0.00 in0.0 mm 0.00 in0.0 mm 0.00 in0.0 mm
01:39 AM 49.2°F9.6°C 41.6°F5.3°C 75% 12.3 mph SE19.8 kmh SE 18.0 mph29.0 kmh 29.75 in1007.5 mb 0.00 in0.0 mm 0.00 in0.0 mm 0.00 in0.0 mm
01:40 AM 49.2°F9.6°C 41.6°F5.3°C 75% 12.5 mph SE20.1 kmh SE 17.0 mph27.4 kmh 29.75 in1007.5 mb 0.00 in0.0 mm 0.00 in0.0 mm 0.00 in0.0 mm
01:41 AM 49.2°F9.6°C 41.6°F5.3°C 75% 13.3 mph SE21.4 kmh SE 17.0 mph27.4 kmh 29.75 in1007.5 mb 0.00 in0.0 mm 0.00 in0.0 mm 0.00 in0.0 mm
01:42 AM 49.1°F9.5°C 41.5°F5.3°C 75% 10.1 mph SE16.3 kmh SE 17.0 mph27.4 kmh 29.75 in1007.5 mb 0.00 in0.0 mm 0.00 in0.0 mm 0.00 in0.0 mm
01:43 AM 49.2°F9.6°C 42.0°F5.6°C 76% 10.4 mph SE16.7 kmh SE 17.0 mph27.4 kmh 29.75 in1007.5 mb 0.00 in0.0 mm 0.00 in0.0 mm 0.00 in0.0 mm
01:44 AM 49.2°F9.6°C 42.0°F5.6°C 76% 11.1 mph SE17.9 kmh SE 17.0 mph27.4 kmh 29.75 in1007.5 mb 0.00 in0.0 mm 0.00 in0.0 mm 0.00 in0.0 mm
01:45 AM 49.1°F9.5°C 41.9°F5.5°C 76% 9.0 mph SE14.5 kmh SE 15.0 mph24.1 kmh 29.74 in1007.1 mb 0.00 in0.0 mm 0.00 in0.0 mm 0.00 in0.0 mm
01:46 AM 49.1°F9.5°C 41.9°F5.5°C 76% 10.2 mph SE16.4 kmh SE 14.0 mph22.5 kmh 29.74 in1007.1 mb 0.00 in0.0 mm 0.00 in0.0 mm 0.00 in0.0 mm
01:47 AM 49.1°F9.5°C 41.9°F5.5°C 76% 10.5 mph SE16.9 kmh SE 15.0 mph24.1 kmh 29.74 in1007.1 mb 0.00 in0.0 mm 0.00 in0.0 mm 0.00 in0.0 mm
01:48 AM 49.1°F9.5°C 41.9°F5.5°C 76% 9.5 mph SE15.3 kmh SE 15.0 mph24.1 kmh 29.74 in1007.1 mb 0.00 in0.0 mm 0.00 in0.0 mm 0.00 in0.0 mm
01:49 AM 49.0°F9.4°C 41.8°F5.4°C 76% 11.9 mph SE19.2 kmh SE 17.0 mph27.4 kmh 29.75 in1007.5 mb 0.00 in0.0 mm 0.00 in0.0 mm 0.00 in0.0 mm
01:50 AM 49.1°F9.5°C 41.9°F5.5°C 76% 13.0 mph SE20.9 kmh SE 17.0 mph27.4 kmh 29.74 in1007.1 mb 0.00 in0.0 mm 0.00 in0.0 mm 0.00 in0.0 mm
01:51 AM 49.0°F9.4°C 41.8°F5.4°C 76% 9.3 mph SE15.0 kmh SE 15.0 mph24.1 kmh 29.75 in1007.5 mb 0.00 in0.0 mm 0.00 in0.0 mm 0.00 in0.0 mm
01:52 AM 49.1°F9.5°C 41.9°F5.5°C 76% 9.7 mph SE15.6 kmh SE 14.0 mph22.5 kmh 29.75 in1007.5 mb 0.00 in0.0 mm 0.00 in0.0 mm 0.00 in0.0 mm
01:53 AM 49.0°F9.4°C 41.8°F5.4°C 76% 15.5 mph SE24.9 kmh SE 21.0 mph33.8 kmh 29.74 in1007.1 mb 0.00 in0.0 mm 0.00 in0.0 mm 0.00 in0.0 mm
01:54 AM 49.0°F9.4°C 41.8°F5.4°C 76% 10.4 mph SE16.7 kmh SE 21.0 mph33.8 kmh 29.75 in1007.5 mb 0.00 in0.0 mm 0.00 in0.0 mm 0.00 in0.0 mm
01:55 AM 49.0°F9.4°C 41.8°F5.4°C 76% 10.0 mph SE16.1 kmh SE 16.0 mph25.7 kmh 29.74 in1007.1 mb 0.00 in0.0 mm 0.00 in0.0 mm 0.00 in0.0 mm
01:56 AM 49.0°F9.4°C 41.8°F5.4°C 76% 12.8 mph SE20.6 kmh SE 17.0 mph27.4 kmh 29.74 in1007.1 mb 0.00 in0.0 mm 0.00 in0.0 mm 0.00 in0.0 mm
01:57 AM 49.0°F9.4°C 41.8°F5.4°C 76% 11.3 mph SE18.2 kmh SE 17.0 mph27.4 kmh 29.75 in1007.5 mb 0.00 in0.0 mm 0.00 in0.0 mm 0.00 in0.0 mm
01:58 AM 49.0°F9.4°C 41.8°F5.4°C 76% 10.8 mph SE17.4 kmh SE 16.0 mph25.7 kmh 29.74 in1007.1 mb 0.00 in0.0 mm 0.00 in0.0 mm 0.00 in0.0 mm
01:59 AM 49.1°F9.5°C 41.9°F5.5°C 76% 10.4 mph SE16.7 kmh SE 15.0 mph24.1 kmh 29.74 in1007.1 mb 0.00 in0.0 mm 0.00 in0.0 mm 0.00 in0.0 mm
02:00 AM 49.0°F9.4°C 41.8°F5.4°C 76% 9.5 mph SE15.3 kmh SE 15.0 mph24.1 kmh 29.75 in1007.5 mb 0.00 in0.0 mm 0.00 in0.0 mm 0.00 in0.0 mm
02:01 AM 49.0°F9.4°C 42.1°F5.6°C 77% 12.4 mph SE20.0 kmh SE 19.0 mph30.6 kmh 29.74 in1007.1 mb 0.00 in0.0 mm 0.00 in0.0 mm 0.00 in0.0 mm
02:02 AM 49.0°F9.4°C 41.8°F5.4°C 76% 13.1 mph SE21.1 kmh SE 19.0 mph30.6 kmh 29.74 in1007.1 mb 0.00 in0.0 mm 0.00 in0.0 mm 0.00 in0.0 mm
02:03 AM 49.0°F9.4°C 41.8°F5.4°C 76% 10.3 mph SE16.6 kmh SE 17.0 mph27.4 kmh 29.75 in1007.5 mb 0.00 in0.0 mm 0.00 in0.0 mm 0.00 in0.0 mm
02:04 AM 49.0°F9.4°C 42.1°F5.6°C 77% 11.6 mph SE18.7 kmh SE 19.0 mph30.6 kmh 29.74 in1007.1 mb 0.00 in0.0 mm 0.00 in0.0 mm 0.00 in0.0 mm
02:05 AM 48.9°F9.4°C 41.7°F5.4°C 76% 13.3 mph SE21.4 kmh SE 19.0 mph30.6 kmh 29.74 in1007.1 mb 0.00 in0.0 mm 0.00 in0.0 mm 0.00 in0.0 mm
02:06 AM 49.0°F9.4°C 42.1°F5.6°C 77% 12.5 mph SE20.1 kmh SE 18.0 mph29.0 kmh 29.74 in1007.1 mb 0.00 in0.0 mm 0.00 in0.0 mm 0.00 in0.0 mm
02:07 AM 49.0°F9.4°C 42.1°F5.6°C 77% 13.2 mph SE21.2 kmh SE 18.0 mph29.0 kmh 29.74 in1007.1 mb 0.00 in0.0 mm 0.00 in0.0 mm 0.00 in0.0 mm
02:08 AM 49.0°F9.4°C 41.8°F5.4°C 76% 13.9 mph SE22.4 kmh SE 19.0 mph30.6 kmh 29.74 in1007.1 mb 0.00 in0.0 mm 0.00 in0.0 mm 0.00 in0.0 mm
02:09 AM 49.0°F9.4°C 41.8°F5.4°C 76% 10.3 mph SE16.6 kmh SE 19.0 mph30.6 kmh 29.74 in1007.1 mb 0.00 in0.0 mm 0.00 in0.0 mm 0.00 in0.0 mm
02:10 AM 49.0°F9.4°C 42.1°F5.6°C 77% 11.5 mph SE18.5 kmh SE 16.0 mph25.7 kmh 29.74 in1007.1 mb 0.00 in0.0 mm 0.00 in0.0 mm 0.00 in0.0 mm
02:11 AM 48.9°F9.4°C 42.0°F5.6°C 77% 14.3 mph SE23.0 kmh SE 18.0 mph29.0 kmh 29.74 in1007.1 mb 0.00 in0.0 mm 0.00 in0.0 mm 0.00 in0.0 mm
02:12 AM 48.9°F9.4°C 41.7°F5.4°C 76% 11.3 mph SE18.2 kmh SE 18.0 mph29.0 kmh 29.74 in1007.1 mb 0.00 in0.0 mm 0.00 in0.0 mm 0.00 in0.0 mm
02:13 AM 48.9°F9.4°C 42.0°F5.6°C 77% 9.4 mph SE15.1 kmh SE 15.0 mph24.1 kmh 29.74 in1007.1 mb 0.00 in0.0 mm 0.00 in0.0 mm 0.00 in0.0 mm
02:14 AM 49.0°F9.4°C 42.1°F5.6°C 77% 6.5 mph SE10.5 kmh SE 13.0 mph20.9 kmh 29.74 in1007.1 mb 0.00 in0.0 mm 0.00 in0.0 mm 0.00 in0.0 mm
02:15 AM 48.9°F9.4°C 42.0°F5.6°C 77% 10.5 mph SE16.9 kmh SE 15.0 mph24.1 kmh 29.74 in1007.1 mb 0.00 in0.0 mm 0.00 in0.0 mm 0.00 in0.0 mm
02:16 AM 48.9°F9.4°C 42.0°F5.6°C 77% 12.2 mph SE19.6 kmh SE 15.0 mph24.1 kmh 29.74 in1007.1 mb 0.00 in0.0 mm 0.00 in0.0 mm 0.00 in0.0 mm
02:17 AM 48.9°F9.4°C 42.0°F5.6°C 77% 10.9 mph SE17.5 kmh SE 15.0 mph24.1 kmh 29.74 in1007.1 mb 0.00 in0.0 mm 0.00 in0.0 mm 0.00 in0.0 mm
02:18 AM 48.9°F9.4°C 42.0°F5.6°C 77% 11.1 mph SE17.9 kmh SE 15.0 mph24.1 kmh 29.74 in1007.1 mb 0.00 in0.0 mm 0.00 in0.0 mm 0.00 in0.0 mm
02:19 AM 48.9°F9.4°C 42.0°F5.6°C 77% 11.3 mph SE18.2 kmh SE 14.0 mph22.5 kmh 29.74 in1007.1 mb 0.00 in0.0 mm 0.00 in0.0 mm 0.00 in0.0 mm
02:20 AM 48.9°F9.4°C 42.0°F5.6°C 77% 10.4 mph SE16.7 kmh SE 14.0 mph22.5 kmh 29.74 in1007.1 mb 0.00 in0.0 mm 0.00 in0.0 mm 0.00 in0.0 mm
02:21 AM 48.9°F9.4°C 42.0°F5.6°C 77% 11.2 mph SE18.0 kmh SE 14.0 mph22.5 kmh 29.74 in1007.1 mb 0.00 in0.0 mm 0.00 in0.0 mm 0.00 in0.0 mm
02:22 AM 48.9°F9.4°C 42.0°F5.6°C 77% 12.0 mph SE19.3 kmh SE 15.0 mph24.1 kmh 29.74 in1007.1 mb 0.00 in0.0 mm 0.00 in0.0 mm 0.00 in0.0 mm
02:23 AM 48.9°F9.4°C 42.0°F5.6°C 77% 12.3 mph SSE19.8 kmh SSE 17.0 mph27.4 kmh 29.75 in1007.5 mb 0.00 in0.0 mm 0.00 in0.0 mm 0.00 in0.0 mm
02:24 AM 48.8°F9.3°C 41.9°F5.5°C 77% 9.5 mph SSE15.3 kmh SSE 17.0 mph27.4 kmh 29.75 in1007.5 mb 0.00 in0.0 mm 0.00 in0.0 mm 0.00 in0.0 mm
02:25 AM 48.9°F9.4°C 42.0°F5.6°C 77% 10.3 mph SE16.6 kmh SE 16.0 mph25.7 kmh 29.75 in1007.5 mb 0.00 in0.0 mm 0.00 in0.0 mm 0.00 in0.0 mm
02:26 AM 48.8°F9.3°C 41.9°F5.5°C 77% 10.0 mph SSE16.1 kmh SSE 14.0 mph22.5 kmh 29.75 in1007.5 mb 0.00 in0.0 mm 0.00 in0.0 mm 0.00 in0.0 mm
02:27 AM 48.8°F9.3°C 41.9°F5.5°C 77% 9.4 mph SE15.1 kmh SE 14.0 mph22.5 kmh 29.75 in1007.5 mb 0.00 in0.0 mm 0.00 in0.0 mm 0.00 in0.0 mm
02:28 AM 48.8°F9.3°C 41.9°F5.5°C 77% 11.5 mph SE18.5 kmh SE 14.0 mph22.5 kmh 29.75 in1007.5 mb 0.00 in0.0 mm 0.00 in0.0 mm 0.00 in0.0 mm
02:29 AM 48.7°F9.3°C 41.8°F5.4°C 77% 13.0 mph SE20.9 kmh SE 18.0 mph29.0 kmh 29.75 in1007.5 mb 0.00 in0.0 mm 0.00 in0.0 mm 0.00 in0.0 mm
02:30 AM 48.7°F9.3°C 41.8°F5.4°C 77% 11.3 mph SE18.2 kmh SE 18.0 mph29.0 kmh 29.75 in1007.5 mb 0.00 in0.0 mm 0.00 in0.0 mm 0.00 in0.0 mm
02:31 AM 48.7°F9.3°C 41.8°F5.4°C 77% 11.7 mph SSE18.8 kmh SSE 17.0 mph27.4 kmh 29.75 in1007.5 mb 0.00 in0.0 mm 0.00 in0.0 mm 0.00 in0.0 mm
02:32 AM 48.7°F9.3°C 41.8°F5.4°C 77% 9.1 mph SE14.6 kmh SE 17.0 mph27.4 kmh 29.75 in1007.5 mb 0.00 in0.0 mm 0.00 in0.0 mm 0.00 in0.0 mm
02:33 AM 48.7°F9.3°C 41.8°F5.4°C 77% 12.8 mph SE20.6 kmh SE 18.0 mph29.0 kmh 29.75 in1007.5 mb 0.00 in0.0 mm 0.00 in0.0 mm 0.00 in0.0 mm
02:34 AM 48.7°F9.3°C 41.8°F5.4°C 77% 8.8 mph SE14.2 kmh SE 18.0 mph29.0 kmh 29.75 in1007.5 mb 0.00 in0.0 mm 0.00 in0.0 mm 0.00 in0.0 mm
02:35 AM 48.6°F9.2°C 41.7°F5.4°C 77% 8.5 mph SSE13.7 kmh SSE 12.0 mph19.3 kmh 29.75 in1007.5 mb 0.00 in0.0 mm 0.00 in0.0 mm 0.00 in0.0 mm
02:36 AM 48.7°F9.3°C 41.8°F5.4°C 77% 9.5 mph SE15.3 kmh SE 16.0 mph25.7 kmh 29.75 in1007.5 mb 0.00 in0.0 mm 0.00 in0.0 mm 0.00 in0.0 mm
02:37 AM 48.6°F9.2°C 41.7°F5.4°C 77% 11.2 mph SSE18.0 kmh SSE 18.0 mph29.0 kmh 29.75 in1007.5 mb 0.00 in0.0 mm 0.00 in0.0 mm 0.00 in0.0 mm
02:38 AM 48.6°F9.2°C 41.7°F5.4°C 77% 9.8 mph SSE15.8 kmh SSE 18.0 mph29.0 kmh 29.75 in1007.5 mb 0.00 in0.0 mm 0.00 in0.0 mm 0.00 in0.0 mm
02:39 AM 48.6°F9.2°C 41.7°F5.4°C 77% 8.6 mph SE13.8 kmh SE 15.0 mph24.1 kmh 29.75 in1007.5 mb 0.00 in0.0 mm 0.00 in0.0 mm 0.00 in0.0 mm
02:40 AM 48.6°F9.2°C 41.7°F5.4°C 77% 7.7 mph SE12.4 kmh SE 12.0 mph19.3 kmh 29.75 in1007.5 mb 0.00 in0.0 mm 0.00 in0.0 mm 0.00 in0.0 mm
02:41 AM 48.6°F9.2°C 41.7°F5.4°C 77% 8.2 mph SSE13.2 kmh SSE 13.0 mph20.9 kmh 29.75 in1007.5 mb 0.00 in0.0 mm 0.00 in0.0 mm 0.00 in0.0 mm
02:42 AM 48.5°F9.2°C 41.6°F5.3°C 77% 6.2 mph SSE10.0 kmh SSE 13.0 mph20.9 kmh 29.75 in1007.5 mb 0.00 in0.0 mm 0.00 in0.0 mm 0.00 in0.0 mm
02:43 AM 48.6°F9.2°C 41.7°F5.4°C 77% 7.7 mph SSE12.4 kmh SSE 11.0 mph17.7 kmh 29.75 in1007.5 mb 0.00 in0.0 mm 0.00 in0.0 mm 0.00 in0.0 mm
02:44 AM 48.5°F9.2°C 41.6°F5.3°C 77% 8.4 mph SSE13.5 kmh SSE 13.0 mph20.9 kmh 29.75 in1007.5 mb 0.00 in0.0 mm 0.00 in0.0 mm 0.00 in0.0 mm
02:45 AM 48.5°F9.2°C 41.6°F5.3°C 77% 8.9 mph SSE14.3 kmh SSE 16.0 mph25.7 kmh 29.75 in1007.5 mb 0.00 in0.0 mm 0.00 in0.0 mm 0.00 in0.0 mm
02:46 AM 48.6°F9.2°C 41.7°F5.4°C 77% 10.1 mph SSE16.3 kmh SSE 16.0 mph25.7 kmh 29.75 in1007.5 mb 0.00 in0.0 mm 0.00 in0.0 mm 0.00 in0.0 mm
02:47 AM 48.6°F9.2°C 41.7°F5.4°C 77% 10.0 mph SSE16.1 kmh SSE 17.0 mph27.4 kmh 29.75 in1007.5 mb 0.00 in0.0 mm 0.00 in0.0 mm 0.00 in0.0 mm
02:48 AM 48.7°F9.3°C 41.8°F5.4°C 77% 10.5 mph SSE16.9 kmh SSE 17.0 mph27.4 kmh 29.75 in1007.5 mb 0.00 in0.0 mm 0.00 in0.0 mm 0.00 in0.0 mm
02:49 AM 48.7°F9.3°C 41.8°F5.4°C 77% 7.3 mph SSE11.7 kmh SSE 14.0 mph22.5 kmh 29.75 in1007.5 mb 0.00 in0.0 mm 0.00 in0.0 mm 0.00 in0.0 mm
02:50 AM 48.7°F9.3°C 41.8°F5.4°C 77% 8.2 mph SSE13.2 kmh SSE 11.0 mph17.7 kmh 29.75 in1007.5 mb 0.00 in0.0 mm 0.00 in0.0 mm 0.00 in0.0 mm
02:51 AM 48.7°F9.3°C 41.8°F5.4°C 77% 8.0 mph SSE12.9 kmh SSE 14.0 mph22.5 kmh 29.75 in1007.5 mb 0.00 in0.0 mm 0.00 in0.0 mm 0.00 in0.0 mm
02:52 AM 48.7°F9.3°C 41.8°F5.4°C 77% 7.2 mph SSE11.6 kmh SSE 14.0 mph22.5 kmh 29.75 in1007.5 mb 0.00 in0.0 mm 0.00 in0.0 mm 0.00 in0.0 mm
02:53 AM 48.7°F9.3°C 41.8°F5.4°C 77% 8.8 mph SSE14.2 kmh SSE 12.0 mph19.3 kmh 29.75 in1007.5 mb 0.00 in0.0 mm 0.00 in0.0 mm 0.00 in0.0 mm
02:54 AM 48.8°F9.3°C 41.9°F5.5°C 77% 8.3 mph SE13.4 kmh SE 14.0 mph22.5 kmh 29.75 in1007.5 mb 0.00 in0.0 mm 0.00 in0.0 mm 0.00 in0.0 mm
02:55 AM 48.8°F9.3°C 41.9°F5.5°C 77% 8.3 mph SSE13.4 kmh SSE 14.0 mph22.5 kmh 29.75 in1007.5 mb 0.00 in0.0 mm 0.00 in0.0 mm 0.00 in0.0 mm
02:56 AM 48.8°F9.3°C 41.9°F5.5°C 77% 7.9 mph SSE12.7 kmh SSE 12.0 mph19.3 kmh 29.75 in1007.5 mb 0.00 in0.0 mm 0.00 in0.0 mm 0.00 in0.0 mm
02:57 AM 48.8°F9.3°C 41.9°F5.5°C 77% 8.0 mph S12.9 kmh S 12.0 mph19.3 kmh 29.75 in1007.5 mb 0.00 in0.0 mm 0.00 in0.0 mm 0.00 in0.0 mm
02:58 AM 48.8°F9.3°C 41.9°F5.5°C 77% 7.0 mph SSE11.3 kmh SSE 11.0 mph17.7 kmh 29.75 in1007.5 mb 0.00 in0.0 mm 0.00 in0.0 mm 0.00 in0.0 mm
02:59 AM 48.8°F9.3°C 41.9°F5.5°C 77% 6.4 mph S10.3 kmh S 10.0 mph16.1 kmh 29.75 in1007.5 mb 0.00 in0.0 mm 0.00 in0.0 mm 0.00 in0.0 mm
03:00 AM 48.8°F9.3°C 41.9°F5.5°C 77% 8.0 mph S12.9 kmh S 11.0 mph17.7 kmh 29.75 in1007.5 mb 0.00 in0.0 mm 0.00 in0.0 mm 0.00 in0.0 mm
03:01 AM 48.9°F9.4°C 42.0°F5.6°C 77% 8.5 mph SSE13.7 kmh SSE 12.0 mph19.3 kmh 29.75 in1007.5 mb 0.00 in0.0 mm 0.00 in0.0 mm 0.00 in0.0 mm
03:02 AM 48.9°F9.4°C 42.0°F5.6°C 77% 7.6 mph SSE12.2 kmh SSE 13.0 mph20.9 kmh 29.75 in1007.5 mb 0.00 in0.0 mm 0.00 in0.0 mm 0.00 in0.0 mm
03:03 AM 48.9°F9.4°C 42.0°F5.6°C 77% 6.1 mph S9.8 kmh S 13.0 mph20.9 kmh 29.75 in1007.5 mb 0.00 in0.0 mm 0.00 in0.0 mm 0.00 in0.0 mm
03:04 AM 48.9°F9.4°C 42.0°F5.6°C 77% 5.7 mph SSE9.2 kmh SSE 10.0 mph16.1 kmh 29.75 in1007.5 mb 0.00 in0.0 mm 0.00 in0.0 mm 0.00 in0.0 mm
03:05 AM 48.9°F9.4°C 42.0°F5.6°C 77% 5.5 mph SSE8.9 kmh SSE 9.0 mph14.5 kmh 29.75 in1007.5 mb 0.00 in0.0 mm 0.00 in0.0 mm 0.00 in0.0 mm
03:06 AM 48.9°F9.4°C 42.0°F5.6°C 77% 7.5 mph S12.1 kmh S 11.0 mph17.7 kmh 29.75 in1007.5 mb 0.00 in0.0 mm 0.00 in0.0 mm 0.00 in0.0 mm
03:07 AM 49.0°F9.4°C 42.1°F5.6°C 77% 7.5 mph S12.1 kmh S 11.0 mph17.7 kmh 29.75 in1007.5 mb 0.00 in0.0 mm 0.00 in0.0 mm 0.00 in0.0 mm
03:08 AM 49.0°F9.4°C 42.1°F5.6°C 77% 9.0 mph S14.5 kmh S 13.0 mph20.9 kmh 29.75 in1007.5 mb 0.00 in0.0 mm 0.00 in0.0 mm 0.00 in0.0 mm
03:09 AM 49.0°F9.4°C 42.1°F5.6°C 77% 5.9 mph SSE9.5 kmh SSE 13.0 mph20.9 kmh 29.75 in1007.5 mb 0.00 in0.0 mm 0.00 in0.0 mm 0.00 in0.0 mm
03:10 AM 49.0°F9.4°C 42.1°F5.6°C 77% 8.0 mph SSE12.9 kmh SSE 12.0 mph19.3 kmh 29.75 in1007.5 mb 0.00 in0.0 mm 0.00 in0.0 mm 0.00 in0.0 mm
03:11 AM 49.0°F9.4°C 42.1°F5.6°C 77% 8.1 mph SSE13.0 kmh SSE 12.0 mph19.3 kmh 29.75 in1007.5 mb 0.00 in0.0 mm 0.00 in0.0 mm 0.00 in0.0 mm
03:12 AM 49.1°F9.5°C 42.2°F5.7°C 77% 6.8 mph SSE10.9 kmh SSE 12.0 mph19.3 kmh 29.75 in1007.5 mb 0.00 in0.0 mm 0.00 in0.0 mm 0.00 in0.0 mm
03:13 AM 49.1°F9.5°C 42.2°F5.7°C 77% 7.1 mph S11.4 kmh S 13.0 mph20.9 kmh 29.75 in1007.5 mb 0.00 in0.0 mm 0.00 in0.0 mm 0.00 in0.0 mm
03:14 AM 49.1°F9.5°C 42.2°F5.7°C 77% 7.1 mph SSE11.4 kmh SSE 13.0 mph20.9 kmh 29.75 in1007.5 mb 0.00 in0.0 mm 0.00 in0.0 mm 0.00 in0.0 mm
03:15 AM 49.1°F9.5°C 42.2°F5.7°C 77% 8.8 mph S14.2 kmh S 16.0 mph25.7 kmh 29.75 in1007.5 mb 0.00 in0.0 mm 0.00 in0.0 mm 0.00 in0.0 mm
03:16 AM 49.1°F9.5°C 42.2°F5.7°C 77% 7.5 mph S12.1 kmh S 16.0 mph25.7 kmh 29.75 in1007.5 mb 0.00 in0.0 mm 0.00 in0.0 mm 0.00 in0.0 mm
03:17 AM 49.1°F9.5°C 42.2°F5.7°C 77% 8.2 mph SSE13.2 kmh SSE 10.0 mph16.1 kmh 29.75 in1007.5 mb 0.00 in0.0 mm 0.00 in0.0 mm 0.00 in0.0 mm
03:18 AM 49.2°F9.6°C 42.3°F5.7°C 77% 9.2 mph SSE14.8 kmh SSE 14.0 mph22.5 kmh 29.75 in1007.5 mb 0.00 in0.0 mm 0.00 in0.0 mm 0.00 in0.0 mm
03:19 AM 49.2°F9.6°C 42.3°F5.7°C 77% 8.5 mph SSE13.7 kmh SSE 14.0 mph22.5 kmh 29.75 in1007.5 mb 0.00 in0.0 mm 0.00 in0.0 mm 0.00 in0.0 mm
03:20 AM 49.2°F9.6°C 42.3°F5.7°C 77% 9.2 mph S14.8 kmh S 13.0 mph20.9 kmh 29.75 in1007.5 mb 0.00 in0.0 mm 0.00 in0.0 mm 0.00 in0.0 mm
03:21 AM 49.2°F9.6°C 42.3°F5.7°C 77% 10.9 mph S17.5 kmh S 19.0 mph30.6 kmh 29.75 in1007.5 mb 0.00 in0.0 mm 0.00 in0.0 mm 0.00 in0.0 mm
03:22 AM 49.2°F9.6°C 42.3°F5.7°C 77% 10.5 mph S16.9 kmh S 19.0 mph30.6 kmh 29.75 in1007.5 mb 0.00 in0.0 mm 0.00 in0.0 mm 0.00 in0.0 mm
03:23 AM 49.2°F9.6°C 42.3°F5.7°C 77% 9.1 mph S14.6 kmh S 16.0 mph25.7 kmh 29.75 in1007.5 mb 0.00 in0.0 mm 0.00 in0.0 mm 0.00 in0.0 mm
03:24 AM 49.2°F9.6°C 42.3°F5.7°C 77% 7.5 mph S12.1 kmh S 14.0 mph22.5 kmh 29.75 in1007.5 mb 0.00 in0.0 mm 0.00 in0.0 mm 0.00 in0.0 mm
03:25 AM 49.2°F9.6°C 42.3°F5.7°C 77% 6.4 mph SSE10.3 kmh SSE 12.0 mph19.3 kmh 29.75 in1007.5 mb 0.00 in0.0 mm 0.00 in0.0 mm 0.00 in0.0 mm
03:26 AM 49.2°F9.6°C 42.3°F5.7°C 77% 7.5 mph S12.1 kmh S 11.0 mph17.7 kmh 29.75 in1007.5 mb 0.00 in0.0 mm 0.00 in0.0 mm 0.00 in0.0 mm
03:27 AM 49.2°F9.6°C 42.3°F5.7°C 77% 9.3 mph SSE15.0 kmh SSE 14.0 mph22.5 kmh 29.75 in1007.5 mb 0.00 in0.0 mm 0.00 in0.0 mm 0.00 in0.0 mm
03:28 AM 49.2°F9.6°C 42.3°F5.7°C 77% 7.7 mph S12.4 kmh S 14.0 mph22.5 kmh 29.75 in1007.5 mb 0.00 in0.0 mm 0.00 in0.0 mm 0.00 in0.0 mm
03:29 AM 49.2°F9.6°C 42.3°F5.7°C 77% 8.8 mph S14.2 kmh S 15.0 mph24.1 kmh 29.75 in1007.5 mb 0.00 in0.0 mm 0.00 in0.0 mm 0.00 in0.0 mm
03:30 AM 49.2°F9.6°C 42.3°F5.7°C 77% 8.8 mph SSE14.2 kmh SSE 15.0 mph24.1 kmh 29.75 in1007.5 mb 0.00 in0.0 mm 0.00 in0.0 mm 0.00 in0.0 mm
03:31 AM 49.2°F9.6°C 42.3°F5.7°C 77% 10.1 mph S16.3 kmh S 17.0 mph27.4 kmh 29.75 in1007.5 mb 0.00 in0.0 mm 0.00 in0.0 mm 0.00 in0.0 mm
03:32 AM 49.2°F9.6°C 42.3°F5.7°C 77% 9.3 mph S15.0 kmh S 17.0 mph27.4 kmh 29.75 in1007.5 mb 0.00 in0.0 mm 0.00 in0.0 mm 0.00 in0.0 mm
03:33 AM 49.1°F9.5°C 42.2°F5.7°C 77% 9.9 mph S15.9 kmh S 15.0 mph24.1 kmh 29.75 in1007.5 mb 0.00 in0.0 mm 0.00 in0.0 mm 0.00 in0.0 mm
03:34 AM 49.1°F9.5°C 42.2°F5.7°C 77% 9.5 mph S15.3 kmh S 16.0 mph25.7 kmh 29.75 in1007.5 mb 0.00 in0.0 mm 0.00 in0.0 mm 0.00 in0.0 mm
03:35 AM 49.1°F9.5°C 42.2°F5.7°C 77% 9.8 mph S15.8 kmh S 16.0 mph25.7 kmh 29.75 in1007.5 mb 0.00 in0.0 mm 0.00 in0.0 mm 0.00 in0.0 mm
03:36 AM 49.2°F9.6°C 42.6°F5.9°C 78% 8.3 mph SSE13.4 kmh SSE 14.0 mph22.5 kmh 29.75 in1007.5 mb 0.00 in0.0 mm 0.00 in0.0 mm 0.00 in0.0 mm
03:37 AM 49.1°F9.5°C 42.5°F5.8°C 78% 8.9 mph SSE14.3 kmh SSE 15.0 mph24.1 kmh 29.75 in1007.5 mb 0.00 in0.0 mm 0.00 in0.0 mm 0.00 in0.0 mm
03:38 AM 49.1°F9.5°C 42.5°F5.8°C 78% 8.8 mph S14.2 kmh S 15.0 mph24.1 kmh 29.75 in1007.5 mb 0.00 in0.0 mm 0.00 in0.0 mm 0.00 in0.0 mm
03:39 AM 49.1°F9.5°C 42.2°F5.7°C 77% 5.8 mph SSE9.3 kmh SSE 10.0 mph16.1 kmh 29.75 in1007.5 mb 0.00 in0.0 mm 0.00 in0.0 mm 0.00 in0.0 mm
03:40 AM 49.1°F9.5°C 42.5°F5.8°C 78% 9.5 mph S15.3 kmh S 15.0 mph24.1 kmh 29.75 in1007.5 mb 0.00 in0.0 mm 0.00 in0.0 mm 0.00 in0.0 mm
03:41 AM 49.1°F9.5°C 42.5°F5.8°C 78% 7.6 mph SSE12.2 kmh SSE 15.0 mph24.1 kmh 29.75 in1007.5 mb 0.00 in0.0 mm 0.00 in0.0 mm 0.00 in0.0 mm
03:42 AM 49.0°F9.4°C 42.4°F5.8°C 78% 6.3 mph SSE10.1 kmh SSE 13.0 mph20.9 kmh 29.75 in1007.5 mb 0.00 in0.0 mm 0.00 in0.0 mm 0.00 in0.0 mm
03:43 AM 49.0°F9.4°C 42.4°F5.8°C 78% 7.7 mph SSE12.4 kmh SSE 14.0 mph22.5 kmh 29.75 in1007.5 mb 0.00 in0.0 mm 0.00 in0.0 mm 0.00 in0.0 mm
03:44 AM 49.0°F9.4°C 42.4°F5.8°C 78% 9.3 mph SSE15.0 kmh SSE 14.0 mph22.5 kmh 29.75 in1007.5 mb 0.00 in0.0 mm 0.00 in0.0 mm 0.00 in0.0 mm
03:45 AM 49.0°F9.4°C 42.4°F5.8°C 78% 7.4 mph SSE11.9 kmh SSE 12.0 mph19.3 kmh 29.75 in1007.5 mb 0.00 in0.0 mm 0.00 in0.0 mm 0.00 in0.0 mm
03:46 AM 48.9°F9.4°C 42.3°F5.7°C 78% 5.9 mph SSE9.5 kmh SSE 11.0 mph17.7 kmh 29.75 in1007.5 mb 0.00 in0.0 mm 0.00 in0.0 mm 0.00 in0.0 mm
03:47 AM 48.9°F9.4°C 42.7°F5.9°C 79% 6.5 mph SSE10.5 kmh SSE 12.0 mph19.3 kmh 29.75 in1007.5 mb 0.00 in0.0 mm 0.00 in0.0 mm 0.00 in0.0 mm
03:48 AM 48.9°F9.4°C 42.7°F5.9°C 79% 7.2 mph S11.6 kmh S 12.0 mph19.3 kmh 29.75 in1007.5 mb 0.00 in0.0 mm 0.00 in0.0 mm 0.00 in0.0 mm
03:49 AM 48.8°F9.3°C 42.6°F5.9°C 79% 7.2 mph SSE11.6 kmh SSE 11.0 mph17.7 kmh 29.75 in1007.5 mb 0.00 in0.0 mm 0.00 in0.0 mm 0.00 in0.0 mm
03:50 AM 48.8°F9.3°C 42.6°F5.9°C 79% 7.3 mph S11.7 kmh S 11.0 mph17.7 kmh 29.75 in1007.5 mb 0.00 in0.0 mm 0.00 in0.0 mm 0.00 in0.0 mm
03:51 AM 48.8°F9.3°C 42.6°F5.9°C 79% 5.8 mph S9.3 kmh S 11.0 mph17.7 kmh 29.75 in1007.5 mb 0.00 in0.0 mm 0.00 in0.0 mm 0.00 in0.0 mm
03:52 AM 48.8°F9.3°C 42.6°F5.9°C 79% 5.9 mph SSE9.5 kmh SSE 10.0 mph16.1 kmh 29.75 in1007.5 mb 0.00 in0.0 mm 0.00 in0.0 mm 0.00 in0.0 mm
03:53 AM 48.7°F9.3°C 42.8°F6.0°C 80% 6.6 mph SE10.6 kmh SE 9.0 mph14.5 kmh 29.75 in1007.5 mb 0.00 in0.0 mm 0.00 in0.0 mm 0.00 in0.0 mm
03:54 AM 48.7°F9.3°C 42.8°F6.0°C 80% 6.7 mph SSE10.8 kmh SSE 10.0 mph16.1 kmh 29.75 in1007.5 mb 0.00 in0.0 mm 0.00 in0.0 mm 0.00 in0.0 mm
03:55 AM 48.7°F9.3°C 42.8°F6.0°C 80% 5.9 mph S9.5 kmh S 10.0 mph16.1 kmh 29.75 in1007.5 mb 0.00 in0.0 mm 0.00 in0.0 mm 0.00 in0.0 mm
03:56 AM 48.6°F9.2°C 42.7°F5.9°C 80% 6.0 mph SSE9.7 kmh SSE 10.0 mph16.1 kmh 29.75 in1007.5 mb 0.00 in0.0 mm 0.00 in0.0 mm 0.00 in0.0 mm
03:57 AM 48.6°F9.2°C 42.7°F5.9°C 80% 6.0 mph SSE9.7 kmh SSE 10.0 mph16.1 kmh 29.75 in1007.5 mb 0.00 in0.0 mm 0.00 in0.0 mm 0.00 in0.0 mm
03:58 AM 48.5°F9.2°C 42.6°F5.9°C 80% 6.4 mph SSE10.3 kmh SSE 11.0 mph17.7 kmh 29.75 in1007.5 mb 0.00 in0.0 mm 0.00 in0.0 mm 0.00 in0.0 mm
03:59 AM 48.5°F9.2°C 42.6°F5.9°C 80% 8.3 mph S13.4 kmh S 12.0 mph19.3 kmh 29.74 in1007.1 mb 0.00 in0.0 mm 0.00 in0.0 mm 0.00 in0.0 mm
04:00 AM 48.4°F9.1°C 42.5°F5.8°C 80% 7.4 mph SSE11.9 kmh SSE 12.0 mph19.3 kmh 29.74 in1007.1 mb 0.00 in0.0 mm 0.00 in0.0 mm 0.00 in0.0 mm
04:01 AM 48.4°F9.1°C 42.5°F5.8°C 80% 8.7 mph SSE14.0 kmh SSE 12.0 mph19.3 kmh 29.74 in1007.1 mb 0.00 in0.0 mm 0.00 in0.0 mm 0.00 in0.0 mm
04:02 AM 48.4°F9.1°C 42.8°F6.0°C 81% 7.5 mph SSE12.1 kmh SSE 13.0 mph20.9 kmh 29.74 in1007.1 mb 0.00 in0.0 mm 0.00 in0.0 mm 0.00 in0.0 mm
04:03 AM 48.3°F9.1°C 42.7°F5.9°C 81% 7.6 mph SSE12.2 kmh SSE 13.0 mph20.9 kmh 29.74 in1007.1 mb 0.00 in0.0 mm 0.00 in0.0 mm 0.00 in0.0 mm
04:04 AM 48.3°F9.1°C 42.7°F5.9°C 81% 8.5 mph SSE13.7 kmh SSE 11.0 mph17.7 kmh 29.74 in1007.1 mb 0.01 in0.3 mm 0.60 in15.2 mm 0.01 in0.3 mm
04:05 AM 48.3°F9.1°C 42.7°F5.9°C 81% 6.5 mph SSE10.5 kmh SSE 11.0 mph17.7 kmh 29.74 in1007.1 mb 0.01 in0.3 mm 0.00 in0.0 mm 0.01 in0.3 mm
04:06 AM 48.3°F9.1°C 42.7°F5.9°C 81% 5.7 mph SSE9.2 kmh SSE 9.0 mph14.5 kmh 29.74 in1007.1 mb 0.01 in0.3 mm 0.00 in0.0 mm 0.01 in0.3 mm
04:07 AM 48.3°F9.1°C 42.7°F5.9°C 81% 6.5 mph SSE10.5 kmh SSE 10.0 mph16.1 kmh 29.74 in1007.1 mb 0.01 in0.3 mm 0.00 in0.0 mm 0.01 in0.3 mm
04:08 AM 48.2°F9.0°C 42.6°F5.9°C 81% 7.5 mph SSE12.1 kmh SSE 10.0 mph16.1 kmh 29.74 in1007.1 mb 0.01 in0.3 mm 0.00 in0.0 mm 0.01 in0.3 mm
04:09 AM 48.2°F9.0°C 43.0°F6.1°C 82% 5.1 mph SSE8.2 kmh SSE 10.0 mph16.1 kmh 29.74 in1007.1 mb 0.01 in0.3 mm 0.00 in0.0 mm 0.01 in0.3 mm
04:10 AM 48.2°F9.0°C 43.0°F6.1°C 82% 6.4 mph SSE10.3 kmh SSE 9.0 mph14.5 kmh 29.74 in1007.1 mb 0.01 in0.3 mm 0.00 in0.0 mm 0.01 in0.3 mm
04:11 AM 48.1°F8.9°C 42.9°F6.1°C 82% 4.8 mph SSE7.7 kmh SSE 9.0 mph14.5 kmh 29.74 in1007.1 mb 0.01 in0.3 mm 0.00 in0.0 mm 0.01 in0.3 mm
04:12 AM 48.1°F8.9°C 42.9°F6.1°C 82% 5.7 mph SSE9.2 kmh SSE 8.0 mph12.9 kmh 29.74 in1007.1 mb 0.01 in0.3 mm 0.00 in0.0 mm 0.01 in0.3 mm
04:13 AM 48.1°F8.9°C 42.9°F6.1°C 82% 6.0 mph SSE9.7 kmh SSE 11.0 mph17.7 kmh 29.74 in1007.1 mb 0.01 in0.3 mm 0.00 in0.0 mm 0.01 in0.3 mm
04:14 AM 48.1°F8.9°C 42.9°F6.1°C 82% 6.6 mph SSE10.6 kmh SSE 11.0 mph17.7 kmh 29.74 in1007.1 mb 0.01 in0.3 mm 0.00 in0.0 mm 0.01 in0.3 mm
04:15 AM 48.0°F8.9°C 42.8°F6.0°C 82% 7.5 mph SSE12.1 kmh SSE 11.0 mph17.7 kmh 29.74 in1007.1 mb 0.01 in0.3 mm 0.00 in0.0 mm 0.01 in0.3 mm
04:16 AM 48.0°F8.9°C 42.8°F6.0°C 82% 6.6 mph SSE10.6 kmh SSE 10.0 mph16.1 kmh 29.74 in1007.1 mb 0.01 in0.3 mm 0.00 in0.0 mm 0.01 in0.3 mm
04:17 AM 48.0°F8.9°C 42.8°F6.0°C 82% 5.4 mph SSE8.7 kmh SSE 9.0 mph14.5 kmh 29.74 in1007.1 mb 0.01 in0.3 mm 0.00 in0.0 mm 0.01 in0.3 mm
04:18 AM 48.0°F8.9°C 42.8°F6.0°C 82% 7.4 mph SE11.9 kmh SE 10.0 mph16.1 kmh 29.74 in1007.1 mb 0.01 in0.3 mm 0.00 in0.0 mm 0.01 in0.3 mm
04:19 AM 48.0°F8.9°C 43.1°F6.2°C 83% 7.0 mph SSE11.3 kmh SSE 12.0 mph19.3 kmh 29.74 in1007.1 mb 0.01 in0.3 mm 0.00 in0.0 mm 0.01 in0.3 mm
04:20 AM 48.0°F8.9°C 43.1°F6.2°C 83% 6.0 mph SE9.7 kmh SE 12.0 mph19.3 kmh 29.74 in1007.1 mb 0.01 in0.3 mm 0.00 in0.0 mm 0.01 in0.3 mm
04:21 AM 47.9°F8.8°C 43.0°F6.1°C 83% 6.7 mph SSE10.8 kmh SSE 11.0 mph17.7 kmh 29.74 in1007.1 mb 0.01 in0.3 mm 0.00 in0.0 mm 0.01 in0.3 mm
04:22 AM 47.9°F8.8°C 43.0°F6.1°C 83% 5.6 mph SE9.0 kmh SE 11.0 mph17.7 kmh 29.74 in1007.1 mb 0.01 in0.3 mm 0.00 in0.0 mm 0.01 in0.3 mm
04:23 AM 47.9°F8.8°C 43.0°F6.1°C 83% 7.0 mph SSE11.3 kmh SSE 9.0 mph14.5 kmh 29.74 in1007.1 mb 0.02 in0.5 mm 0.60 in15.2 mm 0.02 in0.5 mm
04:24 AM 47.9°F8.8°C 43.0°F6.1°C 83% 4.5 mph SE7.2 kmh SE 9.0 mph14.5 kmh 29.74 in1007.1 mb 0.02 in0.5 mm 0.00 in0.0 mm 0.02 in0.5 mm
04:25 AM 47.9°F8.8°C 43.0°F6.1°C 83% 5.3 mph SSE8.5 kmh SSE 7.0 mph11.3 kmh 29.74 in1007.1 mb 0.02 in0.5 mm 0.00 in0.0 mm 0.02 in0.5 mm
04:26 AM 47.9°F8.8°C 43.0°F6.1°C 83% 6.0 mph SSE9.7 kmh SSE 10.0 mph16.1 kmh 29.74 in1007.1 mb 0.02 in0.5 mm 0.00 in0.0 mm 0.02 in0.5 mm
04:27 AM 47.9°F8.8°C 43.0°F6.1°C 83% 6.0 mph SSE9.7 kmh SSE 10.0 mph16.1 kmh 29.74 in1007.1 mb 0.02 in0.5 mm 0.00 in0.0 mm 0.02 in0.5 mm
04:28 AM 47.9°F8.8°C 43.3°F6.3°C 84% 5.4 mph SE8.7 kmh SE 10.0 mph16.1 kmh 29.74 in1007.1 mb 0.02 in0.5 mm 0.00 in0.0 mm 0.02 in0.5 mm
04:29 AM 47.8°F8.8°C 43.2°F6.2°C 84% 6.4 mph SSE10.3 kmh SSE 9.0 mph14.5 kmh 29.74 in1007.1 mb 0.02 in0.5 mm 0.00 in0.0 mm 0.02 in0.5 mm
04:30 AM 47.8°F8.8°C 43.2°F6.2°C 84% 5.8 mph SSE9.3 kmh SSE 9.0 mph14.5 kmh 29.74 in1007.1 mb 0.02 in0.5 mm 0.00 in0.0 mm 0.02 in0.5 mm
04:31 AM 47.8°F8.8°C 43.2°F6.2°C 84% 6.5 mph SSE10.5 kmh SSE 9.0 mph14.5 kmh 29.74 in1007.1 mb 0.02 in0.5 mm 0.00 in0.0 mm 0.02 in0.5 mm
04:32 AM 47.7°F8.7°C 43.1°F6.2°C 84% 5.5 mph SSE8.9 kmh SSE 8.0 mph12.9 kmh 29.74 in1007.1 mb 0.02 in0.5 mm 0.00 in0.0 mm 0.02 in0.5 mm
04:33 AM 47.8°F8.8°C 43.2°F6.2°C 84% 7.2 mph SE11.6 kmh SE 9.0 mph14.5 kmh 29.74 in1007.1 mb 0.02 in0.5 mm 0.00 in0.0 mm 0.02 in0.5 mm
04:34 AM 47.7°F8.7°C 43.1°F6.2°C 84% 7.5 mph SSE12.1 kmh SSE 9.0 mph14.5 kmh 29.74 in1007.1 mb 0.02 in0.5 mm 0.00 in0.0 mm 0.02 in0.5 mm
04:35 AM 47.7°F8.7°C 43.1°F6.2°C 84% 6.8 mph SE10.9 kmh SE 10.0 mph16.1 kmh 29.74 in1007.1 mb 0.02 in0.5 mm 0.00 in0.0 mm 0.02 in0.5 mm
04:36 AM 47.6°F8.7°C 43.0°F6.1°C 84% 5.3 mph SE8.5 kmh SE 10.0 mph16.1 kmh 29.74 in1007.1 mb 0.02 in0.5 mm 0.00 in0.0 mm 0.02 in0.5 mm
04:37 AM 47.7°F8.7°C 43.1°F6.2°C 84% 7.8 mph SE12.6 kmh SE 10.0 mph16.1 kmh 29.74 in1007.1 mb 0.02 in0.5 mm 0.00 in0.0 mm 0.02 in0.5 mm
04:38 AM 47.6°F8.7°C 43.0°F6.1°C 84% 8.2 mph SE13.2 kmh SE 11.0 mph17.7 kmh 29.74 in1007.1 mb 0.02 in0.5 mm 0.00 in0.0 mm 0.02 in0.5 mm
04:39 AM 47.6°F8.7°C 43.0°F6.1°C 84% 7.7 mph SE12.4 kmh SE 11.0 mph17.7 kmh 29.74 in1007.1 mb 0.02 in0.5 mm 0.00 in0.0 mm 0.02 in0.5 mm
04:40 AM 47.6°F8.7°C 43.3°F6.3°C 85% 7.4 mph SE11.9 kmh SE 10.0 mph16.1 kmh 29.74 in1007.1 mb 0.02 in0.5 mm 0.00 in0.0 mm 0.02 in0.5 mm
04:41 AM 47.6°F8.7°C 43.3°F6.3°C 85% 7.6 mph SSE12.2 kmh SSE 10.0 mph16.1 kmh 29.74 in1007.1 mb 0.02 in0.5 mm 0.00 in0.0 mm 0.02 in0.5 mm
04:42 AM 47.6°F8.7°C 43.3°F6.3°C 85% 8.0 mph SE12.9 kmh SE 10.0 mph16.1 kmh 29.74 in1007.1 mb 0.02 in0.5 mm 0.00 in0.0 mm 0.02 in0.5 mm
04:43 AM 47.6°F8.7°C 43.3°F6.3°C 85% 9.1 mph SE14.6 kmh SE 11.0 mph17.7 kmh 29.74 in1007.1 mb 0.02 in0.5 mm 0.00 in0.0 mm 0.02 in0.5 mm
04:44 AM 47.6°F8.7°C 43.3°F6.3°C 85% 8.2 mph SE13.2 kmh SE 11.0 mph17.7 kmh 29.74 in1007.1 mb 0.02 in0.5 mm 0.00 in0.0 mm 0.02 in0.5 mm
04:45 AM 47.6°F8.7°C 43.3°F6.3°C 85% 5.0 mph SSE8.0 kmh SSE 10.0 mph16.1 kmh 29.74 in1007.1 mb 0.02 in0.5 mm 0.00 in0.0 mm 0.02 in0.5 mm
04:46 AM 47.6°F8.7°C 43.3°F6.3°C 85% 7.3 mph SSE11.7 kmh SSE 12.0 mph19.3 kmh 29.74 in1007.1 mb 0.02 in0.5 mm 0.00 in0.0 mm 0.02 in0.5 mm
04:47 AM 47.6°F8.7°C 43.3°F6.3°C 85% 5.8 mph SE9.3 kmh SE 12.0 mph19.3 kmh 29.74 in1007.1 mb 0.02 in0.5 mm 0.00 in0.0 mm 0.02 in0.5 mm
04:48 AM 47.6°F8.7°C 43.3°F6.3°C 85% 7.2 mph SSE11.6 kmh SSE 10.0 mph16.1 kmh 29.74 in1007.1 mb 0.02 in0.5 mm 0.00 in0.0 mm 0.02 in0.5 mm
04:49 AM 47.6°F8.7°C 43.3°F6.3°C 85% 6.5 mph SSE10.5 kmh SSE 10.0 mph16.1 kmh 29.74 in1007.1 mb 0.02 in0.5 mm 0.00 in0.0 mm 0.02 in0.5 mm
04:50 AM 47.5°F8.6°C 43.2°F6.2°C 85% 5.6 mph SSE9.0 kmh SSE 10.0 mph16.1 kmh 29.74 in1007.1 mb 0.02 in0.5 mm 0.00 in0.0 mm 0.02 in0.5 mm
04:51 AM 47.5°F8.6°C 43.2°F6.2°C 85% 6.6 mph SE10.6 kmh SE 10.0 mph16.1 kmh 29.74 in1007.1 mb 0.02 in0.5 mm 0.00 in0.0 mm 0.02 in0.5 mm
04:52 AM 47.5°F8.6°C 43.2°F6.2°C 85% 4.7 mph SSE7.6 kmh SSE 10.0 mph16.1 kmh 29.74 in1007.1 mb 0.02 in0.5 mm 0.00 in0.0 mm 0.02 in0.5 mm
04:53 AM 47.5°F8.6°C 43.2°F6.2°C 85% 7.7 mph SSE12.4 kmh SSE 10.0 mph16.1 kmh 29.74 in1007.1 mb 0.02 in0.5 mm 0.00 in0.0 mm 0.02 in0.5 mm
04:54 AM 47.5°F8.6°C 43.2°F6.2°C 85% 8.1 mph SE13.0 kmh SE 10.0 mph16.1 kmh 29.74 in1007.1 mb 0.03 in0.8 mm 0.60 in15.2 mm 0.03 in0.8 mm
04:55 AM 47.5°F8.6°C 43.2°F6.2°C 85% 8.4 mph SSE13.5 kmh SSE 11.0 mph17.7 kmh 29.74 in1007.1 mb 0.03 in0.8 mm 0.00 in0.0 mm 0.03 in0.8 mm
04:56 AM 47.5°F8.6°C 43.2°F6.2°C 85% 7.7 mph SSE12.4 kmh SSE 11.0 mph17.7 kmh 29.74 in1007.1 mb 0.03 in0.8 mm 0.00 in0.0 mm 0.03 in0.8 mm
04:57 AM 47.4°F8.6°C 43.1°F6.2°C 85% 6.8 mph SSE10.9 kmh SSE 10.0 mph16.1 kmh 29.74 in1007.1 mb 0.03 in0.8 mm 0.00 in0.0 mm 0.03 in0.8 mm
04:58 AM 47.4°F8.6°C 43.1°F6.2°C 85% 5.7 mph SSE9.2 kmh SSE 9.0 mph14.5 kmh 29.74 in1007.1 mb 0.03 in0.8 mm 0.00 in0.0 mm 0.03 in0.8 mm
04:59 AM 47.4°F8.6°C 43.1°F6.2°C 85% 4.8 mph SSE7.7 kmh SSE 8.0 mph12.9 kmh 29.74 in1007.1 mb 0.03 in0.8 mm 0.00 in0.0 mm 0.03 in0.8 mm
05:00 AM 47.4°F8.6°C 43.1°F6.2°C 85% 5.8 mph SSE9.3 kmh SSE 9.0 mph14.5 kmh 29.74 in1007.1 mb 0.03 in0.8 mm 0.00 in0.0 mm 0.03 in0.8 mm
05:01 AM 47.4°F8.6°C 43.1°F6.2°C 85% 5.9 mph SSE9.5 kmh SSE 9.0 mph14.5 kmh 29.74 in1007.1 mb 0.03 in0.8 mm 0.00 in0.0 mm 0.03 in0.8 mm
05:02 AM 47.4°F8.6°C 43.1°F6.2°C 85% 5.4 mph SSE8.7 kmh SSE 10.0 mph16.1 kmh 29.74 in1007.1 mb 0.03 in0.8 mm 0.00 in0.0 mm 0.03 in0.8 mm
05:03 AM 47.4°F8.6°C 43.4°F6.3°C 86% 5.9 mph SSE9.5 kmh SSE 10.0 mph16.1 kmh 29.74 in1007.1 mb 0.03 in0.8 mm 0.00 in0.0 mm 0.03 in0.8 mm
05:04 AM 47.4°F8.6°C 43.4°F6.3°C 86% 5.8 mph SE9.3 kmh SE 10.0 mph16.1 kmh 29.74 in1007.1 mb 0.03 in0.8 mm 0.00 in0.0 mm 0.04 in1.0 mm
05:05 AM 47.3°F8.5°C 43.3°F6.3°C 86% 4.0 mph SSE6.4 kmh SSE 9.0 mph14.5 kmh 29.74 in1007.1 mb 0.03 in0.8 mm 0.00 in0.0 mm 0.04 in1.0 mm
05:06 AM 47.3°F8.5°C 43.3°F6.3°C 86% 4.9 mph SSE7.9 kmh SSE 7.0 mph11.3 kmh 29.74 in1007.1 mb 0.03 in0.8 mm 0.00 in0.0 mm 0.04 in1.0 mm
05:07 AM 47.3°F8.5°C 43.3°F6.3°C 86% 4.5 mph SSE7.2 kmh SSE 7.0 mph11.3 kmh 29.74 in1007.1 mb 0.03 in0.8 mm 0.00 in0.0 mm 0.04 in1.0 mm
05:08 AM 47.3°F8.5°C 43.3°F6.3°C 86% 5.2 mph SSE8.4 kmh SSE 8.0 mph12.9 kmh 29.74 in1007.1 mb 0.03 in0.8 mm 0.00 in0.0 mm 0.04 in1.0 mm
05:09 AM 47.3°F8.5°C 43.3°F6.3°C 86% 5.1 mph SSE8.2 kmh SSE 8.0 mph12.9 kmh 29.74 in1007.1 mb 0.03 in0.8 mm 0.00 in0.0 mm 0.04 in1.0 mm
05:10 AM 47.3°F8.5°C 43.3°F6.3°C 86% 4.4 mph SSE7.1 kmh SSE 7.0 mph11.3 kmh 29.74 in1007.1 mb 0.04 in1.0 mm 0.60 in15.2 mm 0.05 in1.3 mm
05:11 AM 47.3°F8.5°C 43.3°F6.3°C 86% 5.1 mph SSE8.2 kmh SSE 7.0 mph11.3 kmh 29.74 in1007.1 mb 0.04 in1.0 mm 0.00 in0.0 mm 0.05 in1.3 mm
05:12 AM 47.2°F8.4°C 43.2°F6.2°C 86% 7.3 mph SSE11.7 kmh SSE 11.0 mph17.7 kmh 29.74 in1007.1 mb 0.04 in1.0 mm 0.00 in0.0 mm 0.05 in1.3 mm
05:13 AM 47.3°F8.5°C 43.3°F6.3°C 86% 7.7 mph SSE12.4 kmh SSE 11.0 mph17.7 kmh 29.74 in1007.1 mb 0.04 in1.0 mm 0.00 in0.0 mm 0.05 in1.3 mm
05:14 AM 47.2°F8.4°C 43.2°F6.2°C 86% 7.6 mph SE12.2 kmh SE 11.0 mph17.7 kmh 29.74 in1007.1 mb 0.05 in1.3 mm 0.60 in15.2 mm 0.06 in1.5 mm
05:15 AM 47.2°F8.4°C 43.2°F6.2°C 86% 9.3 mph SSE15.0 kmh SSE 12.0 mph19.3 kmh 29.74 in1007.1 mb 0.05 in1.3 mm 0.00 in0.0 mm 0.06 in1.5 mm
05:16 AM 47.2°F8.4°C 43.2°F6.2°C 86% 8.1 mph SSE13.0 kmh SSE 12.0 mph19.3 kmh 29.74 in1007.1 mb 0.05 in1.3 mm 0.00 in0.0 mm 0.06 in1.5 mm
05:17 AM 47.1°F8.4°C 43.1°F6.2°C 86% 6.3 mph SSE10.1 kmh SSE 10.0 mph16.1 kmh 29.74 in1007.1 mb 0.05 in1.3 mm 0.00 in0.0 mm 0.06 in1.5 mm
05:18 AM 47.1°F8.4°C 43.4°F6.3°C 87% 7.5 mph SSE12.1 kmh SSE 10.0 mph16.1 kmh 29.74 in1007.1 mb 0.05 in1.3 mm 0.00 in0.0 mm 0.06 in1.5 mm
05:19 AM 47.1°F8.4°C 43.4°F6.3°C 87% 6.4 mph SSE10.3 kmh SSE 10.0 mph16.1 kmh 29.74 in1007.1 mb 0.05 in1.3 mm 0.00 in0.0 mm 0.06 in1.5 mm
05:20 AM 47.1°F8.4°C 43.4°F6.3°C 87% 4.2 mph SSE6.8 kmh SSE 9.0 mph14.5 kmh 29.74 in1007.1 mb 0.05 in1.3 mm 0.00 in0.0 mm 0.06 in1.5 mm
05:21 AM 47.1°F8.4°C 43.4°F6.3°C 87% 5.2 mph S8.4 kmh S 7.0 mph11.3 kmh 29.74 in1007.1 mb 0.06 in1.5 mm 0.60 in15.2 mm 0.06 in1.5 mm
05:22 AM 47.1°F8.4°C 43.4°F6.3°C 87% 4.4 mph SSE7.1 kmh SSE 7.0 mph11.3 kmh 29.74 in1007.1 mb 0.06 in1.5 mm 0.00 in0.0 mm 0.06 in1.5 mm
05:23 AM 47.1°F8.4°C 43.4°F6.3°C 87% 5.4 mph SSE8.7 kmh SSE 9.0 mph14.5 kmh 29.74 in1007.1 mb 0.05 in1.3 mm 0.00 in0.0 mm 0.06 in1.5 mm
05:24 AM 47.1°F8.4°C 43.4°F6.3°C 87% 6.2 mph SSE10.0 kmh SSE 9.0 mph14.5 kmh 29.74 in1007.1 mb 0.05 in1.3 mm 0.00 in0.0 mm 0.06 in1.5 mm
05:25 AM 47.1°F8.4°C 43.4°F6.3°C 87% 8.3 mph SSE13.4 kmh SSE 11.0 mph17.7 kmh 29.74 in1007.1 mb 0.05 in1.3 mm 0.00 in0.0 mm 0.06 in1.5 mm
05:26 AM 47.1°F8.4°C 43.4°F6.3°C 87% 5.8 mph SSE9.3 kmh SSE 11.0 mph17.7 kmh 29.74 in1007.1 mb 0.05 in1.3 mm 0.00 in0.0 mm 0.06 in1.5 mm
05:27 AM 47.0°F8.3°C 43.3°F6.3°C 87% 6.0 mph SSE9.7 kmh SSE 10.0 mph16.1 kmh 29.74 in1007.1 mb 0.05 in1.3 mm 0.00 in0.0 mm 0.06 in1.5 mm
05:28 AM 47.0°F8.3°C 43.3°F6.3°C 87% 8.1 mph SSE13.0 kmh SSE 13.0 mph20.9 kmh 29.74 in1007.1 mb 0.05 in1.3 mm 0.00 in0.0 mm 0.06 in1.5 mm
05:29 AM 47.0°F8.3°C 43.3°F6.3°C 87% 9.2 mph SSE14.8 kmh SSE 13.0 mph20.9 kmh 29.74 in1007.1 mb 0.05 in1.3 mm 0.00 in0.0 mm 0.06 in1.5 mm
05:30 AM 47.0°F8.3°C 43.3°F6.3°C 87% 6.3 mph SSE10.1 kmh SSE 13.0 mph20.9 kmh 29.74 in1007.1 mb 0.05 in1.3 mm 0.00 in0.0 mm 0.06 in1.5 mm
05:31 AM 47.0°F8.3°C 43.3°F6.3°C 87% 7.6 mph S12.2 kmh S 11.0 mph17.7 kmh 29.74 in1007.1 mb 0.05 in1.3 mm 0.00 in0.0 mm 0.06 in1.5 mm
05:32 AM 47.0°F8.3°C 43.3°F6.3°C 87% 4.6 mph S7.4 kmh S 11.0 mph17.7 kmh 29.74 in1007.1 mb 0.05 in1.3 mm 0.00 in0.0 mm 0.06 in1.5 mm
05:33 AM 47.0°F8.3°C 43.3°F6.3°C 87% 6.9 mph S11.1 kmh S 11.0 mph17.7 kmh 29.74 in1007.1 mb 0.06 in1.5 mm 0.60 in15.2 mm 0.07 in1.8 mm
05:34 AM 47.0°F8.3°C 43.3°F6.3°C 87% 7.2 mph S11.6 kmh S 11.0 mph17.7 kmh 29.74 in1007.1 mb 0.06 in1.5 mm 0.00 in0.0 mm 0.07 in1.8 mm
05:35 AM 47.0°F8.3°C 43.3°F6.3°C 87% 7.0 mph S11.3 kmh S 11.0 mph17.7 kmh 29.75 in1007.5 mb 0.06 in1.5 mm 0.00 in0.0 mm 0.07 in1.8 mm
05:36 AM 47.0°F8.3°C 43.3°F6.3°C 87% 5.8 mph S9.3 kmh S 11.0 mph17.7 kmh 29.74 in1007.1 mb 0.06 in1.5 mm 0.00 in0.0 mm 0.07 in1.8 mm
05:37 AM 47.0°F8.3°C 43.3°F6.3°C 87% 5.2 mph S8.4 kmh S 11.0 mph17.7 kmh 29.75 in1007.5 mb 0.06 in1.5 mm 0.00 in0.0 mm 0.07 in1.8 mm
05:38 AM 47.0°F8.3°C 43.3°F6.3°C 87% 7.5 mph S12.1 kmh S 10.0 mph16.1 kmh 29.74 in1007.1 mb 0.06 in1.5 mm 0.00 in0.0 mm 0.07 in1.8 mm
05:39 AM 47.0°F8.3°C 43.6°F6.4°C 88% 7.5 mph S12.1 kmh S 10.0 mph16.1 kmh 29.75 in1007.5 mb 0.06 in1.5 mm 0.00 in0.0 mm 0.07 in1.8 mm
05:40 AM 47.0°F8.3°C 43.6°F6.4°C 88% 6.9 mph S11.1 kmh S 10.0 mph16.1 kmh 29.75 in1007.5 mb 0.06 in1.5 mm 0.00 in0.0 mm 0.08 in2.0 mm
05:41 AM 47.0°F8.3°C 43.6°F6.4°C 88% 10.2 mph S16.4 kmh S 13.0 mph20.9 kmh 29.74 in1007.1 mb 0.06 in1.5 mm 0.00 in0.0 mm 0.08 in2.0 mm
05:42 AM 47.0°F8.3°C 43.6°F6.4°C 88% 7.7 mph S12.4 kmh S 13.0 mph20.9 kmh 29.75 in1007.5 mb 0.06 in1.5 mm 0.00 in0.0 mm 0.08 in2.0 mm
05:43 AM 47.0°F8.3°C 43.6°F6.4°C 88% 8.6 mph S13.8 kmh S 12.0 mph19.3 kmh 29.75 in1007.5 mb 0.06 in1.5 mm 0.00 in0.0 mm 0.08 in2.0 mm
05:44 AM 47.0°F8.3°C 43.6°F6.4°C 88% 8.1 mph S13.0 kmh S 11.0 mph17.7 kmh 29.75 in1007.5 mb 0.06 in1.5 mm 0.00 in0.0 mm 0.08 in2.0 mm
05:45 AM 47.0°F8.3°C 43.6°F6.4°C 88% 10.0 mph S16.1 kmh S 12.0 mph19.3 kmh 29.75 in1007.5 mb 0.06 in1.5 mm 0.00 in0.0 mm 0.08 in2.0 mm
05:46 AM 47.0°F8.3°C 43.6°F6.4°C 88% 9.5 mph S15.3 kmh S 14.0 mph22.5 kmh 29.75 in1007.5 mb 0.06 in1.5 mm 0.00 in0.0 mm 0.08 in2.0 mm
05:47 AM 47.0°F8.3°C 43.6°F6.4°C 88% 9.3 mph S15.0 kmh S 14.0 mph22.5 kmh 29.75 in1007.5 mb 0.06 in1.5 mm 0.00 in0.0 mm 0.08 in2.0 mm
05:48 AM 47.0°F8.3°C 43.6°F6.4°C 88% 9.0 mph S14.5 kmh S 14.0 mph22.5 kmh 29.75 in1007.5 mb 0.06 in1.5 mm 0.00 in0.0 mm 0.08 in2.0 mm
05:49 AM 47.1°F8.4°C 43.7°F6.5°C 88% 8.6 mph S13.8 kmh S 13.0 mph20.9 kmh 29.75 in1007.5 mb 0.06 in1.5 mm 0.00 in0.0 mm 0.08 in2.0 mm
05:50 AM 47.1°F8.4°C 43.7°F6.5°C 88% 8.0 mph S12.9 kmh S 14.0 mph22.5 kmh 29.75 in1007.5 mb 0.06 in1.5 mm 0.00 in0.0 mm 0.08 in2.0 mm
05:51 AM 47.1°F8.4°C 43.7°F6.5°C 88% 7.8 mph S12.6 kmh S 14.0 mph22.5 kmh 29.75 in1007.5 mb 0.06 in1.5 mm 0.00 in0.0 mm 0.08 in2.0 mm
05:52 AM 47.1°F8.4°C 43.7°F6.5°C 88% 9.6 mph SSW15.4 kmh SSW 13.0 mph20.9 kmh 29.75 in1007.5 mb 0.06 in1.5 mm 0.00 in0.0 mm 0.08 in2.0 mm
05:53 AM 47.1°F8.4°C 43.7°F6.5°C 88% 8.1 mph S13.0 kmh S 13.0 mph20.9 kmh 29.75 in1007.5 mb 0.06 in1.5 mm 0.00 in0.0 mm 0.08 in2.0 mm
05:54 AM 47.2°F8.4°C 43.8°F6.6°C 88% 8.2 mph S13.2 kmh S 11.0 mph17.7 kmh 29.75 in1007.5 mb 0.05 in1.3 mm 0.00 in0.0 mm 0.08 in2.0 mm
05:55 AM 47.2°F8.4°C 43.8°F6.6°C 88% 10.3 mph SSW16.6 kmh SSW 15.0 mph24.1 kmh 29.75 in1007.5 mb 0.05 in1.3 mm 0.00 in0.0 mm 0.08 in2.0 mm
05:56 AM 47.2°F8.4°C 43.8°F6.6°C 88% 11.9 mph SSW19.2 kmh SSW 15.0 mph24.1 kmh 29.75 in1007.5 mb 0.06 in1.5 mm 0.60 in15.2 mm 0.09 in2.3 mm
05:57 AM 47.2°F8.4°C 44.1°F6.7°C 89% 10.2 mph SSW16.4 kmh SSW 15.0 mph24.1 kmh 29.75 in1007.5 mb 0.06 in1.5 mm 0.00 in0.0 mm 0.09 in2.3 mm
05:58 AM 47.2°F8.4°C 43.8°F6.6°C 88% 11.7 mph SW18.8 kmh SW 15.0 mph24.1 kmh 29.75 in1007.5 mb 0.06 in1.5 mm 0.00 in0.0 mm 0.09 in2.3 mm
05:59 AM 47.3°F8.5°C 44.2°F6.8°C 89% 14.2 mph SW22.9 kmh SW 20.0 mph32.2 kmh 29.75 in1007.5 mb 0.06 in1.5 mm 0.00 in0.0 mm 0.09 in2.3 mm
06:00 AM 47.0°F8.3°C 43.6°F6.4°C 88% 19.9 mph WSW32.0 kmh WSW 24.0 mph38.6 kmh 29.75 in1007.5 mb 0.06 in1.5 mm 0.00 in0.0 mm 0.09 in2.3 mm
06:01 AM 46.7°F8.2°C 43.0°F6.1°C 87% 19.4 mph WSW31.2 kmh WSW 24.0 mph38.6 kmh 29.75 in1007.5 mb 0.06 in1.5 mm 0.00 in0.0 mm 0.09 in2.3 mm
06:02 AM 46.6°F8.1°C 42.6°F5.9°C 86% 19.9 mph WSW32.0 kmh WSW 23.0 mph37.0 kmh 29.76 in1007.8 mb 0.06 in1.5 mm 0.00 in0.0 mm 0.09 in2.3 mm
06:03 AM 46.5°F8.1°C 42.5°F5.8°C 86% 17.6 mph WSW28.3 kmh WSW 22.0 mph35.4 kmh 29.76 in1007.8 mb 0.06 in1.5 mm 0.00 in0.0 mm 0.09 in2.3 mm
06:04 AM 46.5°F8.1°C 42.5°F5.8°C 86% 19.1 mph WSW30.7 kmh WSW 23.0 mph37.0 kmh 29.76 in1007.8 mb 0.05 in1.3 mm 0.00 in0.0 mm 0.09 in2.3 mm
06:05 AM 46.4°F8.0°C 42.4°F5.8°C 86% 18.8 mph WSW30.3 kmh WSW 23.0 mph37.0 kmh 29.76 in1007.8 mb 0.05 in1.3 mm 0.00 in0.0 mm 0.09 in2.3 mm
06:06 AM 46.3°F7.9°C 42.3°F5.7°C 86% 19.4 mph WSW31.2 kmh WSW 22.0 mph35.4 kmh 29.76 in1007.8 mb 0.05 in1.3 mm 0.00 in0.0 mm 0.09 in2.3 mm
06:07 AM 46.2°F7.9°C 42.2°F5.7°C 86% 17.3 mph WSW27.8 kmh WSW 22.0 mph35.4 kmh 29.76 in1007.8 mb 0.05 in1.3 mm 0.00 in0.0 mm 0.09 in2.3 mm
06:08 AM 46.3°F7.9°C 42.3°F5.7°C 86% 16.6 mph WSW26.7 kmh WSW 19.0 mph30.6 kmh 29.76 in1007.8 mb 0.05 in1.3 mm 0.00 in0.0 mm 0.09 in2.3 mm
06:09 AM 46.2°F7.9°C 42.2°F5.7°C 86% 16.4 mph WSW26.4 kmh WSW 19.0 mph30.6 kmh 29.76 in1007.8 mb 0.05 in1.3 mm 0.00 in0.0 mm 0.09 in2.3 mm
06:10 AM 46.1°F7.8°C 42.1°F5.6°C 86% 17.6 mph WSW28.3 kmh WSW 20.0 mph32.2 kmh 29.76 in1007.8 mb 0.04 in1.0 mm 0.00 in0.0 mm 0.09 in2.3 mm
06:11 AM 46.2°F7.9°C 42.2°F5.7°C 86% 15.3 mph WSW24.6 kmh WSW 20.0 mph32.2 kmh 29.76 in1007.8 mb 0.04 in1.0 mm 0.00 in0.0 mm 0.09 in2.3 mm
06:12 AM 46.2°F7.9°C 42.5°F5.8°C 87% 15.3 mph WSW24.6 kmh WSW 19.0 mph30.6 kmh 29.76 in1007.8 mb 0.04 in1.0 mm 0.00 in0.0 mm 0.09 in2.3 mm
06:13 AM 46.1°F7.8°C 42.1°F5.6°C 86% 13.8 mph WSW22.2 kmh WSW 19.0 mph30.6 kmh 29.76 in1007.8 mb 0.04 in1.0 mm 0.00 in0.0 mm 0.09 in2.3 mm
06:14 AM 46.2°F7.9°C 42.5°F5.8°C 87% 13.2 mph WSW21.2 kmh WSW 15.0 mph24.1 kmh 29.76 in1007.8 mb 0.03 in0.8 mm 0.00 in0.0 mm 0.09 in2.3 mm
06:15 AM 46.1°F7.8°C 42.4°F5.8°C 87% 12.4 mph WSW20.0 kmh WSW 15.0 mph24.1 kmh 29.76 in1007.8 mb 0.03 in0.8 mm 0.00 in0.0 mm 0.09 in2.3 mm
06:16 AM 46.2°F7.9°C 42.5°F5.8°C 87% 12.3 mph WSW19.8 kmh WSW 16.0 mph25.7 kmh 29.76 in1007.8 mb 0.03 in0.8 mm 0.00 in0.0 mm 0.09 in2.3 mm
06:17 AM 46.1°F7.8°C 42.4°F5.8°C 87% 12.2 mph WSW19.6 kmh WSW 16.0 mph25.7 kmh 29.76 in1007.8 mb 0.03 in0.8 mm 0.00 in0.0 mm 0.09 in2.3 mm
06:18 AM 46.1°F7.8°C 42.4°F5.8°C 87% 11.7 mph WSW18.8 kmh WSW 14.0 mph22.5 kmh 29.76 in1007.8 mb 0.03 in0.8 mm 0.00 in0.0 mm 0.09 in2.3 mm
06:19 AM 46.2°F7.9°C 42.5°F5.8°C 87% 11.9 mph WSW19.2 kmh WSW 15.0 mph24.1 kmh 29.76 in1007.8 mb 0.03 in0.8 mm 0.00 in0.0 mm 0.09 in2.3 mm
06:20 AM 46.1°F7.8°C 42.4°F5.8°C 87% 12.6 mph WSW20.3 kmh WSW 15.0 mph24.1 kmh 29.76 in1007.8 mb 0.03 in0.8 mm 0.00 in0.0 mm 0.09 in2.3 mm
06:21 AM 46.1°F7.8°C 42.4°F5.8°C 87% 14.1 mph SW22.7 kmh SW 16.0 mph25.7 kmh 29.76 in1007.8 mb 0.02 in0.5 mm 0.00 in0.0 mm 0.09 in2.3 mm
06:22 AM 46.1°F7.8°C 42.4°F5.8°C 87% 13.4 mph SW21.6 kmh SW 16.0 mph25.7 kmh 29.77 in1008.1 mb 0.02 in0.5 mm 0.00 in0.0 mm 0.09 in2.3 mm
06:23 AM 46.0°F7.8°C 42.4°F5.8°C 87% 11.3 mph SW18.2 kmh SW 16.0 mph25.7 kmh 29.77 in1008.1 mb 0.02 in0.5 mm 0.00 in0.0 mm 0.09 in2.3 mm
06:24 AM 46.1°F7.8°C 42.4°F5.8°C 87% 12.5 mph WSW20.1 kmh WSW 15.0 mph24.1 kmh 29.77 in1008.1 mb 0.02 in0.5 mm 0.00 in0.0 mm 0.09 in2.3 mm
06:25 AM 46.0°F7.8°C 42.4°F5.8°C 87% 14.2 mph WSW22.9 kmh WSW 15.0 mph24.1 kmh 29.77 in1008.1 mb 0.02 in0.5 mm 0.00 in0.0 mm 0.09 in2.3 mm
06:26 AM 46.0°F7.8°C 42.4°F5.8°C 87% 12.5 mph WSW20.1 kmh WSW 15.0 mph24.1 kmh 29.77 in1008.1 mb 0.02 in0.5 mm 0.00 in0.0 mm 0.09 in2.3 mm
06:27 AM 46.0°F7.8°C 42.4°F5.8°C 87% 12.9 mph WSW20.8 kmh WSW 15.0 mph24.1 kmh 29.77 in1008.1 mb 0.02 in0.5 mm 0.00 in0.0 mm 0.09 in2.3 mm
06:28 AM 46.0°F7.8°C 42.4°F5.8°C 87% 12.2 mph SW19.6 kmh SW 15.0 mph24.1 kmh 29.77 in1008.1 mb 0.02 in0.5 mm 0.00 in0.0 mm 0.09 in2.3 mm
06:29 AM 46.0°F7.8°C 42.4°F5.8°C 87% 15.0 mph SW24.1 kmh SW 18.0 mph29.0 kmh 29.77 in1008.1 mb 0.02 in0.5 mm 0.00 in0.0 mm 0.09 in2.3 mm
06:30 AM 45.9°F7.7°C 42.3°F5.7°C 87% 12.7 mph WSW20.4 kmh WSW 18.0 mph29.0 kmh 29.77 in1008.1 mb 0.02 in0.5 mm 0.00 in0.0 mm 0.09 in2.3 mm
06:31 AM 45.9°F7.7°C 42.3°F5.7°C 87% 12.0 mph SW19.3 kmh SW 16.0 mph25.7 kmh 29.77 in1008.1 mb 0.02 in0.5 mm 0.00 in0.0 mm 0.09 in2.3 mm
06:32 AM 46.0°F7.8°C 42.4°F5.8°C 87% 14.0 mph WSW22.5 kmh WSW 18.0 mph29.0 kmh 29.77 in1008.1 mb 0.02 in0.5 mm 0.00 in0.0 mm 0.09 in2.3 mm
06:33 AM 46.0°F7.8°C 42.4°F5.8°C 87% 15.1 mph SW24.3 kmh SW 18.0 mph29.0 kmh 29.77 in1008.1 mb 0.02 in0.5 mm 0.00 in0.0 mm 0.09 in2.3 mm
06:34 AM 45.9°F7.7°C 42.3°F5.7°C 87% 15.0 mph SW24.1 kmh SW 18.0 mph29.0 kmh 29.77 in1008.1 mb 0.02 in0.5 mm 0.00 in0.0 mm 0.09 in2.3 mm
06:35 AM 45.9°F7.7°C 42.3°F5.7°C 87% 15.0 mph SW24.1 kmh SW 17.0 mph27.4 kmh 29.77 in1008.1 mb 0.02 in0.5 mm 0.00 in0.0 mm 0.09 in2.3 mm
06:36 AM 45.9°F7.7°C 42.0°F5.6°C 86% 12.5 mph WSW20.1 kmh WSW 17.0 mph27.4 kmh 29.77 in1008.1 mb 0.02 in0.5 mm 0.00 in0.0 mm 0.09 in2.3 mm
06:37 AM 46.0°F7.8°C 42.4°F5.8°C 87% 14.1 mph WSW22.7 kmh WSW 18.0 mph29.0 kmh 29.77 in1008.1 mb 0.02 in0.5 mm 0.00 in0.0 mm 0.09 in2.3 mm
06:38 AM 45.9°F7.7°C 42.0°F5.6°C 86% 14.8 mph WSW23.8 kmh WSW 18.0 mph29.0 kmh 29.77 in1008.1 mb 0.02 in0.5 mm 0.00 in0.0 mm 0.09 in2.3 mm
06:39 AM 45.9°F7.7°C 42.0°F5.6°C 86% 12.5 mph WSW20.1 kmh WSW 16.0 mph25.7 kmh 29.77 in1008.1 mb 0.02 in0.5 mm 0.00 in0.0 mm 0.09 in2.3 mm
06:40 AM 45.9°F7.7°C 42.0°F5.6°C 86% 13.4 mph WSW21.6 kmh WSW 16.0 mph25.7 kmh 29.77 in1008.1 mb 0.01 in0.3 mm 0.00 in0.0 mm 0.09 in2.3 mm
06:41 AM 45.9°F7.7°C 42.0°F5.6°C 86% 11.7 mph SW18.8 kmh SW 18.0 mph29.0 kmh 29.77 in1008.1 mb 0.01 in0.3 mm 0.00 in0.0 mm 0.09 in2.3 mm
06:42 AM 45.9°F7.7°C 42.0°F5.6°C 86% 12.9 mph WSW20.8 kmh WSW 18.0 mph29.0 kmh 29.77 in1008.1 mb 0.01 in0.3 mm 0.00 in0.0 mm 0.09 in2.3 mm
06:43 AM 45.9°F7.7°C 42.0°F5.6°C 86% 12.2 mph WSW19.6 kmh WSW 18.0 mph29.0 kmh 29.77 in1008.1 mb 0.01 in0.3 mm 0.00 in0.0 mm 0.09 in2.3 mm
06:44 AM 45.9°F7.7°C 42.0°F5.6°C 86% 14.9 mph WSW24.0 kmh WSW 18.0 mph29.0 kmh 29.77 in1008.1 mb 0.01 in0.3 mm 0.00 in0.0 mm 0.09 in2.3 mm
06:45 AM 45.9°F7.7°C 42.0°F5.6°C 86% 12.9 mph WSW20.8 kmh WSW 17.0 mph27.4 kmh 29.77 in1008.1 mb 0.01 in0.3 mm 0.00 in0.0 mm 0.09 in2.3 mm
06:46 AM 45.9°F7.7°C 42.0°F5.6°C 86% 14.5 mph WSW23.3 kmh WSW 16.0 mph25.7 kmh 29.77 in1008.1 mb 0.01 in0.3 mm 0.00 in0.0 mm 0.09 in2.3 mm
06:47 AM 45.8°F7.7°C 41.9°F5.5°C 86% 12.9 mph WSW20.8 kmh WSW 16.0 mph25.7 kmh 29.77 in1008.1 mb 0.01 in0.3 mm 0.00 in0.0 mm 0.09 in2.3 mm
06:48 AM 45.9°F7.7°C 42.0°F5.6°C 86% 13.0 mph WSW20.9 kmh WSW 16.0 mph25.7 kmh 29.77 in1008.1 mb 0.01 in0.3 mm 0.00 in0.0 mm 0.09 in2.3 mm
06:49 AM 45.9°F7.7°C 42.0°F5.6°C 86% 14.1 mph WSW22.7 kmh WSW 17.0 mph27.4 kmh 29.77 in1008.1 mb 0.01 in0.3 mm 0.00 in0.0 mm 0.09 in2.3 mm
06:50 AM 46.0°F7.8°C 42.1°F5.6°C 86% 14.8 mph WSW23.8 kmh WSW 17.0 mph27.4 kmh 29.77 in1008.1 mb 0.01 in0.3 mm 0.00 in0.0 mm 0.09 in2.3 mm
06:51 AM 46.0°F7.8°C 42.1°F5.6°C 86% 15.4 mph SW24.8 kmh SW 17.0 mph27.4 kmh 29.77 in1008.1 mb 0.01 in0.3 mm 0.00 in0.0 mm 0.09 in2.3 mm
06:52 AM 45.9°F7.7°C 42.0°F5.6°C 86% 15.8 mph SW25.4 kmh SW 18.0 mph29.0 kmh 29.77 in1008.1 mb 0.01 in0.3 mm 0.00 in0.0 mm 0.09 in2.3 mm
06:53 AM 45.9°F7.7°C 42.0°F5.6°C 86% 14.6 mph WSW23.5 kmh WSW 18.0 mph29.0 kmh 29.77 in1008.1 mb 0.01 in0.3 mm 0.00 in0.0 mm 0.09 in2.3 mm
06:54 AM 45.9°F7.7°C 42.0°F5.6°C 86% 16.7 mph WSW26.9 kmh WSW 21.0 mph33.8 kmh 29.78 in1008.5 mb 0.01 in0.3 mm 0.00 in0.0 mm 0.09 in2.3 mm
06:55 AM 45.9°F7.7°C 42.0°F5.6°C 86% 15.0 mph WSW24.1 kmh WSW 21.0 mph33.8 kmh 29.78 in1008.5 mb 0.01 in0.3 mm 0.00 in0.0 mm 0.09 in2.3 mm
06:56 AM 45.8°F7.7°C 41.6°F5.3°C 85% 16.6 mph WSW26.7 kmh WSW 20.0 mph32.2 kmh 29.78 in1008.5 mb 0.00 in0.0 mm 0.00 in0.0 mm 0.09 in2.3 mm
06:57 AM 45.8°F7.7°C 41.6°F5.3°C 85% 17.6 mph SW28.3 kmh SW 21.0 mph33.8 kmh 29.78 in1008.5 mb 0.00 in0.0 mm 0.00 in0.0 mm 0.09 in2.3 mm
06:58 AM 45.8°F7.7°C 41.6°F5.3°C 85% 15.0 mph WSW24.1 kmh WSW 21.0 mph33.8 kmh 29.78 in1008.5 mb 0.00 in0.0 mm 0.00 in0.0 mm 0.09 in2.3 mm
06:59 AM 45.8°F7.7°C 41.6°F5.3°C 85% 13.9 mph WSW22.4 kmh WSW 17.0 mph27.4 kmh 29.78 in1008.5 mb 0.00 in0.0 mm 0.00 in0.0 mm 0.09 in2.3 mm
07:00 AM 45.9°F7.7°C 42.0°F5.6°C 86% 15.7 mph WSW25.3 kmh WSW 21.0 mph33.8 kmh 29.78 in1008.5 mb 0.00 in0.0 mm 0.00 in0.0 mm 0.09 in2.3 mm
07:01 AM 45.9°F7.7°C 41.6°F5.3°C 85% 17.0 mph WSW27.4 kmh WSW 21.0 mph33.8 kmh 29.78 in1008.5 mb 0.00 in0.0 mm 0.00 in0.0 mm 0.09 in2.3 mm
07:02 AM 45.8°F7.7°C 41.6°F5.3°C 85% 18.5 mph SW29.8 kmh SW 21.0 mph33.8 kmh 29.78 in1008.5 mb 0.00 in0.0 mm 0.00 in0.0 mm 0.09 in2.3 mm
07:03 AM 45.8°F7.7°C 41.6°F5.3°C 85% 15.6 mph WSW25.1 kmh WSW 21.0 mph33.8 kmh 29.78 in1008.5 mb 0.00 in0.0 mm 0.00 in0.0 mm 0.09 in2.3 mm
07:04 AM 45.8°F7.7°C 41.6°F5.3°C 85% 15.7 mph WSW25.3 kmh WSW 19.0 mph30.6 kmh 29.78 in1008.5 mb 0.00 in0.0 mm 0.00 in0.0 mm 0.09 in2.3 mm
07:05 AM 45.8°F7.7°C 41.6°F5.3°C 85% 16.4 mph SW26.4 kmh SW 19.0 mph30.6 kmh 29.78 in1008.5 mb 0.00 in0.0 mm 0.00 in0.0 mm 0.09 in2.3 mm
07:06 AM 45.8°F7.7°C 41.6°F5.3°C 85% 16.9 mph WSW27.2 kmh WSW 20.0 mph32.2 kmh 29.78 in1008.5 mb 0.00 in0.0 mm 0.00 in0.0 mm 0.09 in2.3 mm
07:07 AM 45.8°F7.7°C 41.6°F5.3°C 85% 17.2 mph SW27.7 kmh SW 22.0 mph35.4 kmh 29.78 in1008.5 mb 0.00 in0.0 mm 0.00 in0.0 mm 0.09 in2.3 mm
07:08 AM 45.8°F7.7°C 41.2°F5.1°C 84% 18.7 mph WSW30.1 kmh WSW 23.0 mph37.0 kmh 29.78 in1008.5 mb 0.00 in0.0 mm 0.00 in0.0 mm 0.09 in2.3 mm
07:09 AM 45.7°F7.6°C 41.1°F5.1°C 84% 16.8 mph WSW27.0 kmh WSW 23.0 mph37.0 kmh 29.78 in1008.5 mb 0.00 in0.0 mm 0.00 in0.0 mm 0.09 in2.3 mm
07:10 AM 45.7°F7.6°C 41.1°F5.1°C 84% 16.3 mph WSW26.2 kmh WSW 20.0 mph32.2 kmh 29.78 in1008.5 mb 0.00 in0.0 mm 0.00 in0.0 mm 0.09 in2.3 mm
07:11 AM 45.8°F7.7°C 41.6°F5.3°C 85% 18.4 mph WSW29.6 kmh WSW 21.0 mph33.8 kmh 29.78 in1008.5 mb 0.00 in0.0 mm 0.00 in0.0 mm 0.09 in2.3 mm
07:12 AM 45.8°F7.7°C 41.2°F5.1°C 84% 16.6 mph WSW26.7 kmh WSW 21.0 mph33.8 kmh 29.78 in1008.5 mb 0.00 in0.0 mm 0.00 in0.0 mm 0.09 in2.3 mm
07:13 AM 45.9°F7.7°C 41.6°F5.3°C 85% 15.9 mph WSW25.6 kmh WSW 19.0 mph30.6 kmh 29.78 in1008.5 mb 0.00 in0.0 mm 0.00 in0.0 mm 0.09 in2.3 mm
07:14 AM 45.9°F7.7°C 41.6°F5.3°C 85% 15.9 mph WSW25.6 kmh WSW 19.0 mph30.6 kmh 29.78 in1008.5 mb 0.00 in0.0 mm 0.00 in0.0 mm 0.09 in2.3 mm
07:15 AM 45.9°F7.7°C 41.6°F5.3°C 85% 16.4 mph WSW26.4 kmh WSW 18.0 mph29.0 kmh 29.78 in1008.5 mb 0.00 in0.0 mm 0.00 in0.0 mm 0.09 in2.3 mm
07:16 AM 45.8°F7.7°C 41.2°F5.1°C 84% 15.5 mph WSW24.9 kmh WSW 18.0 mph29.0 kmh 29.79 in1008.8 mb 0.00 in0.0 mm 0.00 in0.0 mm 0.09 in2.3 mm
07:17 AM 45.8°F7.7°C 41.2°F5.1°C 84% 16.0 mph WSW25.7 kmh WSW 18.0 mph29.0 kmh 29.78 in1008.5 mb 0.00 in0.0 mm 0.00 in0.0 mm 0.09 in2.3 mm
07:18 AM 45.8°F7.7°C 41.2°F5.1°C 84% 16.0 mph WSW25.7 kmh WSW 18.0 mph29.0 kmh 29.78 in1008.5 mb 0.00 in0.0 mm 0.00 in0.0 mm 0.09 in2.3 mm
07:19 AM 45.7°F7.6°C 40.8°F4.9°C 83% 15.6 mph WSW25.1 kmh WSW 18.0 mph29.0 kmh 29.78 in1008.5 mb 0.00 in0.0 mm 0.00 in0.0 mm 0.09 in2.3 mm
07:20 AM 45.7°F7.6°C 40.8°F4.9°C 83% 15.5 mph WSW24.9 kmh WSW 18.0 mph29.0 kmh 29.78 in1008.5 mb 0.00 in0.0 mm 0.00 in0.0 mm 0.09 in2.3 mm
07:21 AM 45.7°F7.6°C 40.8°F4.9°C 83% 14.0 mph WSW22.5 kmh WSW 18.0 mph29.0 kmh 29.78 in1008.5 mb 0.00 in0.0 mm 0.00 in0.0 mm 0.09 in2.3 mm
07:22 AM 45.8°F7.7°C 41.2°F5.1°C 84% 10.7 mph WSW17.2 kmh WSW 17.0 mph27.4 kmh 29.78 in1008.5 mb 0.00 in0.0 mm 0.00 in0.0 mm 0.09 in2.3 mm
07:23 AM 45.9°F7.7°C 41.3°F5.2°C 84% 12.3 mph W19.8 kmh W 15.0 mph24.1 kmh 29.78 in1008.5 mb 0.00 in0.0 mm 0.00 in0.0 mm 0.09 in2.3 mm
07:24 AM 45.8°F7.7°C 40.9°F4.9°C 83% 15.2 mph WSW24.5 kmh WSW 18.0 mph29.0 kmh 29.78 in1008.5 mb 0.00 in0.0 mm 0.00 in0.0 mm 0.09 in2.3 mm
07:25 AM 45.8°F7.7°C 40.9°F4.9°C 83% 14.7 mph WSW23.7 kmh WSW 18.0 mph29.0 kmh 29.78 in1008.5 mb 0.00 in0.0 mm 0.00 in0.0 mm 0.09 in2.3 mm
07:26 AM 45.9°F7.7°C 41.0°F5.0°C 83% 13.9 mph W22.4 kmh W 17.0 mph27.4 kmh 29.78 in1008.5 mb 0.00 in0.0 mm 0.00 in0.0 mm 0.09 in2.3 mm
07:27 AM 45.9°F7.7°C 41.0°F5.0°C 83% 12.4 mph WSW20.0 kmh WSW 15.0 mph24.1 kmh 29.78 in1008.5 mb 0.00 in0.0 mm 0.00 in0.0 mm 0.09 in2.3 mm
07:28 AM 45.9°F7.7°C 41.0°F5.0°C 83% 13.6 mph W21.9 kmh W 16.0 mph25.7 kmh 29.78 in1008.5 mb 0.00 in0.0 mm 0.00 in0.0 mm 0.09 in2.3 mm
07:29 AM 45.9°F7.7°C 41.0°F5.0°C 83% 13.5 mph WSW21.7 kmh WSW 16.0 mph25.7 kmh 29.78 in1008.5 mb 0.00 in0.0 mm 0.00 in0.0 mm 0.09 in2.3 mm
07:30 AM 46.0°F7.8°C 41.1°F5.1°C 83% 13.3 mph WSW21.4 kmh WSW 15.0 mph24.1 kmh 29.78 in1008.5 mb 0.00 in0.0 mm 0.00 in0.0 mm 0.09 in2.3 mm
07:31 AM 46.0°F7.8°C 40.8°F4.9°C 82% 15.1 mph WSW24.3 kmh WSW 17.0 mph27.4 kmh 29.78 in1008.5 mb 0.00 in0.0 mm 0.00 in0.0 mm 0.09 in2.3 mm
07:32 AM 46.0°F7.8°C 40.8°F4.9°C 82% 14.5 mph W23.3 kmh W 17.0 mph27.4 kmh 29.78 in1008.5 mb 0.00 in0.0 mm 0.00 in0.0 mm 0.09 in2.3 mm
07:33 AM 46.1°F7.8°C 40.9°F4.9°C 82% 12.5 mph W20.1 kmh W 17.0 mph27.4 kmh 29.79 in1008.8 mb 0.00 in0.0 mm 0.00 in0.0 mm 0.09 in2.3 mm
07:34 AM 46.1°F7.8°C 41.2°F5.1°C 83% 12.6 mph W20.3 kmh W 17.0 mph27.4 kmh 29.78 in1008.5 mb 0.00 in0.0 mm 0.00 in0.0 mm 0.09 in2.3 mm
07:35 AM 46.2°F7.9°C 41.3°F5.2°C 83% 13.0 mph W20.9 kmh W 16.0 mph25.7 kmh 29.79 in1008.8 mb 0.00 in0.0 mm 0.00 in0.0 mm 0.09 in2.3 mm
07:36 AM 46.2°F7.9°C 41.3°F5.2°C 83% 14.2 mph WSW22.9 kmh WSW 16.0 mph25.7 kmh 29.79 in1008.8 mb 0.00 in0.0 mm 0.00 in0.0 mm 0.09 in2.3 mm
07:37 AM 46.1°F7.8°C 41.2°F5.1°C 83% 16.1 mph W25.9 kmh W 19.0 mph30.6 kmh 29.79 in1008.8 mb 0.00 in0.0 mm 0.00 in0.0 mm 0.09 in2.3 mm
07:38 AM 46.1°F7.8°C 41.2°F5.1°C 83% 12.1 mph W19.5 kmh W 19.0 mph30.6 kmh 29.79 in1008.8 mb 0.00 in0.0 mm 0.00 in0.0 mm 0.09 in2.3 mm
07:39 AM 46.2°F7.9°C 41.3°F5.2°C 83% 12.2 mph WSW19.6 kmh WSW 16.0 mph25.7 kmh 29.79 in1008.8 mb 0.00 in0.0 mm 0.00 in0.0 mm 0.09 in2.3 mm
07:40 AM 46.2°F7.9°C 41.6°F5.3°C 84% 13.9 mph WSW22.4 kmh WSW 16.0 mph25.7 kmh 29.79 in1008.8 mb 0.00 in0.0 mm 0.00 in0.0 mm 0.09 in2.3 mm
07:41 AM 46.2°F7.9°C 41.6°F5.3°C 84% 13.5 mph WSW21.7 kmh WSW 16.0 mph25.7 kmh 29.79 in1008.8 mb 0.00 in0.0 mm 0.00 in0.0 mm 0.09 in2.3 mm
07:42 AM 46.3°F7.9°C 41.7°F5.4°C 84% 15.0 mph WSW24.1 kmh WSW 18.0 mph29.0 kmh 29.79 in1008.8 mb 0.00 in0.0 mm 0.00 in0.0 mm 0.09 in2.3 mm
07:43 AM 46.1°F7.8°C 41.2°F5.1°C 83% 18.1 mph WSW29.1 kmh WSW 22.0 mph35.4 kmh 29.79 in1008.8 mb 0.00 in0.0 mm 0.00 in0.0 mm 0.09 in2.3 mm
07:44 AM 46.1°F7.8°C 41.2°F5.1°C 83% 13.5 mph WSW21.7 kmh WSW 22.0 mph35.4 kmh 29.79 in1008.8 mb 0.00 in0.0 mm 0.00 in0.0 mm 0.09 in2.3 mm
07:45 AM 46.2°F7.9°C 41.6°F5.3°C 84% 14.2 mph WSW22.9 kmh WSW 15.0 mph24.1 kmh 29.79 in1008.8 mb 0.00 in0.0 mm 0.00 in0.0 mm 0.09 in2.3 mm
07:46 AM 46.2°F7.9°C 41.6°F5.3°C 84% 16.1 mph WSW25.9 kmh WSW 18.0 mph29.0 kmh 29.79 in1008.8 mb 0.00 in0.0 mm 0.00 in0.0 mm 0.09 in2.3 mm
07:47 AM 46.2°F7.9°C 41.6°F5.3°C 84% 15.3 mph WSW24.6 kmh WSW 18.0 mph29.0 kmh 29.79 in1008.8 mb 0.00 in0.0 mm 0.00 in0.0 mm 0.09 in2.3 mm
07:48 AM 46.1°F7.8°C 41.2°F5.1°C 83% 14.8 mph WSW23.8 kmh WSW 18.0 mph29.0 kmh 29.79 in1008.8 mb 0.00 in0.0 mm 0.00 in0.0 mm 0.09 in2.3 mm
07:49 AM 46.1°F7.8°C 41.2°F5.1°C 83% 15.4 mph WSW24.8 kmh WSW 17.0 mph27.4 kmh 29.79 in1008.8 mb 0.00 in0.0 mm 0.00 in0.0 mm 0.09 in2.3 mm
07:50 AM 46.1°F7.8°C 41.2°F5.1°C 83% 16.3 mph WSW26.2 kmh WSW 19.0 mph30.6 kmh 29.79 in1008.8 mb 0.00 in0.0 mm 0.00 in0.0 mm 0.09 in2.3 mm
07:51 AM 46.0°F7.8°C 41.1°F5.1°C 83% 15.0 mph WSW24.1 kmh WSW 19.0 mph30.6 kmh 29.79 in1008.8 mb 0.00 in0.0 mm 0.00 in0.0 mm 0.09 in2.3 mm
07:52 AM 46.1°F7.8°C 41.2°F5.1°C 83% 15.3 mph WSW24.6 kmh WSW 18.0 mph29.0 kmh 29.79 in1008.8 mb 0.00 in0.0 mm 0.00 in0.0 mm 0.09 in2.3 mm
07:53 AM 46.1°F7.8°C 41.2°F5.1°C 83% 14.8 mph WSW23.8 kmh WSW 18.0 mph29.0 kmh 29.80 in1009.1 mb 0.00 in0.0 mm 0.00 in0.0 mm 0.09 in2.3 mm
07:54 AM 46.2°F7.9°C 41.3°F5.2°C 83% 12.2 mph WSW19.6 kmh WSW 17.0 mph27.4 kmh 29.80 in1009.1 mb 0.00 in0.0 mm 0.00 in0.0 mm 0.09 in2.3 mm
07:55 AM 46.2°F7.9°C 41.3°F5.2°C 83% 13.4 mph WSW21.6 kmh WSW 15.0 mph24.1 kmh 29.80 in1009.1 mb 0.00 in0.0 mm 0.00 in0.0 mm 0.09 in2.3 mm
07:56 AM 46.2°F7.9°C 41.3°F5.2°C 83% 12.9 mph WSW20.8 kmh WSW 16.0 mph25.7 kmh 29.80 in1009.1 mb 0.00 in0.0 mm 0.00 in0.0 mm 0.09 in2.3 mm
07:57 AM 46.3°F7.9°C 41.7°F5.4°C 84% 14.0 mph WSW22.5 kmh WSW 17.0 mph27.4 kmh 29.80 in1009.1 mb 0.00 in0.0 mm 0.00 in0.0 mm 0.09 in2.3 mm
07:58 AM 46.3°F7.9°C 41.4°F5.2°C 83% 15.1 mph WSW24.3 kmh WSW 17.0 mph27.4 kmh 29.80 in1009.1 mb 0.00 in0.0 mm 0.00 in0.0 mm 0.09 in2.3 mm
07:59 AM 46.4°F8.0°C 41.5°F5.3°C 83% 16.2 mph WSW26.1 kmh WSW 18.0 mph29.0 kmh 29.80 in1009.1 mb 0.00 in0.0 mm 0.00 in0.0 mm 0.09 in2.3 mm
08:00 AM 46.5°F8.1°C 41.6°F5.3°C 83% 12.4 mph WSW20.0 kmh WSW 18.0 mph29.0 kmh 29.80 in1009.1 mb 0.00 in0.0 mm 0.00 in0.0 mm 0.09 in2.3 mm
08:01 AM 46.5°F8.1°C 41.9°F5.5°C 84% 13.0 mph W20.9 kmh W 17.0 mph27.4 kmh 29.80 in1009.1 mb 0.00 in0.0 mm 0.00 in0.0 mm 0.09 in2.3 mm
08:02 AM 46.5°F8.1°C 41.9°F5.5°C 84% 14.2 mph WSW22.9 kmh WSW 17.0 mph27.4 kmh 29.80 in1009.1 mb 0.00 in0.0 mm 0.00 in0.0 mm 0.09 in2.3 mm
08:03 AM 46.6°F8.1°C 42.0°F5.6°C 84% 15.4 mph WSW24.8 kmh WSW 17.0 mph27.4 kmh 29.80 in1009.1 mb 0.00 in0.0 mm 0.00 in0.0 mm 0.09 in2.3 mm
08:04 AM 46.6°F8.1°C 41.7°F5.4°C 83% 15.0 mph WSW24.1 kmh WSW 17.0 mph27.4 kmh 29.80 in1009.1 mb 0.00 in0.0 mm 0.00 in0.0 mm 0.09 in2.3 mm
08:05 AM 46.5°F8.1°C 41.6°F5.3°C 83% 16.1 mph WSW25.9 kmh WSW 19.0 mph30.6 kmh 29.80 in1009.1 mb 0.00 in0.0 mm 0.00 in0.0 mm 0.09 in2.3 mm
08:06 AM 46.5°F8.1°C 41.9°F5.5°C 84% 15.2 mph WSW24.5 kmh WSW 19.0 mph30.6 kmh 29.81 in1009.5 mb 0.00 in0.0 mm 0.00 in0.0 mm 0.09 in2.3 mm
08:07 AM 46.5°F8.1°C 41.6°F5.3°C 83% 15.5 mph WSW24.9 kmh WSW 19.0 mph30.6 kmh 29.81 in1009.5 mb 0.00 in0.0 mm 0.00 in0.0 mm 0.09 in2.3 mm
08:08 AM 46.5°F8.1°C 41.6°F5.3°C 83% 17.3 mph WSW27.8 kmh WSW 19.0 mph30.6 kmh 29.81 in1009.5 mb 0.00 in0.0 mm 0.00 in0.0 mm 0.09 in2.3 mm
08:09 AM 46.5°F8.1°C 41.6°F5.3°C 83% 14.7 mph WSW23.7 kmh WSW 19.0 mph30.6 kmh 29.81 in1009.5 mb 0.00 in0.0 mm 0.00 in0.0 mm 0.09 in2.3 mm
08:10 AM 46.5°F8.1°C 41.9°F5.5°C 84% 14.2 mph WSW22.9 kmh WSW 18.0 mph29.0 kmh 29.81 in1009.5 mb 0.00 in0.0 mm 0.00 in0.0 mm 0.09 in2.3 mm
08:11 AM 46.6°F8.1°C 42.0°F5.6°C 84% 17.1 mph WSW27.5 kmh WSW 24.0 mph38.6 kmh 29.81 in1009.5 mb 0.00 in0.0 mm 0.00 in0.0 mm 0.09 in2.3 mm
08:12 AM 46.5°F8.1°C 41.9°F5.5°C 84% 17.8 mph W28.6 kmh W 24.0 mph38.6 kmh 29.81 in1009.5 mb 0.00 in0.0 mm 0.00 in0.0 mm 0.09 in2.3 mm
08:13 AM 46.4°F8.0°C 41.8°F5.4°C 84% 17.5 mph W28.2 kmh W 22.0 mph35.4 kmh 29.81 in1009.5 mb 0.00 in0.0 mm 0.00 in0.0 mm 0.09 in2.3 mm
08:14 AM 46.4°F8.0°C 41.8°F5.4°C 84% 16.5 mph W26.6 kmh W 20.0 mph32.2 kmh 29.81 in1009.5 mb 0.00 in0.0 mm 0.00 in0.0 mm 0.09 in2.3 mm
08:15 AM 46.3°F7.9°C 41.7°F5.4°C 84% 16.9 mph W27.2 kmh W 24.0 mph38.6 kmh 29.81 in1009.5 mb 0.00 in0.0 mm 0.00 in0.0 mm 0.09 in2.3 mm
08:16 AM 46.2°F7.9°C 41.6°F5.3°C 84% 18.5 mph WSW29.8 kmh WSW 24.0 mph38.6 kmh 29.81 in1009.5 mb 0.00 in0.0 mm 0.00 in0.0 mm 0.09 in2.3 mm
08:17 AM 46.1°F7.8°C 41.5°F5.3°C 84% 17.4 mph W28.0 kmh W 23.0 mph37.0 kmh 29.81 in1009.5 mb 0.00 in0.0 mm 0.00 in0.0 mm 0.09 in2.3 mm
08:18 AM 46.1°F7.8°C 41.5°F5.3°C 84% 18.5 mph W29.8 kmh W 23.0 mph37.0 kmh 29.82 in1009.8 mb 0.00 in0.0 mm 0.00 in0.0 mm 0.09 in2.3 mm
08:19 AM 46.0°F7.8°C 41.4°F5.2°C 84% 15.7 mph W25.3 kmh W 20.0 mph32.2 kmh 29.82 in1009.8 mb 0.00 in0.0 mm 0.00 in0.0 mm 0.09 in2.3 mm
08:20 AM 46.0°F7.8°C 41.7°F5.4°C 85% 17.5 mph W28.2 kmh W 20.0 mph32.2 kmh 29.82 in1009.8 mb 0.00 in0.0 mm 0.00 in0.0 mm 0.09 in2.3 mm
08:21 AM 46.0°F7.8°C 41.4°F5.2°C 84% 19.5 mph W31.4 kmh W 23.0 mph37.0 kmh 29.82 in1009.8 mb 0.00 in0.0 mm 0.00 in0.0 mm 0.09 in2.3 mm
08:22 AM 45.9°F7.7°C 41.3°F5.2°C 84% 14.6 mph W23.5 kmh W 23.0 mph37.0 kmh 29.82 in1009.8 mb 0.00 in0.0 mm 0.00 in0.0 mm 0.09 in2.3 mm
08:23 AM 46.0°F7.8°C 41.7°F5.4°C 85% 16.5 mph W26.6 kmh W 19.0 mph30.6 kmh 29.82 in1009.8 mb 0.00 in0.0 mm 0.00 in0.0 mm 0.09 in2.3 mm
08:24 AM 45.9°F7.7°C 41.3°F5.2°C 84% 16.0 mph W25.7 kmh W 19.0 mph30.6 kmh 29.82 in1009.8 mb 0.00 in0.0 mm 0.00 in0.0 mm 0.09 in2.3 mm
08:25 AM 45.9°F7.7°C 41.3°F5.2°C 84% 16.6 mph W26.7 kmh W 19.0 mph30.6 kmh 29.82 in1009.8 mb 0.00 in0.0 mm 0.00 in0.0 mm 0.09 in2.3 mm
08:26 AM 46.0°F7.8°C 41.7°F5.4°C 85% 17.3 mph W27.8 kmh W 24.0 mph38.6 kmh 29.82 in1009.8 mb 0.00 in0.0 mm 0.00 in0.0 mm 0.09 in2.3 mm
08:27 AM 45.9°F7.7°C 41.3°F5.2°C 84% 18.4 mph W29.6 kmh W 24.0 mph38.6 kmh 29.82 in1009.8 mb 0.00 in0.0 mm 0.00 in0.0 mm 0.09 in2.3 mm
08:28 AM 45.9°F7.7°C 41.3°F5.2°C 84% 16.3 mph W26.2 kmh W 21.0 mph33.8 kmh 29.82 in1009.8 mb 0.00 in0.0 mm 0.00 in0.0 mm 0.09 in2.3 mm
08:29 AM 45.9°F7.7°C 41.0°F5.0°C 83% 18.6 mph W29.9 kmh W 21.0 mph33.8 kmh 29.82 in1009.8 mb 0.00 in0.0 mm 0.00 in0.0 mm 0.09 in2.3 mm
08:30 AM 45.9°F7.7°C 41.0°F5.0°C 83% 17.8 mph W28.6 kmh W 22.0 mph35.4 kmh 29.82 in1009.8 mb 0.00 in0.0 mm 0.00 in0.0 mm 0.09 in2.3 mm
08:31 AM 45.9°F7.7°C 41.0°F5.0°C 83% 14.3 mph W23.0 kmh W 22.0 mph35.4 kmh 29.82 in1009.8 mb 0.00 in0.0 mm 0.00 in0.0 mm 0.09 in2.3 mm
08:32 AM 46.0°F7.8°C 41.1°F5.1°C 83% 14.0 mph W22.5 kmh W 18.0 mph29.0 kmh 29.82 in1009.8 mb 0.00 in0.0 mm 0.00 in0.0 mm 0.09 in2.3 mm
08:33 AM 46.1°F7.8°C 41.5°F5.3°C 84% 14.4 mph W23.2 kmh W 17.0 mph27.4 kmh 29.82 in1009.8 mb 0.00 in0.0 mm 0.00 in0.0 mm 0.09 in2.3 mm
08:34 AM 46.2°F7.9°C 41.3°F5.2°C 83% 15.5 mph W24.9 kmh W 20.0 mph32.2 kmh 29.82 in1009.8 mb 0.00 in0.0 mm 0.00 in0.0 mm 0.09 in2.3 mm
08:35 AM 46.1°F7.8°C 41.2°F5.1°C 83% 16.5 mph W26.6 kmh W 22.0 mph35.4 kmh 29.82 in1009.8 mb 0.00 in0.0 mm 0.00 in0.0 mm 0.09 in2.3 mm
08:36 AM 46.1°F7.8°C 41.2°F5.1°C 83% 15.2 mph W24.5 kmh W 22.0 mph35.4 kmh 29.82 in1009.8 mb 0.00 in0.0 mm 0.00 in0.0 mm 0.09 in2.3 mm
08:37 AM 46.1°F7.8°C 41.2°F5.1°C 83% 14.9 mph WNW24.0 kmh WNW 19.0 mph30.6 kmh 29.82 in1009.8 mb 0.00 in0.0 mm 0.00 in0.0 mm 0.09 in2.3 mm
08:38 AM 46.2°F7.9°C 41.3°F5.2°C 83% 14.6 mph W23.5 kmh W 18.0 mph29.0 kmh 29.82 in1009.8 mb 0.00 in0.0 mm 0.00 in0.0 mm 0.09 in2.3 mm
08:39 AM 46.1°F7.8°C 41.2°F5.1°C 83% 14.5 mph W23.3 kmh W 19.0 mph30.6 kmh 29.82 in1009.8 mb 0.00 in0.0 mm 0.00 in0.0 mm 0.09 in2.3 mm
08:40 AM 46.3°F7.9°C 41.4°F5.2°C 83% 14.1 mph WNW22.7 kmh WNW 19.0 mph30.6 kmh 29.82 in1009.8 mb 0.00 in0.0 mm 0.00 in0.0 mm 0.09 in2.3 mm
08:41 AM 46.2°F7.9°C 41.0°F5.0°C 82% 15.0 mph W24.1 kmh W 21.0 mph33.8 kmh 29.83 in1010.2 mb 0.00 in0.0 mm 0.00 in0.0 mm 0.09 in2.3 mm
08:42 AM 46.2°F7.9°C 40.7°F4.8°C 81% 14.6 mph WNW23.5 kmh WNW 21.0 mph33.8 kmh 29.83 in1010.2 mb 0.00 in0.0 mm 0.00 in0.0 mm 0.09 in2.3 mm
08:43 AM 46.2°F7.9°C 40.7°F4.8°C 81% 18.1 mph WNW29.1 kmh WNW 20.0 mph32.2 kmh 29.83 in1010.2 mb 0.00 in0.0 mm 0.00 in0.0 mm 0.09 in2.3 mm
08:44 AM 46.2°F7.9°C 40.7°F4.8°C 81% 17.3 mph WNW27.8 kmh WNW 21.0 mph33.8 kmh 29.83 in1010.2 mb 0.00 in0.0 mm 0.00 in0.0 mm 0.09 in2.3 mm
08:45 AM 46.3°F7.9°C 40.8°F4.9°C 81% 15.7 mph WNW25.3 kmh WNW 21.0 mph33.8 kmh 29.83 in1010.2 mb 0.00 in0.0 mm 0.00 in0.0 mm 0.09 in2.3 mm
08:46 AM 46.4°F8.0°C 40.6°F4.8°C 80% 18.9 mph WNW30.4 kmh WNW 24.0 mph38.6 kmh 29.83 in1010.2 mb 0.00 in0.0 mm 0.00 in0.0 mm 0.09 in2.3 mm
08:47 AM 46.5°F8.1°C 41.0°F5.0°C 81% 16.9 mph WNW27.2 kmh WNW 24.0 mph38.6 kmh 29.83 in1010.2 mb 0.00 in0.0 mm 0.00 in0.0 mm 0.09 in2.3 mm
08:48 AM 46.6°F8.1°C 40.8°F4.9°C 80% 18.7 mph WNW30.1 kmh WNW 20.0 mph32.2 kmh 29.84 in1010.5 mb 0.00 in0.0 mm 0.00 in0.0 mm 0.09 in2.3 mm
08:49 AM 46.6°F8.1°C 40.8°F4.9°C 80% 18.0 mph WNW29.0 kmh WNW 21.0 mph33.8 kmh 29.83 in1010.2 mb 0.00 in0.0 mm 0.00 in0.0 mm 0.09 in2.3 mm
08:50 AM 46.6°F8.1°C 40.4°F4.7°C 79% 17.6 mph WNW28.3 kmh WNW 22.0 mph35.4 kmh 29.84 in1010.5 mb 0.00 in0.0 mm 0.00 in0.0 mm 0.09 in2.3 mm
08:51 AM 46.6°F8.1°C 40.4°F4.7°C 79% 15.9 mph WNW25.6 kmh WNW 22.0 mph35.4 kmh 29.84 in1010.5 mb 0.00 in0.0 mm 0.00 in0.0 mm 0.09 in2.3 mm
08:52 AM 46.7°F8.2°C 40.5°F4.7°C 79% 12.8 mph W20.6 kmh W 19.0 mph30.6 kmh 29.84 in1010.5 mb 0.00 in0.0 mm 0.00 in0.0 mm 0.09 in2.3 mm
08:53 AM 46.7°F8.2°C 40.5°F4.7°C 79% 16.0 mph WNW25.7 kmh WNW 19.0 mph30.6 kmh 29.84 in1010.5 mb 0.00 in0.0 mm 0.00 in0.0 mm 0.09 in2.3 mm
08:54 AM 46.8°F8.2°C 40.3°F4.6°C 78% 17.1 mph WNW27.5 kmh WNW 20.0 mph32.2 kmh 29.84 in1010.5 mb 0.00 in0.0 mm 0.00 in0.0 mm 0.09 in2.3 mm
08:55 AM 46.9°F8.3°C 40.4°F4.7°C 78% 16.9 mph WNW27.2 kmh WNW 20.0 mph32.2 kmh 29.84 in1010.5 mb 0.00 in0.0 mm 0.00 in0.0 mm 0.09 in2.3 mm
08:56 AM 46.9°F8.3°C 40.4°F4.7°C 78% 16.6 mph WNW26.7 kmh WNW 19.0 mph30.6 kmh 29.84 in1010.5 mb 0.00 in0.0 mm 0.00 in0.0 mm 0.09 in2.3 mm
08:57 AM 46.9°F8.3°C 41.1°F5.1°C 80% 13.7 mph WNW22.0 kmh WNW 19.0 mph30.6 kmh 29.84 in1010.5 mb 0.00 in0.0 mm 0.00 in0.0 mm 0.09 in2.3 mm
08:58 AM 47.0°F8.3°C 41.2°F5.1°C 80% 13.6 mph WNW21.9 kmh WNW 16.0 mph25.7 kmh 29.84 in1010.5 mb 0.00 in0.0 mm 0.00 in0.0 mm 0.09 in2.3 mm
08:59 AM 47.0°F8.3°C 41.2°F5.1°C 80% 15.6 mph W25.1 kmh W 26.0 mph41.8 kmh 29.84 in1010.5 mb 0.00 in0.0 mm 0.00 in0.0 mm 0.09 in2.3 mm
09:00 AM 46.9°F8.3°C 41.1°F5.1°C 80% 17.5 mph W28.2 kmh W 26.0 mph41.8 kmh 29.84 in1010.5 mb 0.00 in0.0 mm 0.00 in0.0 mm 0.09 in2.3 mm
09:01 AM 46.9°F8.3°C 41.1°F5.1°C 80% 18.3 mph W29.5 kmh W 25.0 mph40.2 kmh 29.84 in1010.5 mb 0.00 in0.0 mm 0.00 in0.0 mm 0.09 in2.3 mm
09:02 AM 46.9°F8.3°C 41.1°F5.1°C 80% 18.7 mph W30.1 kmh W 25.0 mph40.2 kmh 29.84 in1010.5 mb 0.00 in0.0 mm 0.00 in0.0 mm 0.09 in2.3 mm
09:03 AM 46.8°F8.2°C 41.0°F5.0°C 80% 17.4 mph WNW28.0 kmh WNW 22.0 mph35.4 kmh 29.84 in1010.5 mb 0.00 in0.0 mm 0.00 in0.0 mm 0.09 in2.3 mm
09:04 AM 46.9°F8.3°C 41.1°F5.1°C 80% 16.6 mph WNW26.7 kmh WNW 22.0 mph35.4 kmh 29.84 in1010.5 mb 0.00 in0.0 mm 0.00 in0.0 mm 0.09 in2.3 mm
09:05 AM 46.7°F8.2°C 40.2°F4.6°C 78% 17.2 mph WNW27.7 kmh WNW 22.0 mph35.4 kmh 29.84 in1010.5 mb 0.00 in0.0 mm 0.00 in0.0 mm 0.09 in2.3 mm
09:06 AM 46.7°F8.2°C 40.2°F4.6°C 78% 17.1 mph WNW27.5 kmh WNW 19.0 mph30.6 kmh 29.84 in1010.5 mb 0.00 in0.0 mm 0.00 in0.0 mm 0.09 in2.3 mm
09:07 AM 46.8°F8.2°C 40.6°F4.8°C 79% 17.9 mph NW28.8 kmh NW 22.0 mph35.4 kmh 29.84 in1010.5 mb 0.00 in0.0 mm 0.00 in0.0 mm 0.09 in2.3 mm
09:08 AM 46.7°F8.2°C 40.5°F4.7°C 79% 17.1 mph NW27.5 kmh NW 22.0 mph35.4 kmh 29.84 in1010.5 mb 0.00 in0.0 mm 0.00 in0.0 mm 0.09 in2.3 mm
09:09 AM 46.9°F8.3°C 41.1°F5.1°C 80% 18.1 mph WNW29.1 kmh WNW 22.0 mph35.4 kmh 29.84 in1010.5 mb 0.00 in0.0 mm 0.00 in0.0 mm 0.09 in2.3 mm
09:10 AM 46.9°F8.3°C 40.7°F4.8°C 79% 16.8 mph W27.0 kmh W 22.0 mph35.4 kmh 29.84 in1010.5 mb 0.00 in0.0 mm 0.00 in0.0 mm 0.09 in2.3 mm
09:11 AM 46.8°F8.2°C 40.3°F4.6°C 78% 18.8 mph WNW30.3 kmh WNW 22.0 mph35.4 kmh 29.85 in1010.8 mb 0.00 in0.0 mm 0.00 in0.0 mm 0.09 in2.3 mm
09:12 AM 46.8°F8.2°C 40.6°F4.8°C 79% 18.2 mph WNW29.3 kmh WNW 23.0 mph37.0 kmh 29.84 in1010.5 mb 0.00 in0.0 mm 0.00 in0.0 mm 0.09 in2.3 mm
09:13 AM 46.9°F8.3°C 40.7°F4.8°C 79% 18.5 mph WNW29.8 kmh WNW 24.0 mph38.6 kmh 29.85 in1010.8 mb 0.00 in0.0 mm 0.00 in0.0 mm 0.09 in2.3 mm
09:14 AM 46.7°F8.2°C 40.5°F4.7°C 79% 21.7 mph WNW34.9 kmh WNW 24.0 mph38.6 kmh 29.85 in1010.8 mb 0.00 in0.0 mm 0.00 in0.0 mm 0.09 in2.3 mm
09:15 AM 46.7°F8.2°C 40.2°F4.6°C 78% 20.4 mph WNW32.8 kmh WNW 24.0 mph38.6 kmh 29.85 in1010.8 mb 0.00 in0.0 mm 0.00 in0.0 mm 0.09 in2.3 mm
09:16 AM 46.6°F8.1°C 40.1°F4.5°C 78% 20.3 mph WNW32.7 kmh WNW 23.0 mph37.0 kmh 29.85 in1010.8 mb 0.00 in0.0 mm 0.00 in0.0 mm 0.09 in2.3 mm
09:17 AM 46.6°F8.1°C 40.1°F4.5°C 78% 18.9 mph WNW30.4 kmh WNW 22.0 mph35.4 kmh 29.85 in1010.8 mb 0.00 in0.0 mm 0.00 in0.0 mm 0.09 in2.3 mm
09:18 AM 46.7°F8.2°C 40.5°F4.7°C 79% 16.4 mph WNW26.4 kmh WNW 21.0 mph33.8 kmh 29.85 in1010.8 mb 0.00 in0.0 mm 0.00 in0.0 mm 0.09 in2.3 mm
09:19 AM 46.7°F8.2°C 40.5°F4.7°C 79% 15.4 mph WNW24.8 kmh WNW 20.0 mph32.2 kmh 29.85 in1010.8 mb 0.00 in0.0 mm 0.00 in0.0 mm 0.09 in2.3 mm
09:20 AM 46.7°F8.2°C 40.5°F4.7°C 79% 18.2 mph WNW29.3 kmh WNW 22.0 mph35.4 kmh 29.85 in1010.8 mb 0.00 in0.0 mm 0.00 in0.0 mm 0.09 in2.3 mm
09:21 AM 46.8°F8.2°C 40.3°F4.6°C 78% 20.3 mph WNW32.7 kmh WNW 23.0 mph37.0 kmh 29.85 in1010.8 mb 0.00 in0.0 mm 0.00 in0.0 mm 0.09 in2.3 mm
09:22 AM 46.7°F8.2°C 40.2°F4.6°C 78% 20.6 mph WNW33.2 kmh WNW 23.0 mph37.0 kmh 29.85 in1010.8 mb 0.00 in0.0 mm 0.00 in0.0 mm 0.09 in2.3 mm
09:23 AM 46.7°F8.2°C 40.2°F4.6°C 78% 19.9 mph WNW32.0 kmh WNW 24.0 mph38.6 kmh 29.85 in1010.8 mb 0.00 in0.0 mm 0.00 in0.0 mm 0.09 in2.3 mm
09:24 AM 46.7°F8.2°C 40.5°F4.7°C 79% 18.7 mph WNW30.1 kmh WNW 24.0 mph38.6 kmh 29.85 in1010.8 mb 0.00 in0.0 mm 0.00 in0.0 mm 0.09 in2.3 mm
09:25 AM 46.7°F8.2°C 40.5°F4.7°C 79% 19.8 mph WNW31.9 kmh WNW 26.0 mph41.8 kmh 29.85 in1010.8 mb 0.00 in0.0 mm 0.00 in0.0 mm 0.09 in2.3 mm
09:26 AM 46.8°F8.2°C 40.6°F4.8°C 79% 15.6 mph W25.1 kmh W 26.0 mph41.8 kmh 29.85 in1010.8 mb 0.00 in0.0 mm 0.00 in0.0 mm 0.09 in2.3 mm
09:27 AM 46.8°F8.2°C 40.3°F4.6°C 78% 16.0 mph WNW25.7 kmh WNW 19.0 mph30.6 kmh 29.85 in1010.8 mb 0.00 in0.0 mm 0.00 in0.0 mm 0.09 in2.3 mm
09:28 AM 46.8°F8.2°C 40.3°F4.6°C 78% 18.4 mph WNW29.6 kmh WNW 22.0 mph35.4 kmh 29.85 in1010.8 mb 0.00 in0.0 mm 0.00 in0.0 mm 0.09 in2.3 mm
09:29 AM 46.8°F8.2°C 40.0°F4.4°C 77% 19.3 mph WNW31.1 kmh WNW 23.0 mph37.0 kmh 29.86 in1011.2 mb 0.00 in0.0 mm 0.00 in0.0 mm 0.09 in2.3 mm
09:30 AM 46.8°F8.2°C 40.3°F4.6°C 78% 18.5 mph WNW29.8 kmh WNW 23.0 mph37.0 kmh 29.85 in1010.8 mb 0.00 in0.0 mm 0.00 in0.0 mm 0.09 in2.3 mm
09:31 AM 46.8°F8.2°C 40.3°F4.6°C 78% 16.2 mph WNW26.1 kmh WNW 21.0 mph33.8 kmh 29.86 in1011.2 mb 0.00 in0.0 mm 0.00 in0.0 mm 0.09 in2.3 mm
09:32 AM 46.8°F8.2°C 40.6°F4.8°C 79% 18.7 mph WNW30.1 kmh WNW 21.0 mph33.8 kmh 29.85 in1010.8 mb 0.00 in0.0 mm 0.00 in0.0 mm 0.09 in2.3 mm
09:33 AM 46.8°F8.2°C 40.3°F4.6°C 78% 15.8 mph WNW25.4 kmh WNW 21.0 mph33.8 kmh 29.85 in1010.8 mb 0.00 in0.0 mm 0.00 in0.0 mm 0.09 in2.3 mm
09:34 AM 47.0°F8.3°C 41.2°F5.1°C 80% 17.5 mph WNW28.2 kmh WNW 21.0 mph33.8 kmh 29.86 in1011.2 mb 0.00 in0.0 mm 0.00 in0.0 mm 0.09 in2.3 mm
09:35 AM 46.9°F8.3°C 40.4°F4.7°C 78% 17.2 mph W27.7 kmh W 21.0 mph33.8 kmh 29.86 in1011.2 mb 0.00 in0.0 mm 0.00 in0.0 mm 0.09 in2.3 mm
09:36 AM 47.0°F8.3°C 40.5°F4.7°C 78% 14.9 mph W24.0 kmh W 21.0 mph33.8 kmh 29.86 in1011.2 mb 0.00 in0.0 mm 0.00 in0.0 mm 0.09 in2.3 mm
09:37 AM 47.0°F8.3°C 40.5°F4.7°C 78% 15.3 mph W24.6 kmh W 20.0 mph32.2 kmh 29.86 in1011.2 mb 0.00 in0.0 mm 0.00 in0.0 mm 0.09 in2.3 mm
09:38 AM 47.1°F8.4°C 39.9°F4.4°C 76% 17.1 mph WNW27.5 kmh WNW 21.0 mph33.8 kmh 29.86 in1011.2 mb 0.00 in0.0 mm 0.00 in0.0 mm 0.09 in2.3 mm
09:39 AM 47.1°F8.4°C 39.9°F4.4°C 76% 16.2 mph WNW26.1 kmh WNW 21.0 mph33.8 kmh 29.86 in1011.2 mb 0.00 in0.0 mm 0.00 in0.0 mm 0.09 in2.3 mm
09:40 AM 47.1°F8.4°C 39.9°F4.4°C 76% 16.7 mph W26.9 kmh W 19.0 mph30.6 kmh 29.86 in1011.2 mb 0.00 in0.0 mm 0.00 in0.0 mm 0.09 in2.3 mm
09:41 AM 47.1°F8.4°C 40.3°F4.6°C 77% 14.6 mph WNW23.5 kmh WNW 19.0 mph30.6 kmh 29.86 in1011.2 mb 0.00 in0.0 mm 0.00 in0.0 mm 0.09 in2.3 mm
09:42 AM 47.2°F8.4°C 40.7°F4.8°C 78% 14.5 mph W23.3 kmh W 17.0 mph27.4 kmh 29.86 in1011.2 mb 0.00 in0.0 mm 0.00 in0.0 mm 0.09 in2.3 mm
09:43 AM 47.2°F8.4°C 40.7°F4.8°C 78% 14.0 mph W22.5 kmh W 17.0 mph27.4 kmh 29.86 in1011.2 mb 0.00 in0.0 mm 0.00 in0.0 mm 0.09 in2.3 mm
09:44 AM 47.2°F8.4°C 40.7°F4.8°C 78% 17.4 mph W28.0 kmh W 21.0 mph33.8 kmh 29.86 in1011.2 mb 0.00 in0.0 mm 0.00 in0.0 mm 0.09 in2.3 mm
09:45 AM 47.1°F8.4°C 40.3°F4.6°C 77% 17.5 mph W28.2 kmh W 22.0 mph35.4 kmh 29.86 in1011.2 mb 0.00 in0.0 mm 0.00 in0.0 mm 0.09 in2.3 mm
09:46 AM 47.1°F8.4°C 40.3°F4.6°C 77% 16.5 mph WNW26.6 kmh WNW 22.0 mph35.4 kmh 29.87 in1011.5 mb 0.00 in0.0 mm 0.00 in0.0 mm 0.09 in2.3 mm
09:47 AM 47.1°F8.4°C 40.3°F4.6°C 77% 17.4 mph WNW28.0 kmh WNW 22.0 mph35.4 kmh 29.86 in1011.2 mb 0.00 in0.0 mm 0.00 in0.0 mm 0.09 in2.3 mm
09:48 AM 47.0°F8.3°C 40.2°F4.6°C 77% 15.3 mph WNW24.6 kmh WNW 22.0 mph35.4 kmh 29.87 in1011.5 mb 0.00 in0.0 mm 0.00 in0.0 mm 0.09 in2.3 mm
09:49 AM 47.0°F8.3°C 40.5°F4.7°C 78% 17.8 mph WNW28.6 kmh WNW 22.0 mph35.4 kmh 29.87 in1011.5 mb 0.00 in0.0 mm 0.00 in0.0 mm 0.09 in2.3 mm
09:50 AM 47.0°F8.3°C 40.2°F4.6°C 77% 16.4 mph WNW26.4 kmh WNW 22.0 mph35.4 kmh 29.87 in1011.5 mb 0.00 in0.0 mm 0.00 in0.0 mm 0.09 in2.3 mm
09:51 AM 47.0°F8.3°C 40.5°F4.7°C 78% 19.1 mph WNW30.7 kmh WNW 21.0 mph33.8 kmh 29.87 in1011.5 mb 0.00 in0.0 mm 0.00 in0.0 mm 0.09 in2.3 mm
09:52 AM 47.0°F8.3°C 40.5°F4.7°C 78% 13.4 mph W21.6 kmh W 21.0 mph33.8 kmh 29.86 in1011.2 mb 0.00 in0.0 mm 0.00 in0.0 mm 0.09 in2.3 mm
09:53 AM 47.1°F8.4°C 40.6°F4.8°C 78% 12.9 mph W20.8 kmh W 17.0 mph27.4 kmh 29.87 in1011.5 mb 0.00 in0.0 mm 0.00 in0.0 mm 0.09 in2.3 mm
09:54 AM 47.2°F8.4°C 40.7°F4.8°C 78% 14.1 mph W22.7 kmh W 19.0 mph30.6 kmh 29.87 in1011.5 mb 0.00 in0.0 mm 0.00 in0.0 mm 0.09 in2.3 mm
09:55 AM 47.3°F8.5°C 40.5°F4.7°C 77% 15.9 mph W25.6 kmh W 19.0 mph30.6 kmh 29.87 in1011.5 mb 0.00 in0.0 mm 0.00 in0.0 mm 0.09 in2.3 mm
09:56 AM 47.4°F8.6°C 40.9°F4.9°C 78% 10.9 mph W17.5 kmh W 18.0 mph29.0 kmh 29.87 in1011.5 mb 0.00 in0.0 mm 0.00 in0.0 mm 0.09 in2.3 mm
09:57 AM 47.4°F8.6°C 40.6°F4.8°C 77% 15.9 mph W25.6 kmh W 19.0 mph30.6 kmh 29.87 in1011.5 mb 0.00 in0.0 mm 0.00 in0.0 mm 0.09 in2.3 mm
09:58 AM 47.5°F8.6°C 40.7°F4.8°C 77% 18.6 mph WNW29.9 kmh WNW 23.0 mph37.0 kmh 29.87 in1011.5 mb 0.00 in0.0 mm 0.00 in0.0 mm 0.09 in2.3 mm
09:59 AM 47.4°F8.6°C 40.2°F4.6°C 76% 15.5 mph WNW24.9 kmh WNW 23.0 mph37.0 kmh 29.87 in1011.5 mb 0.00 in0.0 mm 0.00 in0.0 mm 0.09 in2.3 mm
10:00 AM 47.4°F8.6°C 40.2°F4.6°C 76% 15.4 mph WNW24.8 kmh WNW 18.0 mph29.0 kmh 29.87 in1011.5 mb 0.00 in0.0 mm 0.00 in0.0 mm 0.09 in2.3 mm
10:01 AM 47.3°F8.5°C 40.8°F4.9°C 78% 17.7 mph WNW28.5 kmh WNW 22.0 mph35.4 kmh 29.87 in1011.5 mb 0.00 in0.0 mm 0.00 in0.0 mm 0.09 in2.3 mm
10:02 AM 47.3°F8.5°C 40.1°F4.5°C 76% 17.1 mph WNW27.5 kmh WNW 22.0 mph35.4 kmh 29.87 in1011.5 mb 0.00 in0.0 mm 0.00 in0.0 mm 0.09 in2.3 mm
10:03 AM 47.4°F8.6°C 40.6°F4.8°C 77% 15.0 mph W24.1 kmh W 19.0 mph30.6 kmh 29.87 in1011.5 mb 0.00 in0.0 mm 0.00 in0.0 mm 0.09 in2.3 mm
10:04 AM 47.5°F8.6°C 40.3°F4.6°C 76% 15.4 mph W24.8 kmh W 19.0 mph30.6 kmh 29.87 in1011.5 mb 0.00 in0.0 mm 0.00 in0.0 mm 0.09 in2.3 mm
10:05 AM 47.6°F8.7°C 40.4°F4.7°C 76% 13.7 mph W22.0 kmh W 19.0 mph30.6 kmh 29.87 in1011.5 mb 0.00 in0.0 mm 0.00 in0.0 mm 0.09 in2.3 mm
10:06 AM 47.6°F8.7°C 40.4°F4.7°C 76% 14.1 mph WNW22.7 kmh WNW 19.0 mph30.6 kmh 29.88 in1011.9 mb 0.00 in0.0 mm 0.00 in0.0 mm 0.09 in2.3 mm
10:07 AM 47.7°F8.7°C 40.5°F4.7°C 76% 15.7 mph WNW25.3 kmh WNW 19.0 mph30.6 kmh 29.88 in1011.9 mb 0.00 in0.0 mm 0.00 in0.0 mm 0.09 in2.3 mm
10:08 AM 47.7°F8.7°C 40.5°F4.7°C 76% 16.2 mph WNW26.1 kmh WNW 19.0 mph30.6 kmh 29.88 in1011.9 mb 0.00 in0.0 mm 0.00 in0.0 mm 0.09 in2.3 mm
10:09 AM 47.7°F8.7°C 40.5°F4.7°C 76% 13.6 mph WNW21.9 kmh WNW 19.0 mph30.6 kmh 29.88 in1011.9 mb 0.00 in0.0 mm 0.00 in0.0 mm 0.09 in2.3 mm
10:10 AM 47.8°F8.8°C 40.6°F4.8°C 76% 14.5 mph W23.3 kmh W 18.0 mph29.0 kmh 29.88 in1011.9 mb 0.00 in0.0 mm 0.00 in0.0 mm 0.09 in2.3 mm
10:11 AM 47.8°F8.8°C 40.3°F4.6°C 75% 14.2 mph W22.9 kmh W 18.0 mph29.0 kmh 29.88 in1011.9 mb 0.00 in0.0 mm 0.00 in0.0 mm 0.09 in2.3 mm
10:12 AM 47.9°F8.8°C 40.7°F4.8°C 76% 12.5 mph W20.1 kmh W 17.0 mph27.4 kmh 29.87 in1011.5 mb 0.00 in0.0 mm 0.00 in0.0 mm 0.09 in2.3 mm
10:13 AM 48.1°F8.9°C 40.9°F4.9°C 76% 15.7 mph WNW25.3 kmh WNW 18.0 mph29.0 kmh 29.88 in1011.9 mb 0.00 in0.0 mm 0.00 in0.0 mm 0.09 in2.3 mm
10:14 AM 48.0°F8.9°C 40.5°F4.7°C 75% 16.7 mph WNW26.9 kmh WNW 20.0 mph32.2 kmh 29.88 in1011.9 mb 0.00 in0.0 mm 0.00 in0.0 mm 0.09 in2.3 mm
10:15 AM 48.0°F8.9°C 39.8°F4.3°C 73% 18.2 mph WNW29.3 kmh WNW 22.0 mph35.4 kmh 29.88 in1011.9 mb 0.00 in0.0 mm 0.00 in0.0 mm 0.09 in2.3 mm
10:16 AM 47.8°F8.8°C 39.6°F4.2°C 73% 18.0 mph WNW29.0 kmh WNW 22.0 mph35.4 kmh 29.88 in1011.9 mb 0.00 in0.0 mm 0.00 in0.0 mm 0.09 in2.3 mm
10:17 AM 47.9°F8.8°C 40.0°F4.4°C 74% 18.4 mph WNW29.6 kmh WNW 22.0 mph35.4 kmh 29.88 in1011.9 mb 0.00 in0.0 mm 0.00 in0.0 mm 0.09 in2.3 mm
10:18 AM 47.8°F8.8°C 39.9°F4.4°C 74% 18.0 mph WNW29.0 kmh WNW 22.0 mph35.4 kmh 29.88 in1011.9 mb 0.00 in0.0 mm 0.00 in0.0 mm 0.09 in2.3 mm
10:19 AM 47.8°F8.8°C 39.6°F4.2°C 73% 18.7 mph WNW30.1 kmh WNW 21.0 mph33.8 kmh 29.88 in1011.9 mb 0.00 in0.0 mm 0.00 in0.0 mm 0.09 in2.3 mm
10:20 AM 47.8°F8.8°C 39.6°F4.2°C 73% 16.4 mph WNW26.4 kmh WNW 21.0 mph33.8 kmh 29.88 in1011.9 mb 0.00 in0.0 mm 0.00 in0.0 mm 0.09 in2.3 mm
10:21 AM 47.8°F8.8°C 39.9°F4.4°C 74% 15.6 mph WNW25.1 kmh WNW 20.0 mph32.2 kmh 29.88 in1011.9 mb 0.00 in0.0 mm 0.00 in0.0 mm 0.09 in2.3 mm
10:22 AM 47.8°F8.8°C 39.9°F4.4°C 74% 16.5 mph WNW26.6 kmh WNW 20.0 mph32.2 kmh 29.88 in1011.9 mb 0.00 in0.0 mm 0.00 in0.0 mm 0.09 in2.3 mm
10:23 AM 47.8°F8.8°C 39.9°F4.4°C 74% 16.9 mph WNW27.2 kmh WNW 20.0 mph32.2 kmh 29.88 in1011.9 mb 0.00 in0.0 mm 0.00 in0.0 mm 0.09 in2.3 mm
10:24 AM 47.8°F8.8°C 39.6°F4.2°C 73% 17.5 mph WNW28.2 kmh WNW 20.0 mph32.2 kmh 29.88 in1011.9 mb 0.00 in0.0 mm 0.00 in0.0 mm 0.09 in2.3 mm
10:25 AM 47.9°F8.8°C 39.7°F4.3°C 73% 18.7 mph WNW30.1 kmh WNW 22.0 mph35.4 kmh 29.88 in1011.9 mb 0.00 in0.0 mm 0.00 in0.0 mm 0.09 in2.3 mm
10:26 AM 48.0°F8.9°C 40.1°F4.5°C 74% 18.1 mph WNW29.1 kmh WNW 22.0 mph35.4 kmh 29.88 in1011.9 mb 0.00 in0.0 mm 0.00 in0.0 mm 0.09 in2.3 mm
10:27 AM 48.1°F8.9°C 39.9°F4.4°C 73% 15.8 mph WNW25.4 kmh WNW 20.0 mph32.2 kmh 29.88 in1011.9 mb 0.00 in0.0 mm 0.00 in0.0 mm 0.09 in2.3 mm
10:28 AM 48.2°F9.0°C 40.0°F4.4°C 73% 14.7 mph WNW23.7 kmh WNW 21.0 mph33.8 kmh 29.88 in1011.9 mb 0.00 in0.0 mm 0.00 in0.0 mm 0.09 in2.3 mm
10:29 AM 48.3°F9.1°C 40.1°F4.5°C 73% 16.9 mph WNW27.2 kmh WNW 21.0 mph33.8 kmh 29.88 in1011.9 mb 0.00 in0.0 mm 0.00 in0.0 mm 0.09 in2.3 mm
10:30 AM 48.3°F9.1°C 40.1°F4.5°C 73% 14.1 mph W22.7 kmh W 19.0 mph30.6 kmh 29.88 in1011.9 mb 0.00 in0.0 mm 0.00 in0.0 mm 0.09 in2.3 mm
10:31 AM 48.3°F9.1°C 39.7°F4.3°C 72% 13.9 mph W22.4 kmh W 18.0 mph29.0 kmh 29.88 in1011.9 mb 0.00 in0.0 mm 0.00 in0.0 mm 0.09 in2.3 mm
10:32 AM 48.4°F9.1°C 39.8°F4.3°C 72% 16.7 mph W26.9 kmh W 21.0 mph33.8 kmh 29.88 in1011.9 mb 0.00 in0.0 mm 0.00 in0.0 mm 0.09 in2.3 mm
10:33 AM 48.5°F9.2°C 39.2°F4.0°C 70% 19.4 mph WNW31.2 kmh WNW 23.0 mph37.0 kmh 29.88 in1011.9 mb 0.00 in0.0 mm 0.00 in0.0 mm 0.09 in2.3 mm
10:34 AM 48.5°F9.2°C 39.5°F4.2°C 71% 19.2 mph WNW30.9 kmh WNW 23.0 mph37.0 kmh 29.88 in1011.9 mb 0.00 in0.0 mm 0.00 in0.0 mm 0.09 in2.3 mm
10:35 AM 48.5°F9.2°C 39.9°F4.4°C 72% 18.2 mph WNW29.3 kmh WNW 22.0 mph35.4 kmh 29.89 in1012.2 mb 0.00 in0.0 mm 0.00 in0.0 mm 0.09 in2.3 mm
10:36 AM 48.4°F9.1°C 39.8°F4.3°C 72% 20.7 mph WNW33.3 kmh WNW 23.0 mph37.0 kmh 29.89 in1012.2 mb 0.00 in0.0 mm 0.00 in0.0 mm 0.09 in2.3 mm
10:37 AM 48.3°F9.1°C 39.3°F4.1°C 71% 17.5 mph WNW28.2 kmh WNW 23.0 mph37.0 kmh 29.89 in1012.2 mb 0.00 in0.0 mm 0.00 in0.0 mm 0.09 in2.3 mm
10:38 AM 48.4°F9.1°C 39.4°F4.1°C 71% 15.8 mph WNW25.4 kmh WNW 21.0 mph33.8 kmh 29.89 in1012.2 mb 0.00 in0.0 mm 0.00 in0.0 mm 0.09 in2.3 mm
10:39 AM 48.4°F9.1°C 39.1°F3.9°C 70% 16.9 mph WNW27.2 kmh WNW 20.0 mph32.2 kmh 29.89 in1012.2 mb 0.00 in0.0 mm 0.00 in0.0 mm 0.09 in2.3 mm
10:40 AM 48.4°F9.1°C 39.4°F4.1°C 71% 19.9 mph WNW32.0 kmh WNW 23.0 mph37.0 kmh 29.89 in1012.2 mb 0.00 in0.0 mm 0.00 in0.0 mm 0.09 in2.3 mm
10:41 AM 48.4°F9.1°C 39.1°F3.9°C 70% 17.9 mph WNW28.8 kmh WNW 23.0 mph37.0 kmh 29.89 in1012.2 mb 0.00 in0.0 mm 0.00 in0.0 mm 0.09 in2.3 mm
10:42 AM 48.5°F9.2°C 39.5°F4.2°C 71% 15.3 mph W24.6 kmh W 21.0 mph33.8 kmh 29.89 in1012.2 mb 0.00 in0.0 mm 0.00 in0.0 mm 0.09 in2.3 mm
10:43 AM 48.5°F9.2°C 39.9°F4.4°C 72% 13.1 mph W21.1 kmh W 18.0 mph29.0 kmh 29.89 in1012.2 mb 0.00 in0.0 mm 0.00 in0.0 mm 0.09 in2.3 mm
10:44 AM 48.6°F9.2°C 39.6°F4.2°C 71% 17.4 mph W28.0 kmh W 21.0 mph33.8 kmh 29.89 in1012.2 mb 0.00 in0.0 mm 0.00 in0.0 mm 0.09 in2.3 mm
10:45 AM 48.7°F9.3°C 39.7°F4.3°C 71% 15.9 mph WNW25.6 kmh WNW 21.0 mph33.8 kmh 29.89 in1012.2 mb 0.00 in0.0 mm 0.00 in0.0 mm 0.09 in2.3 mm
10:46 AM 48.6°F9.2°C 39.6°F4.2°C 71% 16.2 mph WNW26.1 kmh WNW 19.0 mph30.6 kmh 29.89 in1012.2 mb 0.00 in0.0 mm 0.00 in0.0 mm 0.09 in2.3 mm
10:47 AM 48.7°F9.3°C 39.7°F4.3°C 71% 14.8 mph W23.8 kmh W 19.0 mph30.6 kmh 29.89 in1012.2 mb 0.00 in0.0 mm 0.00 in0.0 mm 0.09 in2.3 mm
10:48 AM 48.6°F9.2°C 40.0°F4.4°C 72% 16.4 mph WNW26.4 kmh WNW 22.0 mph35.4 kmh 29.89 in1012.2 mb 0.00 in0.0 mm 0.00 in0.0 mm 0.09 in2.3 mm
10:49 AM 48.6°F9.2°C 39.6°F4.2°C 71% 17.2 mph WNW27.7 kmh WNW 22.0 mph35.4 kmh 29.89 in1012.2 mb 0.00 in0.0 mm 0.00 in0.0 mm 0.09 in2.3 mm
10:50 AM 48.6°F9.2°C 40.0°F4.4°C 72% 14.7 mph WNW23.7 kmh WNW 20.0 mph32.2 kmh 29.89 in1012.2 mb 0.00 in0.0 mm 0.00 in0.0 mm 0.09 in2.3 mm
10:51 AM 48.6°F9.2°C 40.0°F4.4°C 72% 16.3 mph WNW26.2 kmh WNW 18.0 mph29.0 kmh 29.89 in1012.2 mb 0.00 in0.0 mm 0.00 in0.0 mm 0.09 in2.3 mm
10:52 AM 48.7°F9.3°C 39.7°F4.3°C 71% 15.5 mph WNW24.9 kmh WNW 18.0 mph29.0 kmh 29.89 in1012.2 mb 0.00 in0.0 mm 0.00 in0.0 mm 0.09 in2.3 mm
10:53 AM 48.7°F9.3°C 39.4°F4.1°C 70% 15.9 mph NW25.6 kmh NW 18.0 mph29.0 kmh 29.89 in1012.2 mb 0.00 in0.0 mm 0.00 in0.0 mm 0.09 in2.3 mm
10:54 AM 48.7°F9.3°C 40.1°F4.5°C 72% 16.1 mph WNW25.9 kmh WNW 18.0 mph29.0 kmh 29.89 in1012.2 mb 0.00 in0.0 mm 0.00 in0.0 mm 0.09 in2.3 mm
10:55 AM 48.8°F9.3°C 40.2°F4.6°C 72% 15.0 mph WNW24.1 kmh WNW 18.0 mph29.0 kmh 29.89 in1012.2 mb 0.00 in0.0 mm 0.00 in0.0 mm 0.09 in2.3 mm
10:56 AM 48.9°F9.4°C 40.3°F4.6°C 72% 17.8 mph W28.6 kmh W 21.0 mph33.8 kmh 29.89 in1012.2 mb 0.00 in0.0 mm 0.00 in0.0 mm 0.09 in2.3 mm
10:57 AM 49.2°F9.6°C 40.9°F4.9°C 73% 15.2 mph W24.5 kmh W 21.0 mph33.8 kmh 29.89 in1012.2 mb 0.00 in0.0 mm 0.00 in0.0 mm 0.09 in2.3 mm
10:58 AM 49.2°F9.6°C 40.6°F4.8°C 72% 15.8 mph W25.4 kmh W 19.0 mph30.6 kmh 29.89 in1012.2 mb 0.00 in0.0 mm 0.00 in0.0 mm 0.09 in2.3 mm
10:59 AM 49.3°F9.6°C 40.7°F4.8°C 72% 16.3 mph W26.2 kmh W 19.0 mph30.6 kmh 29.89 in1012.2 mb 0.00 in0.0 mm 0.00 in0.0 mm 0.09 in2.3 mm
11:00 AM 49.0°F9.4°C 39.6°F4.2°C 70% 15.9 mph W25.6 kmh W 19.0 mph30.6 kmh 29.90 in1012.5 mb 0.00 in0.0 mm 0.00 in0.0 mm 0.09 in2.3 mm
11:01 AM 49.0°F9.4°C 40.4°F4.7°C 72% 16.6 mph W26.7 kmh W 20.0 mph32.2 kmh 29.89 in1012.2 mb 0.00 in0.0 mm 0.00 in0.0 mm 0.09 in2.3 mm
11:02 AM 48.8°F9.3°C 39.8°F4.3°C 71% 15.0 mph W24.1 kmh W 20.0 mph32.2 kmh 29.89 in1012.2 mb 0.00 in0.0 mm 0.00 in0.0 mm 0.09 in2.3 mm
11:03 AM 48.8°F9.3°C 40.2°F4.6°C 72% 15.5 mph W24.9 kmh W 19.0 mph30.6 kmh 29.90 in1012.5 mb 0.00 in0.0 mm 0.00 in0.0 mm 0.09 in2.3 mm
11:04 AM 48.8°F9.3°C 40.2°F4.6°C 72% 15.6 mph W25.1 kmh W 22.0 mph35.4 kmh 29.90 in1012.5 mb 0.00 in0.0 mm 0.00 in0.0 mm 0.09 in2.3 mm
11:05 AM 48.9°F9.4°C 40.6°F4.8°C 73% 15.2 mph W24.5 kmh W 22.0 mph35.4 kmh 29.90 in1012.5 mb 0.00 in0.0 mm 0.00 in0.0 mm 0.09 in2.3 mm
11:06 AM 48.9°F9.4°C 40.6°F4.8°C 73% 12.8 mph WSW20.6 kmh WSW 20.0 mph32.2 kmh 29.90 in1012.5 mb 0.00 in0.0 mm 0.00 in0.0 mm 0.09 in2.3 mm
11:07 AM 49.0°F9.4°C 40.7°F4.8°C 73% 18.8 mph WSW30.3 kmh WSW 22.0 mph35.4 kmh 29.90 in1012.5 mb 0.00 in0.0 mm 0.00 in0.0 mm 0.09 in2.3 mm
11:08 AM 48.9°F9.4°C 40.3°F4.6°C 72% 18.5 mph WSW29.8 kmh WSW 22.0 mph35.4 kmh 29.90 in1012.5 mb 0.00 in0.0 mm 0.00 in0.0 mm 0.09 in2.3 mm
11:09 AM 48.9°F9.4°C 40.3°F4.6°C 72% 15.0 mph W24.1 kmh W 22.0 mph35.4 kmh 29.90 in1012.5 mb 0.00 in0.0 mm 0.00 in0.0 mm 0.09 in2.3 mm
11:10 AM 49.0°F9.4°C 40.7°F4.8°C 73% 12.6 mph W20.3 kmh W 17.0 mph27.4 kmh 29.90 in1012.5 mb 0.00 in0.0 mm 0.00 in0.0 mm 0.09 in2.3 mm
11:11 AM 49.1°F9.5°C 41.2°F5.1°C 74% 16.3 mph W26.2 kmh W 20.0 mph32.2 kmh 29.90 in1012.5 mb 0.00 in0.0 mm 0.00 in0.0 mm 0.09 in2.3 mm
11:12 AM 49.0°F9.4°C 40.4°F4.7°C 72% 17.6 mph WSW28.3 kmh WSW 21.0 mph33.8 kmh 29.90 in1012.5 mb 0.00 in0.0 mm 0.00 in0.0 mm 0.09 in2.3 mm
11:13 AM 48.9°F9.4°C 40.3°F4.6°C 72% 20.0 mph WSW32.2 kmh WSW 23.0 mph37.0 kmh 29.90 in1012.5 mb 0.00 in0.0 mm 0.00 in0.0 mm 0.09 in2.3 mm
11:14 AM 48.9°F9.4°C 40.6°F4.8°C 73% 20.3 mph W32.7 kmh W 24.0 mph38.6 kmh 29.90 in1012.5 mb 0.00 in0.0 mm 0.00 in0.0 mm 0.09 in2.3 mm
11:15 AM 48.8°F9.3°C 40.5°F4.7°C 73% 17.6 mph WSW28.3 kmh WSW 24.0 mph38.6 kmh 29.90 in1012.5 mb 0.00 in0.0 mm 0.00 in0.0 mm 0.09 in2.3 mm
11:16 AM 48.7°F9.3°C 40.4°F4.7°C 73% 19.9 mph WSW32.0 kmh WSW 22.0 mph35.4 kmh 29.90 in1012.5 mb 0.00 in0.0 mm 0.00 in0.0 mm 0.09 in2.3 mm
11:17 AM 48.6°F9.2°C 40.0°F4.4°C 72% 19.5 mph WSW31.4 kmh WSW 22.0 mph35.4 kmh 29.90 in1012.5 mb 0.00 in0.0 mm 0.00 in0.0 mm 0.09 in2.3 mm
11:18 AM 48.6°F9.2°C 40.0°F4.4°C 72% 17.6 mph W28.3 kmh W 22.0 mph35.4 kmh 29.90 in1012.5 mb 0.00 in0.0 mm 0.00 in0.0 mm 0.09 in2.3 mm
11:19 AM 48.6°F9.2°C 40.0°F4.4°C 72% 18.2 mph WSW29.3 kmh WSW 20.0 mph32.2 kmh 29.90 in1012.5 mb 0.00 in0.0 mm 0.00 in0.0 mm 0.09 in2.3 mm
11:20 AM 48.5°F9.2°C 39.9°F4.4°C 72% 17.1 mph WSW27.5 kmh WSW 20.0 mph32.2 kmh 29.90 in1012.5 mb 0.00 in0.0 mm 0.00 in0.0 mm 0.09 in2.3 mm
11:21 AM 48.5°F9.2°C 40.2°F4.6°C 73% 17.6 mph WSW28.3 kmh WSW 23.0 mph37.0 kmh 29.90 in1012.5 mb 0.00 in0.0 mm 0.00 in0.0 mm 0.09 in2.3 mm
11:22 AM 48.5°F9.2°C 40.2°F4.6°C 73% 20.0 mph WSW32.2 kmh WSW 23.0 mph37.0 kmh 29.90 in1012.5 mb 0.00 in0.0 mm 0.00 in0.0 mm 0.09 in2.3 mm
11:23 AM 48.5°F9.2°C 40.2°F4.6°C 73% 18.0 mph WSW29.0 kmh WSW 22.0 mph35.4 kmh 29.90 in1012.5 mb 0.00 in0.0 mm 0.00 in0.0 mm 0.09 in2.3 mm
11:24 AM 48.4°F9.1°C 40.5°F4.7°C 74% 16.5 mph WSW26.6 kmh WSW 21.0 mph33.8 kmh 29.90 in1012.5 mb 0.00 in0.0 mm 0.00 in0.0 mm 0.09 in2.3 mm
11:25 AM 48.5°F9.2°C 40.9°F4.9°C 75% 17.3 mph W27.8 kmh W 19.0 mph30.6 kmh 29.90 in1012.5 mb 0.00 in0.0 mm 0.00 in0.0 mm 0.09 in2.3 mm
11:26 AM 48.4°F9.1°C 40.2°F4.6°C 73% 17.4 mph W28.0 kmh W 19.0 mph30.6 kmh 29.90 in1012.5 mb 0.00 in0.0 mm 0.00 in0.0 mm 0.09 in2.3 mm
11:27 AM 48.4°F9.1°C 40.5°F4.7°C 74% 16.1 mph W25.9 kmh W 23.0 mph37.0 kmh 29.91 in1012.9 mb 0.00 in0.0 mm 0.00 in0.0 mm 0.09 in2.3 mm
11:28 AM 48.4°F9.1°C 40.8°F4.9°C 75% 17.5 mph W28.2 kmh W 23.0 mph37.0 kmh 29.90 in1012.5 mb 0.00 in0.0 mm 0.00 in0.0 mm 0.09 in2.3 mm
11:29 AM 48.4°F9.1°C 40.5°F4.7°C 74% 18.4 mph W29.6 kmh W 21.0 mph33.8 kmh 29.91 in1012.9 mb 0.00 in0.0 mm 0.00 in0.0 mm 0.09 in2.3 mm
11:30 AM 48.2°F9.0°C 40.3°F4.6°C 74% 18.3 mph W29.5 kmh W 24.0 mph38.6 kmh 29.91 in1012.9 mb 0.00 in0.0 mm 0.00 in0.0 mm 0.09 in2.3 mm
11:31 AM 48.1°F8.9°C 39.9°F4.4°C 73% 18.5 mph W29.8 kmh W 24.0 mph38.6 kmh 29.91 in1012.9 mb 0.00 in0.0 mm 0.00 in0.0 mm 0.09 in2.3 mm
11:32 AM 48.1°F8.9°C 39.9°F4.4°C 73% 17.3 mph W27.8 kmh W 23.0 mph37.0 kmh 29.91 in1012.9 mb 0.00 in0.0 mm 0.00 in0.0 mm 0.09 in2.3 mm
11:33 AM 48.1°F8.9°C 40.2°F4.6°C 74% 18.1 mph W29.1 kmh W 21.0 mph33.8 kmh 29.91 in1012.9 mb 0.00 in0.0 mm 0.00 in0.0 mm 0.09 in2.3 mm
11:34 AM 48.1°F8.9°C 40.2°F4.6°C 74% 16.7 mph W26.9 kmh W 24.0 mph38.6 kmh 29.91 in1012.9 mb 0.00 in0.0 mm 0.00 in0.0 mm 0.09 in2.3 mm
11:35 AM 48.3°F9.1°C 40.1°F4.5°C 73% 14.8 mph W23.8 kmh W 24.0 mph38.6 kmh 29.91 in1012.9 mb 0.00 in0.0 mm 0.00 in0.0 mm 0.09 in2.3 mm
11:36 AM 48.2°F9.0°C 40.3°F4.6°C 74% 17.8 mph W28.6 kmh W 21.0 mph33.8 kmh 29.91 in1012.9 mb 0.00 in0.0 mm 0.00 in0.0 mm 0.09 in2.3 mm
11:37 AM 48.3°F9.1°C 40.4°F4.7°C 74% 18.1 mph WSW29.1 kmh WSW 21.0 mph33.8 kmh 29.91 in1012.9 mb 0.00 in0.0 mm 0.00 in0.0 mm 0.09 in2.3 mm
11:38 AM 48.4°F9.1°C 40.5°F4.7°C 74% 17.7 mph WSW28.5 kmh WSW 21.0 mph33.8 kmh 29.91 in1012.9 mb 0.00 in0.0 mm 0.00 in0.0 mm 0.09 in2.3 mm
11:39 AM 48.4°F9.1°C 40.5°F4.7°C 74% 16.5 mph WSW26.6 kmh WSW 20.0 mph32.2 kmh 29.91 in1012.9 mb 0.00 in0.0 mm 0.00 in0.0 mm 0.09 in2.3 mm
11:40 AM 48.5°F9.2°C 40.2°F4.6°C 73% 17.5 mph W28.2 kmh W 20.0 mph32.2 kmh 29.91 in1012.9 mb 0.00 in0.0 mm 0.00 in0.0 mm 0.09 in2.3 mm
11:41 AM 48.4°F9.1°C 40.5°F4.7°C 74% 15.2 mph WSW24.5 kmh WSW 20.0 mph32.2 kmh 29.91 in1012.9 mb 0.00 in0.0 mm 0.00 in0.0 mm 0.09 in2.3 mm
11:42 AM 48.4°F9.1°C 40.5°F4.7°C 74% 15.4 mph WSW24.8 kmh WSW 19.0 mph30.6 kmh 29.91 in1012.9 mb 0.00 in0.0 mm 0.00 in0.0 mm 0.09 in2.3 mm
11:43 AM 48.5°F9.2°C 40.6°F4.8°C 74% 16.2 mph WSW26.1 kmh WSW 19.0 mph30.6 kmh 29.90 in1012.5 mb 0.00 in0.0 mm 0.00 in0.0 mm 0.09 in2.3 mm
11:44 AM 48.7°F9.3°C 41.1°F5.1°C 75% 15.9 mph W25.6 kmh W 19.0 mph30.6 kmh 29.91 in1012.9 mb 0.00 in0.0 mm 0.00 in0.0 mm 0.09 in2.3 mm
11:45 AM 48.7°F9.3°C 40.8°F4.9°C 74% 16.9 mph W27.2 kmh W 19.0 mph30.6 kmh 29.91 in1012.9 mb 0.00 in0.0 mm 0.00 in0.0 mm 0.09 in2.3 mm
11:46 AM 48.7°F9.3°C 40.8°F4.9°C 74% 12.9 mph W20.8 kmh W 19.0 mph30.6 kmh 29.91 in1012.9 mb 0.00 in0.0 mm 0.00 in0.0 mm 0.09 in2.3 mm
11:47 AM 48.7°F9.3°C 40.8°F4.9°C 74% 15.9 mph WSW25.6 kmh WSW 20.0 mph32.2 kmh 29.91 in1012.9 mb 0.00 in0.0 mm 0.00 in0.0 mm 0.09 in2.3 mm
11:48 AM 48.8°F9.3°C 40.9°F4.9°C 74% 15.6 mph W25.1 kmh W 20.0 mph32.2 kmh 29.91 in1012.9 mb 0.00 in0.0 mm 0.00 in0.0 mm 0.09 in2.3 mm
11:49 AM 48.8°F9.3°C 41.2°F5.1°C 75% 16.1 mph WSW25.9 kmh WSW 20.0 mph32.2 kmh 29.91 in1012.9 mb 0.00 in0.0 mm 0.00 in0.0 mm 0.09 in2.3 mm
11:50 AM 48.7°F9.3°C 40.8°F4.9°C 74% 15.6 mph WSW25.1 kmh WSW 20.0 mph32.2 kmh 29.91 in1012.9 mb 0.00 in0.0 mm 0.00 in0.0 mm 0.09 in2.3 mm
11:51 AM 48.5°F9.2°C 40.6°F4.8°C 74% 17.9 mph W28.8 kmh W 20.0 mph32.2 kmh 29.91 in1012.9 mb 0.00 in0.0 mm 0.00 in0.0 mm 0.09 in2.3 mm
11:52 AM 48.4°F9.1°C 40.2°F4.6°C 73% 17.9 mph W28.8 kmh W 21.0 mph33.8 kmh 29.91 in1012.9 mb 0.00 in0.0 mm 0.00 in0.0 mm 0.09 in2.3 mm
11:53 AM 48.3°F9.1°C 40.1°F4.5°C 73% 15.5 mph W24.9 kmh W 21.0 mph33.8 kmh 29.91 in1012.9 mb 0.00 in0.0 mm 0.00 in0.0 mm 0.09 in2.3 mm
11:54 AM 48.4°F9.1°C 39.8°F4.3°C 72% 19.2 mph W30.9 kmh W 24.0 mph38.6 kmh 29.91 in1012.9 mb 0.00 in0.0 mm 0.00 in0.0 mm 0.09 in2.3 mm
11:55 AM 48.5°F9.2°C 39.5°F4.2°C 71% 16.2 mph W26.1 kmh W 24.0 mph38.6 kmh 29.91 in1012.9 mb 0.00 in0.0 mm 0.00 in0.0 mm 0.09 in2.3 mm
11:56 AM 48.5°F9.2°C 39.9°F4.4°C 72% 15.6 mph W25.1 kmh W 19.0 mph30.6 kmh 29.91 in1012.9 mb 0.00 in0.0 mm 0.00 in0.0 mm 0.09 in2.3 mm
11:57 AM 48.6°F9.2°C 40.0°F4.4°C 72% 18.3 mph W29.5 kmh W 21.0 mph33.8 kmh 29.91 in1012.9 mb 0.00 in0.0 mm 0.00 in0.0 mm 0.09 in2.3 mm
11:58 AM 48.6°F9.2°C 40.0°F4.4°C 72% 17.7 mph W28.5 kmh W 21.0 mph33.8 kmh 29.91 in1012.9 mb 0.00 in0.0 mm 0.00 in0.0 mm 0.09 in2.3 mm
11:59 AM 48.6°F9.2°C 40.0°F4.4°C 72% 16.2 mph WSW26.1 kmh WSW 21.0 mph33.8 kmh 29.91 in1012.9 mb 0.00 in0.0 mm 0.00 in0.0 mm 0.09 in2.3 mm
12:00 PM 48.7°F9.3°C 40.1°F4.5°C 72% 15.2 mph W24.5 kmh W 19.0 mph30.6 kmh 29.91 in1012.9 mb 0.00 in0.0 mm 0.00 in0.0 mm 0.09 in2.3 mm
12:01 PM 48.8°F9.3°C 40.2°F4.6°C 72% 18.0 mph W29.0 kmh W 20.0 mph32.2 kmh 29.91 in1012.9 mb 0.00 in0.0 mm 0.00 in0.0 mm 0.09 in2.3 mm
12:02 PM 48.8°F9.3°C 40.5°F4.7°C 73% 17.0 mph W27.4 kmh W 20.0 mph32.2 kmh 29.91 in1012.9 mb 0.00 in0.0 mm 0.00 in0.0 mm 0.09 in2.3 mm
12:03 PM 48.9°F9.4°C 40.6°F4.8°C 73% 12.8 mph W20.6 kmh W 20.0 mph32.2 kmh 29.91 in1012.9 mb 0.00 in0.0 mm 0.00 in0.0 mm 0.09 in2.3 mm
12:04 PM 48.9°F9.4°C 40.6°F4.8°C 73% 13.1 mph W21.1 kmh W 17.0 mph27.4 kmh 29.91 in1012.9 mb 0.00 in0.0 mm 0.00 in0.0 mm 0.09 in2.3 mm
12:05 PM 49.0°F9.4°C 41.1°F5.1°C 74% 13.0 mph W20.9 kmh W 19.0 mph30.6 kmh 29.92 in1013.2 mb 0.00 in0.0 mm 0.00 in0.0 mm 0.09 in2.3 mm
12:06 PM 49.0°F9.4°C 40.4°F4.7°C 72% 14.7 mph W23.7 kmh W 19.0 mph30.6 kmh 29.92 in1013.2 mb 0.00 in0.0 mm 0.00 in0.0 mm 0.09 in2.3 mm
12:07 PM 49.0°F9.4°C 40.4°F4.7°C 72% 14.6 mph WSW23.5 kmh WSW 18.0 mph29.0 kmh 29.92 in1013.2 mb 0.00 in0.0 mm 0.00 in0.0 mm 0.09 in2.3 mm
12:08 PM 49.0°F9.4°C 40.4°F4.7°C 72% 16.4 mph WSW26.4 kmh WSW 18.0 mph29.0 kmh 29.92 in1013.2 mb 0.00 in0.0 mm 0.00 in0.0 mm 0.09 in2.3 mm
12:09 PM 49.0°F9.4°C 40.4°F4.7°C 72% 15.6 mph WSW25.1 kmh WSW 19.0 mph30.6 kmh 29.92 in1013.2 mb 0.00 in0.0 mm 0.00 in0.0 mm 0.09 in2.3 mm
12:10 PM 48.9°F9.4°C 39.9°F4.4°C 71% 15.5 mph WSW24.9 kmh WSW 19.0 mph30.6 kmh 29.92 in1013.2 mb 0.00 in0.0 mm 0.00 in0.0 mm 0.09 in2.3 mm
12:11 PM 49.0°F9.4°C 40.7°F4.8°C 73% 14.5 mph WSW23.3 kmh WSW 18.0 mph29.0 kmh 29.92 in1013.2 mb 0.00 in0.0 mm 0.00 in0.0 mm 0.09 in2.3 mm
12:12 PM 49.1°F9.5°C 40.8°F4.9°C 73% 14.8 mph W23.8 kmh W 17.0 mph27.4 kmh 29.92 in1013.2 mb 0.00 in0.0 mm 0.00 in0.0 mm 0.09 in2.3 mm
12:13 PM 49.1°F9.5°C 41.2°F5.1°C 74% 15.0 mph WSW24.1 kmh WSW 18.0 mph29.0 kmh 29.92 in1013.2 mb 0.00 in0.0 mm 0.00 in0.0 mm 0.09 in2.3 mm
12:14 PM 49.1°F9.5°C 40.8°F4.9°C 73% 16.9 mph W27.2 kmh W 20.0 mph32.2 kmh 29.92 in1013.2 mb 0.00 in0.0 mm 0.00 in0.0 mm 0.09 in2.3 mm
12:15 PM 49.1°F9.5°C 40.8°F4.9°C 73% 16.7 mph WSW26.9 kmh WSW 20.0 mph32.2 kmh 29.92 in1013.2 mb 0.00 in0.0 mm 0.00 in0.0 mm 0.09 in2.3 mm
12:16 PM 49.1°F9.5°C 40.5°F4.7°C 72% 14.5 mph WSW23.3 kmh WSW 19.0 mph30.6 kmh 29.92 in1013.2 mb 0.00 in0.0 mm 0.00 in0.0 mm 0.09 in2.3 mm
12:17 PM 49.3°F9.6°C 40.7°F4.8°C 72% 14.7 mph WSW23.7 kmh WSW 18.0 mph29.0 kmh 29.92 in1013.2 mb 0.00 in0.0 mm 0.00 in0.0 mm 0.09 in2.3 mm
12:18 PM 49.3°F9.6°C 40.7°F4.8°C 72% 15.3 mph W24.6 kmh W 18.0 mph29.0 kmh 29.92 in1013.2 mb 0.00 in0.0 mm 0.00 in0.0 mm 0.09 in2.3 mm
12:19 PM 49.3°F9.6°C 40.7°F4.8°C 72% 15.2 mph WSW24.5 kmh WSW 19.0 mph30.6 kmh 29.92 in1013.2 mb 0.00 in0.0 mm 0.00 in0.0 mm 0.09 in2.3 mm
12:20 PM 49.4°F9.7°C 40.4°F4.7°C 71% 16.6 mph WSW26.7 kmh WSW 20.0 mph32.2 kmh 29.92 in1013.2 mb 0.00 in0.0 mm 0.00 in0.0 mm 0.09 in2.3 mm
12:21 PM 49.3°F9.6°C 39.2°F4.0°C 68% 15.0 mph WSW24.1 kmh WSW 20.0 mph32.2 kmh 29.92 in1013.2 mb 0.00 in0.0 mm 0.00 in0.0 mm 0.09 in2.3 mm
12:22 PM 49.3°F9.6°C 39.9°F4.4°C 70% 16.4 mph W26.4 kmh W 19.0 mph30.6 kmh 29.92 in1013.2 mb 0.00 in0.0 mm 0.00 in0.0 mm 0.09 in2.3 mm
12:23 PM 49.3°F9.6°C 39.9°F4.4°C 70% 19.1 mph WSW30.7 kmh WSW 23.0 mph37.0 kmh 29.92 in1013.2 mb 0.00 in0.0 mm 0.00 in0.0 mm 0.09 in2.3 mm
12:24 PM 49.2°F9.6°C 40.2°F4.6°C 71% 17.7 mph W28.5 kmh W 23.0 mph37.0 kmh 29.92 in1013.2 mb 0.00 in0.0 mm 0.00 in0.0 mm 0.09 in2.3 mm
12:25 PM 49.2°F9.6°C 39.5°F4.2°C 69% 15.6 mph WSW25.1 kmh WSW 20.0 mph32.2 kmh 29.92 in1013.2 mb 0.00 in0.0 mm 0.00 in0.0 mm 0.09 in2.3 mm
12:26 PM 49.3°F9.6°C 39.6°F4.2°C 69% 17.4 mph WSW28.0 kmh WSW 19.0 mph30.6 kmh 29.92 in1013.2 mb 0.00 in0.0 mm 0.00 in0.0 mm 0.09 in2.3 mm
12:27 PM 49.3°F9.6°C 39.2°F4.0°C 68% 17.2 mph WSW27.7 kmh WSW 21.0 mph33.8 kmh 29.92 in1013.2 mb 0.00 in0.0 mm 0.00 in0.0 mm 0.09 in2.3 mm
12:28 PM 49.4°F9.7°C 39.7°F4.3°C 69% 18.3 mph WSW29.5 kmh WSW 21.0 mph33.8 kmh 29.92 in1013.2 mb 0.00 in0.0 mm 0.00 in0.0 mm 0.09 in2.3 mm
12:29 PM 49.3°F9.6°C 39.9°F4.4°C 70% 15.1 mph W24.3 kmh W 20.0 mph32.2 kmh 29.92 in1013.2 mb 0.00 in0.0 mm 0.00 in0.0 mm 0.09 in2.3 mm
12:30 PM 49.4°F9.7°C 40.0°F4.4°C 70% 14.2 mph WSW22.9 kmh WSW 17.0 mph27.4 kmh 29.92 in1013.2 mb 0.00 in0.0 mm 0.00 in0.0 mm 0.09 in2.3 mm
12:31 PM 49.6°F9.8°C 40.2°F4.6°C 70% 16.3 mph W26.2 kmh W 19.0 mph30.6 kmh 29.92 in1013.2 mb 0.00 in0.0 mm 0.00 in0.0 mm 0.09 in2.3 mm
12:32 PM 49.6°F9.8°C 40.2°F4.6°C 70% 14.6 mph W23.5 kmh W 19.0 mph30.6 kmh 29.92 in1013.2 mb 0.00 in0.0 mm 0.00 in0.0 mm 0.09 in2.3 mm
12:33 PM 49.7°F9.8°C 40.3°F4.6°C 70% 15.3 mph W24.6 kmh W 19.0 mph30.6 kmh 29.92 in1013.2 mb 0.00 in0.0 mm 0.00 in0.0 mm 0.09 in2.3 mm
12:34 PM 49.8°F9.9°C 40.8°F4.9°C 71% 14.5 mph W23.3 kmh W 19.0 mph30.6 kmh 29.92 in1013.2 mb 0.00 in0.0 mm 0.00 in0.0 mm 0.09 in2.3 mm
12:35 PM 49.8°F9.9°C 39.3°F4.1°C 67% 18.3 mph WSW29.5 kmh WSW 22.0 mph35.4 kmh 29.92 in1013.2 mb 0.00 in0.0 mm 0.00 in0.0 mm 0.09 in2.3 mm
12:36 PM 49.9°F9.9°C 39.8°F4.3°C 68% 17.6 mph WSW28.3 kmh WSW 22.0 mph35.4 kmh 29.92 in1013.2 mb 0.00 in0.0 mm 0.00 in0.0 mm 0.09 in2.3 mm
12:37 PM 49.9°F9.9°C 40.1°F4.5°C 69% 15.5 mph W24.9 kmh W 21.0 mph33.8 kmh 29.92 in1013.2 mb 0.00 in0.0 mm 0.00 in0.0 mm 0.09 in2.3 mm
12:38 PM 49.9°F9.9°C 39.8°F4.3°C 68% 17.7 mph W28.5 kmh W 20.0 mph32.2 kmh 29.92 in1013.2 mb 0.00 in0.0 mm 0.00 in0.0 mm 0.09 in2.3 mm
12:39 PM 49.9°F9.9°C 39.0°F3.9°C 66% 16.5 mph W26.6 kmh W 20.0 mph32.2 kmh 29.92 in1013.2 mb 0.00 in0.0 mm 0.00 in0.0 mm 0.09 in2.3 mm
12:40 PM 49.9°F9.9°C 39.8°F4.3°C 68% 16.8 mph W27.0 kmh W 19.0 mph30.6 kmh 29.92 in1013.2 mb 0.00 in0.0 mm 0.00 in0.0 mm 0.09 in2.3 mm
12:41 PM 49.9°F9.9°C 39.8°F4.3°C 68% 16.6 mph W26.7 kmh W 19.0 mph30.6 kmh 29.92 in1013.2 mb 0.00 in0.0 mm 0.00 in0.0 mm 0.09 in2.3 mm
12:42 PM 49.8°F9.9°C 39.7°F4.3°C 68% 16.4 mph W26.4 kmh W 19.0 mph30.6 kmh 29.92 in1013.2 mb 0.00 in0.0 mm 0.00 in0.0 mm 0.09 in2.3 mm
12:43 PM 49.8°F9.9°C 40.0°F4.4°C 69% 14.9 mph W24.0 kmh W 19.0 mph30.6 kmh 29.92 in1013.2 mb 0.00 in0.0 mm 0.00 in0.0 mm 0.09 in2.3 mm
12:44 PM 49.9°F9.9°C 40.1°F4.5°C 69% 14.2 mph W22.9 kmh W 18.0 mph29.0 kmh 29.92 in1013.2 mb 0.00 in0.0 mm 0.00 in0.0 mm 0.09 in2.3 mm
12:45 PM 49.9°F9.9°C 40.5°F4.7°C 70% 14.8 mph WSW23.8 kmh WSW 18.0 mph29.0 kmh 29.92 in1013.2 mb 0.00 in0.0 mm 0.00 in0.0 mm 0.09 in2.3 mm
12:46 PM 49.9°F9.9°C 39.8°F4.3°C 68% 18.0 mph WSW29.0 kmh WSW 21.0 mph33.8 kmh 29.93 in1013.5 mb 0.00 in0.0 mm 0.00 in0.0 mm 0.09 in2.3 mm
12:47 PM 49.9°F9.9°C 40.1°F4.5°C 69% 16.9 mph WSW27.2 kmh WSW 21.0 mph33.8 kmh 29.92 in1013.2 mb 0.00 in0.0 mm 0.00 in0.0 mm 0.09 in2.3 mm
12:48 PM 49.9°F9.9°C 40.1°F4.5°C 69% 15.7 mph WSW25.3 kmh WSW 19.0 mph30.6 kmh 29.92 in1013.2 mb 0.00 in0.0 mm 0.00 in0.0 mm 0.09 in2.3 mm
12:49 PM 49.8°F9.9°C 40.4°F4.7°C 70% 15.7 mph WSW25.3 kmh WSW 19.0 mph30.6 kmh 29.92 in1013.2 mb 0.00 in0.0 mm 0.00 in0.0 mm 0.09 in2.3 mm
12:50 PM 49.9°F9.9°C 40.1°F4.5°C 69% 17.4 mph WSW28.0 kmh WSW 20.0 mph32.2 kmh 29.93 in1013.5 mb 0.00 in0.0 mm 0.00 in0.0 mm 0.09 in2.3 mm
12:51 PM 49.9°F9.9°C 40.1°F4.5°C 69% 17.8 mph WSW28.6 kmh WSW 20.0 mph32.2 kmh 29.92 in1013.2 mb 0.00 in0.0 mm 0.00 in0.0 mm 0.09 in2.3 mm
12:52 PM 49.9°F9.9°C 39.8°F4.3°C 68% 17.3 mph WSW27.8 kmh WSW 20.0 mph32.2 kmh 29.93 in1013.5 mb 0.00 in0.0 mm 0.00 in0.0 mm 0.09 in2.3 mm
12:53 PM 49.9°F9.9°C 40.1°F4.5°C 69% 16.0 mph WSW25.7 kmh WSW 20.0 mph32.2 kmh 29.93 in1013.5 mb 0.00 in0.0 mm 0.00 in0.0 mm 0.09 in2.3 mm
12:54 PM 50.0°F10.0°C 40.2°F4.6°C 69% 16.5 mph WSW26.6 kmh WSW 20.0 mph32.2 kmh 29.93 in1013.5 mb 0.00 in0.0 mm 0.00 in0.0 mm 0.09 in2.3 mm
12:55 PM 49.9°F9.9°C 39.8°F4.3°C 68% 13.4 mph WSW21.6 kmh WSW 20.0 mph32.2 kmh 29.93 in1013.5 mb 0.00 in0.0 mm 0.00 in0.0 mm 0.09 in2.3 mm
12:56 PM 50.0°F10.0°C 40.2°F4.6°C 69% 14.6 mph WSW23.5 kmh WSW 18.0 mph29.0 kmh 29.93 in1013.5 mb 0.00 in0.0 mm 0.00 in0.0 mm 0.09 in2.3 mm
12:57 PM 50.1°F10.1°C 40.3°F4.6°C 69% 13.9 mph WSW22.4 kmh WSW 18.0 mph29.0 kmh 29.93 in1013.5 mb 0.00 in0.0 mm 0.00 in0.0 mm 0.09 in2.3 mm
12:58 PM 50.1°F10.1°C 41.1°F5.1°C 71% 12.6 mph W20.3 kmh W 18.0 mph29.0 kmh 29.93 in1013.5 mb 0.00 in0.0 mm 0.00 in0.0 mm 0.09 in2.3 mm
12:59 PM 50.2°F10.1°C 40.8°F4.9°C 70% 17.6 mph W28.3 kmh W 23.0 mph37.0 kmh 29.93 in1013.5 mb 0.00 in0.0 mm 0.00 in0.0 mm 0.09 in2.3 mm
01:00 PM 50.3°F10.2°C 40.5°F4.7°C 69% 15.0 mph W24.1 kmh W 23.0 mph37.0 kmh 29.93 in1013.5 mb 0.00 in0.0 mm 0.00 in0.0 mm 0.09 in2.3 mm
01:01 PM 50.3°F10.2°C 40.5°F4.7°C 69% 13.0 mph W20.9 kmh W 20.0 mph32.2 kmh 29.93 in1013.5 mb 0.00 in0.0 mm 0.00 in0.0 mm 0.09 in2.3 mm
01:02 PM 50.4°F10.2°C 41.0°F5.0°C 70% 14.9 mph WSW24.0 kmh WSW 17.0 mph27.4 kmh 29.93 in1013.5 mb 0.00 in0.0 mm 0.00 in0.0 mm 0.09 in2.3 mm
01:03 PM 50.4°F10.2°C 40.2°F4.6°C 68% 14.6 mph WSW23.5 kmh WSW 19.0 mph30.6 kmh 29.93 in1013.5 mb 0.00 in0.0 mm 0.00 in0.0 mm 0.09 in2.3 mm
01:04 PM 50.5°F10.3°C 40.3°F4.6°C 68% 17.1 mph WSW27.5 kmh WSW 20.0 mph32.2 kmh 29.93 in1013.5 mb 0.00 in0.0 mm 0.00 in0.0 mm 0.09 in2.3 mm
01:05 PM 50.6°F10.3°C 40.1°F4.5°C 67% 18.3 mph WSW29.5 kmh WSW 21.0 mph33.8 kmh 29.93 in1013.5 mb 0.00 in0.0 mm 0.00 in0.0 mm 0.09 in2.3 mm
01:06 PM 50.6°F10.3°C 40.4°F4.7°C 68% 14.6 mph WSW23.5 kmh WSW 21.0 mph33.8 kmh 29.93 in1013.5 mb 0.00 in0.0 mm 0.00 in0.0 mm 0.09 in2.3 mm
01:07 PM 50.7°F10.4°C 40.9°F4.9°C 69% 19.4 mph WSW31.2 kmh WSW 22.0 mph35.4 kmh 29.93 in1013.5 mb 0.00 in0.0 mm 0.00 in0.0 mm 0.09 in2.3 mm
01:08 PM 50.6°F10.3°C 40.4°F4.7°C 68% 18.2 mph WSW29.3 kmh WSW 22.0 mph35.4 kmh 29.93 in1013.5 mb 0.00 in0.0 mm 0.00 in0.0 mm 0.09 in2.3 mm
01:09 PM 50.5°F10.3°C 40.7°F4.8°C 69% 14.2 mph WSW22.9 kmh WSW 21.0 mph33.8 kmh 29.93 in1013.5 mb 0.00 in0.0 mm 0.00 in0.0 mm 0.09 in2.3 mm
01:10 PM 50.5°F10.3°C 41.1°F5.1°C 70% 17.4 mph WSW28.0 kmh WSW 21.0 mph33.8 kmh 29.93 in1013.5 mb 0.00 in0.0 mm 0.00 in0.0 mm 0.09 in2.3 mm
01:11 PM 50.4°F10.2°C 40.2°F4.6°C 68% 18.5 mph WSW29.8 kmh WSW 22.0 mph35.4 kmh 29.93 in1013.5 mb 0.00 in0.0 mm 0.00 in0.0 mm 0.09 in2.3 mm
01:12 PM 50.4°F10.2°C 40.2°F4.6°C 68% 14.3 mph WSW23.0 kmh WSW 22.0 mph35.4 kmh 29.93 in1013.5 mb 0.00 in0.0 mm 0.00 in0.0 mm 0.09 in2.3 mm
01:13 PM 50.4°F10.2°C 40.6°F4.8°C 69% 17.5 mph WSW28.2 kmh WSW 21.0 mph33.8 kmh 29.93 in1013.5 mb 0.00 in0.0 mm 0.00 in0.0 mm 0.09 in2.3 mm
01:14 PM 50.5°F10.3°C 40.3°F4.6°C 68% 17.6 mph W28.3 kmh W 21.0 mph33.8 kmh 29.93 in1013.5 mb 0.00 in0.0 mm 0.00 in0.0 mm 0.09 in2.3 mm
01:15 PM 50.6°F10.3°C 40.4°F4.7°C 68% 17.3 mph WSW27.8 kmh WSW 20.0 mph32.2 kmh 29.93 in1013.5 mb 0.00 in0.0 mm 0.00 in0.0 mm 0.09 in2.3 mm
01:16 PM 50.7°F10.4°C 41.3°F5.2°C 70% 15.6 mph WSW25.1 kmh WSW 20.0 mph32.2 kmh 29.93 in1013.5 mb 0.00 in0.0 mm 0.00 in0.0 mm 0.09 in2.3 mm
01:17 PM 50.8°F10.4°C 41.0°F5.0°C 69% 15.1 mph WSW24.3 kmh WSW 18.0 mph29.0 kmh 29.93 in1013.5 mb 0.00 in0.0 mm 0.00 in0.0 mm 0.09 in2.3 mm
01:18 PM 50.9°F10.5°C 41.1°F5.1°C 69% 14.9 mph WSW24.0 kmh WSW 17.0 mph27.4 kmh 29.93 in1013.5 mb 0.00 in0.0 mm 0.00 in0.0 mm 0.09 in2.3 mm
01:19 PM 50.9°F10.5°C 41.1°F5.1°C 69% 17.1 mph WSW27.5 kmh WSW 20.0 mph32.2 kmh 29.93 in1013.5 mb 0.00 in0.0 mm 0.00 in0.0 mm 0.09 in2.3 mm
01:20 PM 50.8°F10.4°C 41.0°F5.0°C 69% 15.3 mph WSW24.6 kmh WSW 20.0 mph32.2 kmh 29.93 in1013.5 mb 0.00 in0.0 mm 0.00 in0.0 mm 0.09 in2.3 mm
01:21 PM 50.7°F10.4°C 41.6°F5.3°C 71% 16.0 mph WSW25.7 kmh WSW 19.0 mph30.6 kmh 29.93 in1013.5 mb 0.00 in0.0 mm 0.00 in0.0 mm 0.09 in2.3 mm
01:22 PM 50.6°F10.3°C 40.8°F4.9°C 69% 18.5 mph WSW29.8 kmh WSW 21.0 mph33.8 kmh 29.94 in1013.9 mb 0.00 in0.0 mm 0.00 in0.0 mm 0.09 in2.3 mm
01:23 PM 50.5°F10.3°C 40.7°F4.8°C 69% 19.3 mph WSW31.1 kmh WSW 22.0 mph35.4 kmh 29.94 in1013.9 mb 0.00 in0.0 mm 0.00 in0.0 mm 0.09 in2.3 mm
01:24 PM 50.6°F10.3°C 41.2°F5.1°C 70% 16.5 mph WSW26.6 kmh WSW 22.0 mph35.4 kmh 29.93 in1013.5 mb 0.00 in0.0 mm 0.00 in0.0 mm 0.09 in2.3 mm
01:25 PM 50.7°F10.4°C 41.3°F5.2°C 70% 16.3 mph WSW26.2 kmh WSW 21.0 mph33.8 kmh 29.94 in1013.9 mb 0.00 in0.0 mm 0.00 in0.0 mm 0.09 in2.3 mm
01:26 PM 50.6°F10.3°C 41.5°F5.3°C 71% 19.5 mph WSW31.4 kmh WSW 23.0 mph37.0 kmh 29.94 in1013.9 mb 0.00 in0.0 mm 0.00 in0.0 mm 0.09 in2.3 mm
01:27 PM 50.6°F10.3°C 41.5°F5.3°C 71% 17.6 mph WSW28.3 kmh WSW 23.0 mph37.0 kmh 29.94 in1013.9 mb 0.00 in0.0 mm 0.00 in0.0 mm 0.09 in2.3 mm
01:28 PM 50.5°F10.3°C 41.1°F5.1°C 70% 17.8 mph W28.6 kmh W 21.0 mph33.8 kmh 29.94 in1013.9 mb 0.00 in0.0 mm 0.00 in0.0 mm 0.09 in2.3 mm
01:29 PM 50.4°F10.2°C 41.0°F5.0°C 70% 17.9 mph WSW28.8 kmh WSW 22.0 mph35.4 kmh 29.94 in1013.9 mb 0.00 in0.0 mm 0.00 in0.0 mm 0.09 in2.3 mm
01:30 PM 50.4°F10.2°C 41.0°F5.0°C 70% 16.5 mph WSW26.6 kmh WSW 22.0 mph35.4 kmh 29.94 in1013.9 mb 0.00 in0.0 mm 0.00 in0.0 mm 0.09 in2.3 mm
01:31 PM 50.4°F10.2°C 41.4°F5.2°C 71% 17.5 mph WSW28.2 kmh WSW 20.0 mph32.2 kmh 29.94 in1013.9 mb 0.00 in0.0 mm 0.00 in0.0 mm 0.09 in2.3 mm
01:32 PM 50.5°F10.3°C 41.1°F5.1°C 70% 19.5 mph WSW31.4 kmh WSW 22.0 mph35.4 kmh 29.94 in1013.9 mb 0.00 in0.0 mm 0.00 in0.0 mm 0.09 in2.3 mm
01:33 PM 50.6°F10.3°C 41.5°F5.3°C 71% 18.4 mph WSW29.6 kmh WSW 22.0 mph35.4 kmh 29.94 in1013.9 mb 0.00 in0.0 mm 0.00 in0.0 mm 0.09 in2.3 mm
01:34 PM 50.6°F10.3°C 40.8°F4.9°C 69% 18.4 mph WSW29.6 kmh WSW 21.0 mph33.8 kmh 29.94 in1013.9 mb 0.00 in0.0 mm 0.00 in0.0 mm 0.09 in2.3 mm
01:35 PM 50.7°F10.4°C 40.9°F4.9°C 69% 19.2 mph WSW30.9 kmh WSW 22.0 mph35.4 kmh 29.94 in1013.9 mb 0.00 in0.0 mm 0.00 in0.0 mm 0.09 in2.3 mm
01:36 PM 50.7°F10.4°C 40.9°F4.9°C 69% 17.8 mph WSW28.6 kmh WSW 22.0 mph35.4 kmh 29.94 in1013.9 mb 0.00 in0.0 mm 0.00 in0.0 mm 0.09 in2.3 mm
01:37 PM 50.8°F10.4°C 41.0°F5.0°C 69% 20.0 mph WSW32.2 kmh WSW 23.0 mph37.0 kmh 29.94 in1013.9 mb 0.00 in0.0 mm 0.00 in0.0 mm 0.09 in2.3 mm
01:38 PM 50.8°F10.4°C 40.2°F4.6°C 67% 20.2 mph WSW32.5 kmh WSW 23.0 mph37.0 kmh 29.94 in1013.9 mb 0.00 in0.0 mm 0.00 in0.0 mm 0.09 in2.3 mm
01:39 PM 50.9°F10.5°C 41.1°F5.1°C 69% 17.4 mph WSW28.0 kmh WSW 22.0 mph35.4 kmh 29.94 in1013.9 mb 0.00 in0.0 mm 0.00 in0.0 mm 0.09 in2.3 mm
01:40 PM 50.9°F10.5°C 41.1°F5.1°C 69% 16.6 mph WSW26.7 kmh WSW 20.0 mph32.2 kmh 29.94 in1013.9 mb 0.00 in0.0 mm 0.00 in0.0 mm 0.09 in2.3 mm
01:41 PM 50.9°F10.5°C 41.1°F5.1°C 69% 15.3 mph WSW24.6 kmh WSW 19.0 mph30.6 kmh 29.94 in1013.9 mb 0.00 in0.0 mm 0.00 in0.0 mm 0.09 in2.3 mm
01:42 PM 51.0°F10.6°C 41.6°F5.3°C 70% 18.2 mph WSW29.3 kmh WSW 21.0 mph33.8 kmh 29.94 in1013.9 mb 0.00 in0.0 mm 0.00 in0.0 mm 0.09 in2.3 mm
01:43 PM 50.9°F10.5°C 41.1°F5.1°C 69% 17.9 mph WSW28.8 kmh WSW 21.0 mph33.8 kmh 29.94 in1013.9 mb 0.00 in0.0 mm 0.00 in0.0 mm 0.09 in2.3 mm
01:44 PM 50.7°F10.4°C 40.9°F4.9°C 69% 18.2 mph WSW29.3 kmh WSW 21.0 mph33.8 kmh 29.94 in1013.9 mb 0.00 in0.0 mm 0.00 in0.0 mm 0.09 in2.3 mm
01:45 PM 50.6°F10.3°C 40.8°F4.9°C 69% 19.4 mph W31.2 kmh W 24.0 mph38.6 kmh 29.95 in1014.2 mb 0.00 in0.0 mm 0.00 in0.0 mm 0.09 in2.3 mm
01:46 PM 50.6°F10.3°C 41.2°F5.1°C 70% 16.5 mph W26.6 kmh W 24.0 mph38.6 kmh 29.95 in1014.2 mb 0.00 in0.0 mm 0.00 in0.0 mm 0.09 in2.3 mm
01:47 PM 50.5°F10.3°C 41.1°F5.1°C 70% 17.3 mph WSW27.8 kmh WSW 22.0 mph35.4 kmh 29.95 in1014.2 mb 0.00 in0.0 mm 0.00 in0.0 mm 0.09 in2.3 mm
01:48 PM 50.5°F10.3°C 41.1°F5.1°C 70% 16.5 mph WSW26.6 kmh WSW 21.0 mph33.8 kmh 29.95 in1014.2 mb 0.00 in0.0 mm 0.00 in0.0 mm 0.09 in2.3 mm
01:49 PM 50.5°F10.3°C 41.1°F5.1°C 70% 15.4 mph WSW24.8 kmh WSW 18.0 mph29.0 kmh 29.95 in1014.2 mb 0.00 in0.0 mm 0.00 in0.0 mm 0.09 in2.3 mm
01:50 PM 50.5°F10.3°C 41.5°F5.3°C 71% 17.3 mph W27.8 kmh W 20.0 mph32.2 kmh 29.95 in1014.2 mb 0.00 in0.0 mm 0.00 in0.0 mm 0.09 in2.3 mm
01:51 PM 50.5°F10.3°C 41.1°F5.1°C 70% 17.1 mph W27.5 kmh W 21.0 mph33.8 kmh 29.95 in1014.2 mb 0.00 in0.0 mm 0.00 in0.0 mm 0.09 in2.3 mm
01:52 PM 50.5°F10.3°C 41.1°F5.1°C 70% 17.0 mph WSW27.4 kmh WSW 21.0 mph33.8 kmh 29.95 in1014.2 mb 0.00 in0.0 mm 0.00 in0.0 mm 0.09 in2.3 mm
01:53 PM 50.5°F10.3°C 41.1°F5.1°C 70% 17.4 mph WSW28.0 kmh WSW 21.0 mph33.8 kmh 29.95 in1014.2 mb 0.00 in0.0 mm 0.00 in0.0 mm 0.09 in2.3 mm
01:54 PM 50.5°F10.3°C 41.1°F5.1°C 70% 18.8 mph WSW30.3 kmh WSW 22.0 mph35.4 kmh 29.95 in1014.2 mb 0.00 in0.0 mm 0.00 in0.0 mm 0.09 in2.3 mm
01:55 PM 50.6°F10.3°C 41.2°F5.1°C 70% 16.8 mph WSW27.0 kmh WSW 21.0 mph33.8 kmh 29.95 in1014.2 mb 0.00 in0.0 mm 0.00 in0.0 mm 0.09 in2.3 mm
01:56 PM 50.7°F10.4°C 41.6°F5.3°C 71% 15.7 mph W25.3 kmh W 20.0 mph32.2 kmh 29.95 in1014.2 mb 0.00 in0.0 mm 0.00 in0.0 mm 0.09 in2.3 mm
01:57 PM 50.7°F10.4°C 41.6°F5.3°C 71% 16.3 mph W26.2 kmh W 21.0 mph33.8 kmh 29.95 in1014.2 mb 0.00 in0.0 mm 0.00 in0.0 mm 0.09 in2.3 mm
01:58 PM 50.7°F10.4°C 41.6°F5.3°C 71% 15.7 mph W25.3 kmh W 21.0 mph33.8 kmh 29.95 in1014.2 mb 0.00 in0.0 mm 0.00 in0.0 mm 0.09 in2.3 mm
01:59 PM 50.7°F10.4°C 41.6°F5.3°C 71% 16.9 mph W27.2 kmh W 19.0 mph30.6 kmh 29.95 in1014.2 mb 0.00 in0.0 mm 0.00 in0.0 mm 0.09 in2.3 mm
02:00 PM 50.7°F10.4°C 41.6°F5.3°C 71% 16.9 mph WSW27.2 kmh WSW 20.0 mph32.2 kmh 29.95 in1014.2 mb 0.00 in0.0 mm 0.00 in0.0 mm 0.09 in2.3 mm
02:01 PM 50.6°F10.3°C 41.2°F5.1°C 70% 17.5 mph WSW28.2 kmh WSW 20.0 mph32.2 kmh 29.95 in1014.2 mb 0.00 in0.0 mm 0.00 in0.0 mm 0.09 in2.3 mm
02:02 PM 50.7°F10.4°C 42.0°F5.6°C 72% 16.4 mph WSW26.4 kmh WSW 20.0 mph32.2 kmh 29.95 in1014.2 mb 0.00 in0.0 mm 0.00 in0.0 mm 0.09 in2.3 mm
02:03 PM 50.8°F10.4°C 42.1°F5.6°C 72% 17.4 mph WSW28.0 kmh WSW 20.0 mph32.2 kmh 29.95 in1014.2 mb 0.00 in0.0 mm 0.00 in0.0 mm 0.09 in2.3 mm
02:04 PM 50.7°F10.4°C 41.6°F5.3°C 71% 20.4 mph WSW32.8 kmh WSW 22.0 mph35.4 kmh 29.95 in1014.2 mb 0.00 in0.0 mm 0.00 in0.0 mm 0.09 in2.3 mm
02:05 PM 50.7°F10.4°C 41.3°F5.2°C 70% 18.9 mph WSW30.4 kmh WSW 24.0 mph38.6 kmh 29.95 in1014.2 mb 0.00 in0.0 mm 0.00 in0.0 mm 0.09 in2.3 mm
02:06 PM 50.6°F10.3°C 41.5°F5.3°C 71% 17.2 mph WSW27.7 kmh WSW 24.0 mph38.6 kmh 29.95 in1014.2 mb 0.00 in0.0 mm 0.00 in0.0 mm 0.09 in2.3 mm
02:07 PM 50.7°F10.4°C 41.6°F5.3°C 71% 19.7 mph W31.7 kmh W 23.0 mph37.0 kmh 29.95 in1014.2 mb 0.00 in0.0 mm 0.00 in0.0 mm 0.09 in2.3 mm
02:08 PM 50.7°F10.4°C 42.0°F5.6°C 72% 17.0 mph W27.4 kmh W 23.0 mph37.0 kmh 29.95 in1014.2 mb 0.00 in0.0 mm 0.00 in0.0 mm 0.09 in2.3 mm
02:09 PM 50.7°F10.4°C 42.0°F5.6°C 72% 16.9 mph W27.2 kmh W 20.0 mph32.2 kmh 29.95 in1014.2 mb 0.00 in0.0 mm 0.00 in0.0 mm 0.09 in2.3 mm
02:10 PM 50.7°F10.4°C 42.7°F5.9°C 74% 15.4 mph WSW24.8 kmh WSW 19.0 mph30.6 kmh 29.95 in1014.2 mb 0.00 in0.0 mm 0.00 in0.0 mm 0.09 in2.3 mm
02:11 PM 50.7°F10.4°C 42.4°F5.8°C 73% 16.5 mph WSW26.6 kmh WSW 19.0 mph30.6 kmh 29.95 in1014.2 mb 0.00 in0.0 mm 0.00 in0.0 mm 0.09 in2.3 mm
02:12 PM 50.6°F10.3°C 42.6°F5.9°C 74% 17.0 mph W27.4 kmh W 21.0 mph33.8 kmh 29.95 in1014.2 mb 0.00 in0.0 mm 0.00 in0.0 mm 0.09 in2.3 mm
02:13 PM 50.5°F10.3°C 42.5°F5.8°C 74% 17.0 mph W27.4 kmh W 21.0 mph33.8 kmh 29.95 in1014.2 mb 0.00 in0.0 mm 0.00 in0.0 mm 0.09 in2.3 mm
02:14 PM 50.6°F10.3°C 43.0°F6.1°C 75% 16.1 mph W25.9 kmh W 21.0 mph33.8 kmh 29.95 in1014.2 mb 0.00 in0.0 mm 0.00 in0.0 mm 0.09 in2.3 mm
02:15 PM 50.7°F10.4°C 43.1°F6.2°C 75% 16.3 mph WSW26.2 kmh WSW 19.0 mph30.6 kmh 29.96 in1014.6 mb 0.00 in0.0 mm 0.00 in0.0 mm 0.09 in2.3 mm
02:16 PM 50.7°F10.4°C 43.1°F6.2°C 75% 16.4 mph WSW26.4 kmh WSW 19.0 mph30.6 kmh 29.95 in1014.2 mb 0.00 in0.0 mm 0.00 in0.0 mm 0.09 in2.3 mm
02:17 PM 50.7°F10.4°C 42.7°F5.9°C 74% 15.4 mph WSW24.8 kmh WSW 19.0 mph30.6 kmh 29.96 in1014.6 mb 0.00 in0.0 mm 0.00 in0.0 mm 0.09 in2.3 mm
02:18 PM 50.7°F10.4°C 43.1°F6.2°C 75% 16.2 mph WSW26.1 kmh WSW 21.0 mph33.8 kmh 29.96 in1014.6 mb 0.00 in0.0 mm 0.00 in0.0 mm 0.09 in2.3 mm
02:19 PM 50.6°F10.3°C 42.6°F5.9°C 74% 18.5 mph W29.8 kmh W 23.0 mph37.0 kmh 29.96 in1014.6 mb 0.00 in0.0 mm 0.00 in0.0 mm 0.09 in2.3 mm
02:20 PM 50.6°F10.3°C 42.6°F5.9°C 74% 15.8 mph W25.4 kmh W 23.0 mph37.0 kmh 29.96 in1014.6 mb 0.00 in0.0 mm 0.00 in0.0 mm 0.09 in2.3 mm
02:21 PM 50.5°F10.3°C 42.5°F5.8°C 74% 17.8 mph WSW28.6 kmh WSW 21.0 mph33.8 kmh 29.96 in1014.6 mb 0.00 in0.0 mm 0.00 in0.0 mm 0.09 in2.3 mm
02:22 PM 50.6°F10.3°C 42.3°F5.7°C 73% 17.0 mph WSW27.4 kmh WSW 21.0 mph33.8 kmh 29.96 in1014.6 mb 0.00 in0.0 mm 0.00 in0.0 mm 0.09 in2.3 mm
02:23 PM 50.6°F10.3°C 43.0°F6.1°C 75% 17.1 mph WSW27.5 kmh WSW 21.0 mph33.8 kmh 29.96 in1014.6 mb 0.00 in0.0 mm 0.00 in0.0 mm 0.09 in2.3 mm
02:24 PM 50.6°F10.3°C 43.0°F6.1°C 75% 18.2 mph W29.3 kmh W 22.0 mph35.4 kmh 29.96 in1014.6 mb 0.00 in0.0 mm 0.00 in0.0 mm 0.09 in2.3 mm
02:25 PM 50.5°F10.3°C 42.9°F6.1°C 75% 15.1 mph WSW24.3 kmh WSW 22.0 mph35.4 kmh 29.96 in1014.6 mb 0.00 in0.0 mm 0.00 in0.0 mm 0.09 in2.3 mm
02:26 PM 50.4°F10.2°C 42.4°F5.8°C 74% 19.0 mph W30.6 kmh W 23.0 mph37.0 kmh 29.96 in1014.6 mb 0.00 in0.0 mm 0.00 in0.0 mm 0.09 in2.3 mm
02:27 PM 50.2°F10.1°C 42.2°F5.7°C 74% 18.8 mph W30.3 kmh W 23.0 mph37.0 kmh 29.96 in1014.6 mb 0.00 in0.0 mm 0.00 in0.0 mm 0.09 in2.3 mm
02:28 PM 50.0°F10.0°C 42.4°F5.8°C 75% 18.2 mph WSW29.3 kmh WSW 23.0 mph37.0 kmh 29.96 in1014.6 mb 0.00 in0.0 mm 0.00 in0.0 mm 0.09 in2.3 mm
02:29 PM 50.0°F10.0°C 42.4°F5.8°C 75% 16.0 mph W25.7 kmh W 21.0 mph33.8 kmh 29.96 in1014.6 mb 0.00 in0.0 mm 0.00 in0.0 mm 0.09 in2.3 mm
02:30 PM 50.0°F10.0°C 42.7°F5.9°C 76% 15.9 mph W25.6 kmh W 19.0 mph30.6 kmh 29.96 in1014.6 mb 0.00 in0.0 mm 0.00 in0.0 mm 0.09 in2.3 mm
02:31 PM 50.0°F10.0°C 42.4°F5.8°C 75% 18.8 mph WSW30.3 kmh WSW 24.0 mph38.6 kmh 29.96 in1014.6 mb 0.00 in0.0 mm 0.00 in0.0 mm 0.09 in2.3 mm
02:32 PM 49.9°F9.9°C 42.3°F5.7°C 75% 18.6 mph WSW29.9 kmh WSW 24.0 mph38.6 kmh 29.96 in1014.6 mb 0.00 in0.0 mm 0.00 in0.0 mm 0.09 in2.3 mm
02:33 PM 49.9°F9.9°C 42.6°F5.9°C 76% 17.4 mph WSW28.0 kmh WSW 22.0 mph35.4 kmh 29.96 in1014.6 mb 0.00 in0.0 mm 0.00 in0.0 mm 0.09 in2.3 mm
02:34 PM 49.8°F9.9°C 41.9°F5.5°C 74% 20.8 mph WSW33.5 kmh WSW 23.0 mph37.0 kmh 29.96 in1014.6 mb 0.00 in0.0 mm 0.00 in0.0 mm 0.09 in2.3 mm
02:35 PM 49.9°F9.9°C 42.3°F5.7°C 75% 16.4 mph W26.4 kmh W 23.0 mph37.0 kmh 29.96 in1014.6 mb 0.00 in0.0 mm 0.00 in0.0 mm 0.09 in2.3 mm
02:36 PM 49.9°F9.9°C 42.3°F5.7°C 75% 16.5 mph W26.6 kmh W 21.0 mph33.8 kmh 29.96 in1014.6 mb 0.00 in0.0 mm 0.00 in0.0 mm 0.09 in2.3 mm
02:37 PM 49.8°F9.9°C 42.2°F5.7°C 75% 21.5 mph W34.6 kmh W 26.0 mph41.8 kmh 29.96 in1014.6 mb 0.00 in0.0 mm 0.00 in0.0 mm 0.09 in2.3 mm
02:38 PM 49.7°F9.8°C 42.1°F5.6°C 75% 20.2 mph WSW32.5 kmh WSW 26.0 mph41.8 kmh 29.96 in1014.6 mb 0.00 in0.0 mm 0.00 in0.0 mm 0.09 in2.3 mm
02:39 PM 49.7°F9.8°C 42.1°F5.6°C 75% 20.1 mph WSW32.3 kmh WSW 25.0 mph40.2 kmh 29.97 in1014.9 mb 0.00 in0.0 mm 0.00 in0.0 mm 0.09 in2.3 mm
02:40 PM 49.6°F9.8°C 42.0°F5.6°C 75% 20.9 mph WSW33.6 kmh WSW 25.0 mph40.2 kmh 29.97 in1014.9 mb 0.00 in0.0 mm 0.00 in0.0 mm 0.09 in2.3 mm
02:41 PM 49.6°F9.8°C 41.7°F5.4°C 74% 18.9 mph WSW30.4 kmh WSW 25.0 mph40.2 kmh 29.97 in1014.9 mb 0.00 in0.0 mm 0.00 in0.0 mm 0.09 in2.3 mm
02:42 PM 49.6°F9.8°C 41.7°F5.4°C 74% 18.5 mph W29.8 kmh W 24.0 mph38.6 kmh 29.97 in1014.9 mb 0.00 in0.0 mm 0.00 in0.0 mm 0.09 in2.3 mm
02:43 PM 49.6°F9.8°C 42.0°F5.6°C 75% 17.7 mph W28.5 kmh W 24.0 mph38.6 kmh 29.97 in1014.9 mb 0.00 in0.0 mm 0.00 in0.0 mm 0.09 in2.3 mm
02:44 PM 49.6°F9.8°C 42.0°F5.6°C 75% 19.5 mph W31.4 kmh W 24.0 mph38.6 kmh 29.97 in1014.9 mb 0.00 in0.0 mm 0.00 in0.0 mm 0.09 in2.3 mm
02:45 PM 49.6°F9.8°C 42.3°F5.7°C 76% 18.0 mph W29.0 kmh W 24.0 mph38.6 kmh 29.97 in1014.9 mb 0.00 in0.0 mm 0.00 in0.0 mm 0.09 in2.3 mm
02:46 PM 49.6°F9.8°C 42.3°F5.7°C 76% 17.1 mph W27.5 kmh W 23.0 mph37.0 kmh 29.97 in1014.9 mb 0.00 in0.0 mm 0.00 in0.0 mm 0.09 in2.3 mm
02:47 PM 49.7°F9.8°C 42.1°F5.6°C 75% 16.8 mph W27.0 kmh W 20.0 mph32.2 kmh 29.97 in1014.9 mb 0.00 in0.0 mm 0.00 in0.0 mm 0.09 in2.3 mm
02:48 PM 49.8°F9.9°C 42.5°F5.8°C 76% 18.5 mph W29.8 kmh W 22.0 mph35.4 kmh 29.97 in1014.9 mb 0.00 in0.0 mm 0.00 in0.0 mm 0.09 in2.3 mm
02:49 PM 49.7°F9.8°C 42.4°F5.8°C 76% 17.8 mph W28.6 kmh W 22.0 mph35.4 kmh 29.97 in1014.9 mb 0.00 in0.0 mm 0.00 in0.0 mm 0.09 in2.3 mm
02:50 PM 49.6°F9.8°C 42.3°F5.7°C 76% 17.8 mph W28.6 kmh W 21.0 mph33.8 kmh 29.97 in1014.9 mb 0.00 in0.0 mm 0.00 in0.0 mm 0.09 in2.3 mm
02:51 PM 49.6°F9.8°C 42.0°F5.6°C 75% 19.1 mph W30.7 kmh W 23.0 mph37.0 kmh 29.97 in1014.9 mb 0.00 in0.0 mm 0.00 in0.0 mm 0.09 in2.3 mm
02:52 PM 49.6°F9.8°C 42.3°F5.7°C 76% 15.6 mph W25.1 kmh W 23.0 mph37.0 kmh 29.97 in1014.9 mb 0.00 in0.0 mm 0.00 in0.0 mm 0.09 in2.3 mm
02:53 PM 49.5°F9.7°C 42.3°F5.7°C 76% 20.5 mph W33.0 kmh W 26.0 mph41.8 kmh 29.97 in1014.9 mb 0.00 in0.0 mm 0.00 in0.0 mm 0.09 in2.3 mm
02:54 PM 49.5°F9.7°C 42.3°F5.7°C 76% 15.3 mph W24.6 kmh W 26.0 mph41.8 kmh 29.97 in1014.9 mb 0.00 in0.0 mm 0.00 in0.0 mm 0.09 in2.3 mm
02:55 PM 49.5°F9.7°C 42.3°F5.7°C 76% 17.0 mph W27.4 kmh W 21.0 mph33.8 kmh 29.97 in1014.9 mb 0.00 in0.0 mm 0.00 in0.0 mm 0.09 in2.3 mm
02:56 PM 49.4°F9.7°C 41.8°F5.4°C 75% 19.3 mph W31.1 kmh W 24.0 mph38.6 kmh 29.97 in1014.9 mb 0.00 in0.0 mm 0.00 in0.0 mm 0.09 in2.3 mm
02:57 PM 49.4°F9.7°C 41.8°F5.4°C 75% 20.2 mph W32.5 kmh W 26.0 mph41.8 kmh 29.97 in1014.9 mb 0.00 in0.0 mm 0.00 in0.0 mm 0.09 in2.3 mm
02:58 PM 49.4°F9.7°C 41.8°F5.4°C 75% 20.3 mph W32.7 kmh W 26.0 mph41.8 kmh 29.97 in1014.9 mb 0.00 in0.0 mm 0.00 in0.0 mm 0.09 in2.3 mm
02:59 PM 49.4°F9.7°C 41.8°F5.4°C 75% 18.4 mph W29.6 kmh W 24.0 mph38.6 kmh 29.97 in1014.9 mb 0.00 in0.0 mm 0.00 in0.0 mm 0.09 in2.3 mm
03:00 PM 49.4°F9.7°C 42.2°F5.7°C 76% 18.1 mph W29.1 kmh W 23.0 mph37.0 kmh 29.97 in1014.9 mb 0.00 in0.0 mm 0.00 in0.0 mm 0.09 in2.3 mm
03:01 PM 49.4°F9.7°C 41.5°F5.3°C 74% 13.0 mph W20.9 kmh W 23.0 mph37.0 kmh 29.97 in1014.9 mb 0.00 in0.0 mm 0.00 in0.0 mm 0.09 in2.3 mm
03:02 PM 49.4°F9.7°C 41.5°F5.3°C 74% 15.7 mph W25.3 kmh W 21.0 mph33.8 kmh 29.97 in1014.9 mb 0.00 in0.0 mm 0.00 in0.0 mm 0.09 in2.3 mm
03:03 PM 49.5°F9.7°C 41.6°F5.3°C 74% 17.6 mph W28.3 kmh W 21.0 mph33.8 kmh 29.97 in1014.9 mb 0.00 in0.0 mm 0.00 in0.0 mm 0.09 in2.3 mm
03:04 PM 49.5°F9.7°C 41.6°F5.3°C 74% 17.5 mph W28.2 kmh W 21.0 mph33.8 kmh 29.97 in1014.9 mb 0.00 in0.0 mm 0.00 in0.0 mm 0.09 in2.3 mm
03:05 PM 49.6°F9.8°C 41.7°F5.4°C 74% 15.8 mph W25.4 kmh W 21.0 mph33.8 kmh 29.97 in1014.9 mb 0.00 in0.0 mm 0.00 in0.0 mm 0.09 in2.3 mm
03:06 PM 49.6°F9.8°C 42.0°F5.6°C 75% 15.3 mph W24.6 kmh W 18.0 mph29.0 kmh 29.98 in1015.2 mb 0.00 in0.0 mm 0.00 in0.0 mm 0.09 in2.3 mm
03:07 PM 49.6°F9.8°C 42.0°F5.6°C 75% 14.1 mph W22.7 kmh W 18.0 mph29.0 kmh 29.97 in1014.9 mb 0.00 in0.0 mm 0.00 in0.0 mm 0.09 in2.3 mm
03:08 PM 49.6°F9.8°C 41.7°F5.4°C 74% 15.6 mph WSW25.1 kmh WSW 19.0 mph30.6 kmh 29.98 in1015.2 mb 0.00 in0.0 mm 0.00 in0.0 mm 0.09 in2.3 mm
03:09 PM 49.7°F9.8°C 42.1°F5.6°C 75% 15.3 mph WSW24.6 kmh WSW 19.0 mph30.6 kmh 29.98 in1015.2 mb 0.00 in0.0 mm 0.00 in0.0 mm 0.09 in2.3 mm
03:10 PM 49.6°F9.8°C 42.0°F5.6°C 75% 16.2 mph WSW26.1 kmh WSW 18.0 mph29.0 kmh 29.98 in1015.2 mb 0.00 in0.0 mm 0.00 in0.0 mm 0.09 in2.3 mm
03:11 PM 49.7°F9.8°C 42.1°F5.6°C 75% 14.4 mph WSW23.2 kmh WSW 18.0 mph29.0 kmh 29.98 in1015.2 mb 0.00 in0.0 mm 0.00 in0.0 mm 0.09 in2.3 mm
03:12 PM 49.7°F9.8°C 42.1°F5.6°C 75% 15.5 mph W24.9 kmh W 18.0 mph29.0 kmh 29.98 in1015.2 mb 0.00 in0.0 mm 0.00 in0.0 mm 0.09 in2.3 mm
03:13 PM 49.7°F9.8°C 42.1°F5.6°C 75% 18.8 mph W30.3 kmh W 24.0 mph38.6 kmh 29.98 in1015.2 mb 0.00 in0.0 mm 0.00 in0.0 mm 0.09 in2.3 mm
03:14 PM 49.7°F9.8°C 42.1°F5.6°C 75% 17.7 mph WSW28.5 kmh WSW 24.0 mph38.6 kmh 29.98 in1015.2 mb 0.00 in0.0 mm 0.00 in0.0 mm 0.09 in2.3 mm
03:15 PM 49.7°F9.8°C 41.8°F5.4°C 74% 17.0 mph WSW27.4 kmh WSW 19.0 mph30.6 kmh 29.98 in1015.2 mb 0.00 in0.0 mm 0.00 in0.0 mm 0.09 in2.3 mm
03:16 PM 49.7°F9.8°C 41.8°F5.4°C 74% 19.1 mph W30.7 kmh W 22.0 mph35.4 kmh 29.98 in1015.2 mb 0.00 in0.0 mm 0.00 in0.0 mm 0.09 in2.3 mm
03:17 PM 49.7°F9.8°C 41.8°F5.4°C 74% 18.7 mph W30.1 kmh W 23.0 mph37.0 kmh 29.98 in1015.2 mb 0.00 in0.0 mm 0.00 in0.0 mm 0.09 in2.3 mm
03:18 PM 49.7°F9.8°C 41.8°F5.4°C 74% 19.5 mph WSW31.4 kmh WSW 23.0 mph37.0 kmh 29.98 in1015.2 mb 0.00 in0.0 mm 0.00 in0.0 mm 0.09 in2.3 mm
03:19 PM 49.6°F9.8°C 41.3°F5.2°C 73% 17.8 mph W28.6 kmh W 21.0 mph33.8 kmh 29.98 in1015.2 mb 0.00 in0.0 mm 0.00 in0.0 mm 0.09 in2.3 mm
03:20 PM 49.7°F9.8°C 41.8°F5.4°C 74% 16.5 mph WSW26.6 kmh WSW 20.0 mph32.2 kmh 29.98 in1015.2 mb 0.00 in0.0 mm 0.00 in0.0 mm 0.09 in2.3 mm
03:21 PM 49.9°F9.9°C 42.3°F5.7°C 75% 16.4 mph W26.4 kmh W 20.0 mph32.2 kmh 29.98 in1015.2 mb 0.00 in0.0 mm 0.00 in0.0 mm 0.09 in2.3 mm
03:22 PM 49.9°F9.9°C 41.9°F5.5°C 74% 16.3 mph W26.2 kmh W 19.0 mph30.6 kmh 29.98 in1015.2 mb 0.00 in0.0 mm 0.00 in0.0 mm 0.09 in2.3 mm
03:23 PM 49.9°F9.9°C 41.6°F5.3°C 73% 15.4 mph W24.8 kmh W 20.0 mph32.2 kmh 29.98 in1015.2 mb 0.00 in0.0 mm 0.00 in0.0 mm 0.09 in2.3 mm
03:24 PM 50.0°F10.0°C 42.0°F5.6°C 74% 15.5 mph W24.9 kmh W 21.0 mph33.8 kmh 29.98 in1015.2 mb 0.00 in0.0 mm 0.00 in0.0 mm 0.09 in2.3 mm
03:25 PM 50.1°F10.1°C 42.1°F5.6°C 74% 16.4 mph W26.4 kmh W 21.0 mph33.8 kmh 29.98 in1015.2 mb 0.00 in0.0 mm 0.00 in0.0 mm 0.09 in2.3 mm
03:26 PM 50.1°F10.1°C 41.4°F5.2°C 72% 18.7 mph W30.1 kmh W 23.0 mph37.0 kmh 29.98 in1015.2 mb 0.00 in0.0 mm 0.00 in0.0 mm 0.09 in2.3 mm
03:27 PM 50.0°F10.0°C 41.7°F5.4°C 73% 16.5 mph W26.6 kmh W 23.0 mph37.0 kmh 29.98 in1015.2 mb 0.00 in0.0 mm 0.00 in0.0 mm 0.09 in2.3 mm
03:28 PM 49.9°F9.9°C 41.6°F5.3°C 73% 17.6 mph W28.3 kmh W 23.0 mph37.0 kmh 29.98 in1015.2 mb 0.00 in0.0 mm 0.00 in0.0 mm 0.09 in2.3 mm
03:29 PM 49.9°F9.9°C 41.6°F5.3°C 73% 14.0 mph W22.5 kmh W 20.0 mph32.2 kmh 29.98 in1015.2 mb 0.00 in0.0 mm 0.00 in0.0 mm 0.09 in2.3 mm
03:30 PM 50.1°F10.1°C 42.5°F5.8°C 75% 13.0 mph W20.9 kmh W 17.0 mph27.4 kmh 29.98 in1015.2 mb 0.00 in0.0 mm 0.00 in0.0 mm 0.09 in2.3 mm
03:31 PM 50.2°F10.1°C 42.2°F5.7°C 74% 15.0 mph W24.1 kmh W 18.0 mph29.0 kmh 29.98 in1015.2 mb 0.00 in0.0 mm 0.00 in0.0 mm 0.09 in2.3 mm
03:32 PM 50.2°F10.1°C 42.2°F5.7°C 74% 15.1 mph W24.3 kmh W 18.0 mph29.0 kmh 29.98 in1015.2 mb 0.00 in0.0 mm 0.00 in0.0 mm 0.09 in2.3 mm
03:33 PM 50.1°F10.1°C 41.8°F5.4°C 73% 16.6 mph WSW26.7 kmh WSW 20.0 mph32.2 kmh 29.98 in1015.2 mb 0.00 in0.0 mm 0.00 in0.0 mm 0.09 in2.3 mm
03:34 PM 50.1°F10.1°C 41.8°F5.4°C 73% 14.2 mph W22.9 kmh W 20.0 mph32.2 kmh 29.98 in1015.2 mb 0.00 in0.0 mm 0.00 in0.0 mm 0.09 in2.3 mm
03:35 PM 50.2°F10.1°C 42.2°F5.7°C 74% 16.4 mph W26.4 kmh W 19.0 mph30.6 kmh 29.98 in1015.2 mb 0.00 in0.0 mm 0.00 in0.0 mm 0.09 in2.3 mm
03:36 PM 50.1°F10.1°C 42.1°F5.6°C 74% 15.6 mph W25.1 kmh W 20.0 mph32.2 kmh 29.98 in1015.2 mb 0.00 in0.0 mm 0.00 in0.0 mm 0.09 in2.3 mm
03:37 PM 50.1°F10.1°C 42.5°F5.8°C 75% 14.0 mph W22.5 kmh W 20.0 mph32.2 kmh 29.98 in1015.2 mb 0.00 in0.0 mm 0.00 in0.0 mm 0.09 in2.3 mm
03:38 PM 50.1°F10.1°C 42.5°F5.8°C 75% 16.1 mph W25.9 kmh W 19.0 mph30.6 kmh 29.98 in1015.2 mb 0.00 in0.0 mm 0.00 in0.0 mm 0.09 in2.3 mm
03:39 PM 50.1°F10.1°C 42.5°F5.8°C 75% 18.0 mph WSW29.0 kmh WSW 23.0 mph37.0 kmh 29.99 in1015.6 mb 0.00 in0.0 mm 0.00 in0.0 mm 0.09 in2.3 mm
03:40 PM 50.1°F10.1°C 42.1°F5.6°C 74% 19.3 mph WSW31.1 kmh WSW 23.0 mph37.0 kmh 29.98 in1015.2 mb 0.00 in0.0 mm 0.00 in0.0 mm 0.09 in2.3 mm
03:41 PM 50.0°F10.0°C 41.7°F5.4°C 73% 19.3 mph WSW31.1 kmh WSW 22.0 mph35.4 kmh 29.98 in1015.2 mb 0.00 in0.0 mm 0.00 in0.0 mm 0.09 in2.3 mm
03:42 PM 49.9°F9.9°C 41.6°F5.3°C 73% 18.6 mph WSW29.9 kmh WSW 22.0 mph35.4 kmh 29.99 in1015.6 mb 0.00 in0.0 mm 0.00 in0.0 mm 0.09 in2.3 mm
03:43 PM 49.7°F9.8°C 41.4°F5.2°C 73% 17.9 mph WSW28.8 kmh WSW 21.0 mph33.8 kmh 29.99 in1015.6 mb 0.00 in0.0 mm 0.00 in0.0 mm 0.09 in2.3 mm
03:44 PM 49.6°F9.8°C 41.3°F5.2°C 73% 16.9 mph WSW27.2 kmh WSW 19.0 mph30.6 kmh 29.99 in1015.6 mb 0.00 in0.0 mm 0.00 in0.0 mm 0.09 in2.3 mm
03:45 PM 49.7°F9.8°C 41.8°F5.4°C 74% 16.1 mph WSW25.9 kmh WSW 19.0 mph30.6 kmh 29.99 in1015.6 mb 0.00 in0.0 mm 0.00 in0.0 mm 0.09 in2.3 mm
03:46 PM 49.7°F9.8°C 41.8°F5.4°C 74% 17.3 mph WSW27.8 kmh WSW 21.0 mph33.8 kmh 29.99 in1015.6 mb 0.00 in0.0 mm 0.00 in0.0 mm 0.09 in2.3 mm
03:47 PM 49.7°F9.8°C 41.4°F5.2°C 73% 17.4 mph WSW28.0 kmh WSW 21.0 mph33.8 kmh 29.99 in1015.6 mb 0.00 in0.0 mm 0.00 in0.0 mm 0.09 in2.3 mm
03:48 PM 49.8°F9.9°C 41.5°F5.3°C 73% 18.1 mph WSW29.1 kmh WSW 20.0 mph32.2 kmh 29.99 in1015.6 mb 0.00 in0.0 mm 0.00 in0.0 mm 0.09 in2.3 mm
03:49 PM 49.7°F9.8°C 41.4°F5.2°C 73% 16.5 mph WSW26.6 kmh WSW 20.0 mph32.2 kmh 29.99 in1015.6 mb 0.00 in0.0 mm 0.00 in0.0 mm 0.09 in2.3 mm
03:50 PM 49.7°F9.8°C 41.4°F5.2°C 73% 14.4 mph WSW23.2 kmh WSW 19.0 mph30.6 kmh 29.99 in1015.6 mb 0.00 in0.0 mm 0.00 in0.0 mm 0.09 in2.3 mm
03:51 PM 49.8°F9.9°C 41.5°F5.3°C 73% 17.0 mph WSW27.4 kmh WSW 21.0 mph33.8 kmh 29.99 in1015.6 mb 0.00 in0.0 mm 0.00 in0.0 mm 0.09 in2.3 mm
03:52 PM 49.9°F9.9°C 41.6°F5.3°C 73% 16.9 mph WSW27.2 kmh WSW 21.0 mph33.8 kmh 29.99 in1015.6 mb 0.00 in0.0 mm 0.00 in0.0 mm 0.09 in2.3 mm
03:53 PM 49.9°F9.9°C 41.9°F5.5°C 74% 16.2 mph WSW26.1 kmh WSW 19.0 mph30.6 kmh 29.99 in1015.6 mb 0.00 in0.0 mm 0.00 in0.0 mm 0.09 in2.3 mm
03:54 PM 50.0°F10.0°C 42.4°F5.8°C 75% 15.0 mph WSW24.1 kmh WSW 19.0 mph30.6 kmh 29.99 in1015.6 mb 0.00 in0.0 mm 0.00 in0.0 mm 0.09 in2.3 mm
03:55 PM 49.9°F9.9°C 41.6°F5.3°C 73% 15.2 mph WSW24.5 kmh WSW 18.0 mph29.0 kmh 29.99 in1015.6 mb 0.00 in0.0 mm 0.00 in0.0 mm 0.09 in2.3 mm
03:56 PM 50.0°F10.0°C 41.7°F5.4°C 73% 15.4 mph WSW24.8 kmh WSW 18.0 mph29.0 kmh 29.99 in1015.6 mb 0.00 in0.0 mm 0.00 in0.0 mm 0.09 in2.3 mm
03:57 PM 49.9°F9.9°C 41.9°F5.5°C 74% 14.9 mph WSW24.0 kmh WSW 18.0 mph29.0 kmh 29.99 in1015.6 mb 0.00 in0.0 mm 0.00 in0.0 mm 0.09 in2.3 mm
03:58 PM 49.9°F9.9°C 41.9°F5.5°C 74% 13.3 mph WSW21.4 kmh WSW 18.0 mph29.0 kmh 29.99 in1015.6 mb 0.00 in0.0 mm 0.00 in0.0 mm 0.09 in2.3 mm
03:59 PM 49.7°F9.8°C 41.8°F5.4°C 74% 15.5 mph WSW24.9 kmh WSW 18.0 mph29.0 kmh 29.99 in1015.6 mb 0.00 in0.0 mm 0.00 in0.0 mm 0.09 in2.3 mm
04:00 PM 49.6°F9.8°C 41.7°F5.4°C 74% 15.1 mph WSW24.3 kmh WSW 17.0 mph27.4 kmh 29.99 in1015.6 mb 0.00 in0.0 mm 0.00 in0.0 mm 0.09 in2.3 mm
04:01 PM 49.5°F9.7°C 41.6°F5.3°C 74% 14.3 mph WSW23.0 kmh WSW 17.0 mph27.4 kmh 29.99 in1015.6 mb 0.00 in0.0 mm 0.00 in0.0 mm 0.09 in2.3 mm
04:02 PM 49.4°F9.7°C 41.8°F5.4°C 75% 14.0 mph WSW22.5 kmh WSW 17.0 mph27.4 kmh 29.99 in1015.6 mb 0.00 in0.0 mm 0.00 in0.0 mm 0.09 in2.3 mm
04:03 PM 49.4°F9.7°C 41.5°F5.3°C 74% 12.3 mph W19.8 kmh W 17.0 mph27.4 kmh 29.99 in1015.6 mb 0.00 in0.0 mm 0.00 in0.0 mm 0.09 in2.3 mm
04:04 PM 49.4°F9.7°C 41.5°F5.3°C 74% 13.7 mph W22.0 kmh W 16.0 mph25.7 kmh 29.99 in1015.6 mb 0.00 in0.0 mm 0.00 in0.0 mm 0.09 in2.3 mm
04:05 PM 49.5°F9.7°C 41.9°F5.5°C 75% 10.5 mph W16.9 kmh W 16.0 mph25.7 kmh 29.99 in1015.6 mb 0.00 in0.0 mm 0.00 in0.0 mm 0.09 in2.3 mm
04:06 PM 49.5°F9.7°C 41.6°F5.3°C 74% 14.8 mph WSW23.8 kmh WSW 18.0 mph29.0 kmh 29.99 in1015.6 mb 0.00 in0.0 mm 0.00 in0.0 mm 0.09 in2.3 mm
04:07 PM 49.5°F9.7°C 41.2°F5.1°C 73% 12.6 mph W20.3 kmh W 18.0 mph29.0 kmh 29.99 in1015.6 mb 0.00 in0.0 mm 0.00 in0.0 mm 0.09 in2.3 mm
04:08 PM 49.6°F9.8°C 41.7°F5.4°C 74% 11.6 mph W18.7 kmh W 15.0 mph24.1 kmh 29.99 in1015.6 mb 0.00 in0.0 mm 0.00 in0.0 mm 0.09 in2.3 mm
04:09 PM 49.8°F9.9°C 42.2°F5.7°C 75% 12.2 mph WSW19.6 kmh WSW 15.0 mph24.1 kmh 29.99 in1015.6 mb 0.00 in0.0 mm 0.00 in0.0 mm 0.09 in2.3 mm
04:10 PM 50.0°F10.0°C 42.0°F5.6°C 74% 9.5 mph WSW15.3 kmh WSW 15.0 mph24.1 kmh 30.00 in1015.9 mb 0.00 in0.0 mm 0.00 in0.0 mm 0.09 in2.3 mm
04:11 PM 50.1°F10.1°C 42.1°F5.6°C 74% 15.5 mph WSW24.9 kmh WSW 20.0 mph32.2 kmh 30.00 in1015.9 mb 0.00 in0.0 mm 0.00 in0.0 mm 0.09 in2.3 mm
04:12 PM 50.1°F10.1°C 41.4°F5.2°C 72% 19.1 mph WSW30.7 kmh WSW 21.0 mph33.8 kmh 30.00 in1015.9 mb 0.00 in0.0 mm 0.00 in0.0 mm 0.09 in2.3 mm
04:13 PM 50.0°F10.0°C 41.3°F5.2°C 72% 17.5 mph WSW28.2 kmh WSW 21.0 mph33.8 kmh 30.00 in1015.9 mb 0.00 in0.0 mm 0.00 in0.0 mm 0.09 in2.3 mm
04:14 PM 50.0°F10.0°C 41.3°F5.2°C 72% 14.4 mph WSW23.2 kmh WSW 19.0 mph30.6 kmh 30.00 in1015.9 mb 0.00 in0.0 mm 0.00 in0.0 mm 0.09 in2.3 mm
04:15 PM 50.0°F10.0°C 41.3°F5.2°C 72% 14.5 mph WSW23.3 kmh WSW 17.0 mph27.4 kmh 30.00 in1015.9 mb 0.00 in0.0 mm 0.00 in0.0 mm 0.09 in2.3 mm
04:16 PM 49.9°F9.9°C 41.2°F5.1°C 72% 14.2 mph WSW22.9 kmh WSW 16.0 mph25.7 kmh 30.00 in1015.9 mb 0.00 in0.0 mm 0.00 in0.0 mm 0.09 in2.3 mm
04:17 PM 50.0°F10.0°C 41.7°F5.4°C 73% 12.2 mph WSW19.6 kmh WSW 16.0 mph25.7 kmh 30.00 in1015.9 mb 0.00 in0.0 mm 0.00 in0.0 mm 0.09 in2.3 mm
04:18 PM 50.0°F10.0°C 42.0°F5.6°C 74% 14.7 mph WSW23.7 kmh WSW 17.0 mph27.4 kmh 30.00 in1015.9 mb 0.00 in0.0 mm 0.00 in0.0 mm 0.09 in2.3 mm
04:19 PM 50.0°F10.0°C 41.7°F5.4°C 73% 16.0 mph WSW25.7 kmh WSW 18.0 mph29.0 kmh 30.00 in1015.9 mb 0.00 in0.0 mm 0.00 in0.0 mm 0.09 in2.3 mm
04:20 PM 50.0°F10.0°C 41.3°F5.2°C 72% 15.9 mph WSW25.6 kmh WSW 19.0 mph30.6 kmh 30.00 in1015.9 mb 0.00 in0.0 mm 0.00 in0.0 mm 0.09 in2.3 mm
04:21 PM 50.0°F10.0°C 41.3°F5.2°C 72% 16.7 mph WSW26.9 kmh WSW 19.0 mph30.6 kmh 30.00 in1015.9 mb 0.00 in0.0 mm 0.00 in0.0 mm 0.09 in2.3 mm
04:22 PM 50.0°F10.0°C 41.3°F5.2°C 72% 13.5 mph WSW21.7 kmh WSW 19.0 mph30.6 kmh 30.00 in1015.9 mb 0.00 in0.0 mm 0.00 in0.0 mm 0.09 in2.3 mm
04:23 PM 50.1°F10.1°C 41.8°F5.4°C 73% 14.9 mph WSW24.0 kmh WSW 17.0 mph27.4 kmh 30.00 in1015.9 mb 0.00 in0.0 mm 0.00 in0.0 mm 0.09 in2.3 mm
04:24 PM 50.2°F10.1°C 42.2°F5.7°C 74% 13.5 mph WSW21.7 kmh WSW 17.0 mph27.4 kmh 30.00 in1015.9 mb 0.00 in0.0 mm 0.00 in0.0 mm 0.09 in2.3 mm
04:25 PM 50.3°F10.2°C 42.3°F5.7°C 74% 11.6 mph WSW18.7 kmh WSW 15.0 mph24.1 kmh 30.00 in1015.9 mb 0.00 in0.0 mm 0.00 in0.0 mm 0.09 in2.3 mm
04:26 PM 50.2°F10.1°C 42.2°F5.7°C 74% 12.5 mph WSW20.1 kmh WSW 14.0 mph22.5 kmh 30.00 in1015.9 mb 0.00 in0.0 mm 0.00 in0.0 mm 0.09 in2.3 mm
04:27 PM 50.3°F10.2°C 42.0°F5.6°C 73% 11.8 mph W19.0 kmh W 14.0 mph22.5 kmh 30.00 in1015.9 mb 0.00 in0.0 mm 0.00 in0.0 mm 0.09 in2.3 mm
04:28 PM 50.4°F10.2°C 42.1°F5.6°C 73% 12.6 mph WSW20.3 kmh WSW 16.0 mph25.7 kmh 30.00 in1015.9 mb 0.00 in0.0 mm 0.00 in0.0 mm 0.09 in2.3 mm
04:29 PM 50.5°F10.3°C 42.2°F5.7°C 73% 10.7 mph W17.2 kmh W 16.0 mph25.7 kmh 30.01 in1016.3 mb 0.00 in0.0 mm 0.00 in0.0 mm 0.09 in2.3 mm
04:30 PM 50.4°F10.2°C 42.4°F5.8°C 74% 12.5 mph WSW20.1 kmh WSW 15.0 mph24.1 kmh 30.00 in1015.9 mb 0.00 in0.0 mm 0.00 in0.0 mm 0.09 in2.3 mm
04:31 PM 50.4°F10.2°C 42.4°F5.8°C 74% 15.3 mph WSW24.6 kmh WSW 17.0 mph27.4 kmh 30.00 in1015.9 mb 0.00 in0.0 mm 0.00 in0.0 mm 0.09 in2.3 mm
04:32 PM 50.2°F10.1°C 41.9°F5.5°C 73% 14.4 mph WSW23.2 kmh WSW 17.0 mph27.4 kmh 30.00 in1015.9 mb 0.00 in0.0 mm 0.00 in0.0 mm 0.09 in2.3 mm
04:33 PM 50.2°F10.1°C 42.2°F5.7°C 74% 15.4 mph WSW24.8 kmh WSW 19.0 mph30.6 kmh 30.00 in1015.9 mb 0.00 in0.0 mm 0.00 in0.0 mm 0.09 in2.3 mm
04:34 PM 50.2°F10.1°C 42.2°F5.7°C 74% 13.8 mph WSW22.2 kmh WSW 19.0 mph30.6 kmh 30.01 in1016.3 mb 0.00 in0.0 mm 0.00 in0.0 mm 0.09 in2.3 mm
04:35 PM 50.2°F10.1°C 42.2°F5.7°C 74% 12.9 mph W20.8 kmh W 17.0 mph27.4 kmh 30.00 in1015.9 mb 0.00 in0.0 mm 0.00 in0.0 mm 0.09 in2.3 mm
04:36 PM 50.2°F10.1°C 42.6°F5.9°C 75% 12.9 mph W20.8 kmh W 17.0 mph27.4 kmh 30.01 in1016.3 mb 0.00 in0.0 mm 0.00 in0.0 mm 0.09 in2.3 mm
04:37 PM 50.1°F10.1°C 42.5°F5.8°C 75% 12.8 mph WSW20.6 kmh WSW 17.0 mph27.4 kmh 30.00 in1015.9 mb 0.00 in0.0 mm 0.00 in0.0 mm 0.09 in2.3 mm
04:38 PM 50.2°F10.1°C 42.2°F5.7°C 74% 11.4 mph W18.3 kmh W 16.0 mph25.7 kmh 30.00 in1015.9 mb 0.00 in0.0 mm 0.00 in0.0 mm 0.09 in2.3 mm
04:39 PM 50.3°F10.2°C 42.3°F5.7°C 74% 11.1 mph W17.9 kmh W 14.0 mph22.5 kmh 30.00 in1015.9 mb 0.00 in0.0 mm 0.00 in0.0 mm 0.09 in2.3 mm
04:40 PM 50.4°F10.2°C 42.4°F5.8°C 74% 13.9 mph WSW22.4 kmh WSW 18.0 mph29.0 kmh 30.00 in1015.9 mb 0.00 in0.0 mm 0.00 in0.0 mm 0.09 in2.3 mm
04:41 PM 50.4°F10.2°C 42.1°F5.6°C 73% 14.8 mph W23.8 kmh W 18.0 mph29.0 kmh 30.00 in1015.9 mb 0.00 in0.0 mm 0.00 in0.0 mm 0.09 in2.3 mm
04:42 PM 50.4°F10.2°C 41.7°F5.4°C 72% 14.5 mph W23.3 kmh W 18.0 mph29.0 kmh 30.00 in1015.9 mb 0.00 in0.0 mm 0.00 in0.0 mm 0.09 in2.3 mm
04:43 PM 50.3°F10.2°C 42.0°F5.6°C 73% 15.4 mph W24.8 kmh W 18.0 mph29.0 kmh 30.00 in1015.9 mb 0.00 in0.0 mm 0.00 in0.0 mm 0.09 in2.3 mm
04:44 PM 50.3°F10.2°C 41.6°F5.3°C 72% 15.2 mph WSW24.5 kmh WSW 18.0 mph29.0 kmh 30.01 in1016.3 mb 0.00 in0.0 mm 0.00 in0.0 mm 0.09 in2.3 mm
04:45 PM 50.2°F10.1°C 41.5°F5.3°C 72% 15.8 mph WSW25.4 kmh WSW 18.0 mph29.0 kmh 30.00 in1015.9 mb 0.00 in0.0 mm 0.00 in0.0 mm 0.09 in2.3 mm
04:46 PM 50.2°F10.1°C 41.5°F5.3°C 72% 16.5 mph WSW26.6 kmh WSW 19.0 mph30.6 kmh 30.01 in1016.3 mb 0.00 in0.0 mm 0.00 in0.0 mm 0.09 in2.3 mm
04:47 PM 50.1°F10.1°C 41.4°F5.2°C 72% 16.5 mph WSW26.6 kmh WSW 19.0 mph30.6 kmh 30.01 in1016.3 mb 0.00 in0.0 mm 0.00 in0.0 mm 0.09 in2.3 mm
04:48 PM 49.9°F9.9°C 41.2°F5.1°C 72% 16.2 mph WSW26.1 kmh WSW 19.0 mph30.6 kmh 30.01 in1016.3 mb 0.00 in0.0 mm 0.00 in0.0 mm 0.09 in2.3 mm
04:49 PM 49.9°F9.9°C 41.6°F5.3°C 73% 16.3 mph WSW26.2 kmh WSW 19.0 mph30.6 kmh 30.01 in1016.3 mb 0.00 in0.0 mm 0.00 in0.0 mm 0.09 in2.3 mm
04:50 PM 49.9°F9.9°C 41.6°F5.3°C 73% 17.5 mph WSW28.2 kmh WSW 19.0 mph30.6 kmh 30.01 in1016.3 mb 0.00 in0.0 mm 0.00 in0.0 mm 0.09 in2.3 mm
04:51 PM 49.9°F9.9°C 41.6°F5.3°C 73% 16.0 mph WSW25.7 kmh WSW 19.0 mph30.6 kmh 30.01 in1016.3 mb 0.00 in0.0 mm 0.00 in0.0 mm 0.09 in2.3 mm
04:52 PM 49.9°F9.9°C 41.6°F5.3°C 73% 14.5 mph W23.3 kmh W 19.0 mph30.6 kmh 30.01 in1016.3 mb 0.00 in0.0 mm 0.00 in0.0 mm 0.09 in2.3 mm
04:53 PM 50.1°F10.1°C 42.1°F5.6°C 74% 14.3 mph WSW23.0 kmh WSW 18.0 mph29.0 kmh 30.01 in1016.3 mb 0.00 in0.0 mm 0.00 in0.0 mm 0.09 in2.3 mm
04:54 PM 50.0°F10.0°C 41.3°F5.2°C 72% 16.3 mph WSW26.2 kmh WSW 18.0 mph29.0 kmh 30.01 in1016.3 mb 0.00 in0.0 mm 0.00 in0.0 mm 0.09 in2.3 mm
04:55 PM 50.1°F10.1°C 41.8°F5.4°C 73% 17.4 mph WSW28.0 kmh WSW 19.0 mph30.6 kmh 30.01 in1016.3 mb 0.00 in0.0 mm 0.00 in0.0 mm 0.09 in2.3 mm
04:56 PM 50.1°F10.1°C 41.4°F5.2°C 72% 15.3 mph W24.6 kmh W 19.0 mph30.6 kmh 30.01 in1016.3 mb 0.00 in0.0 mm 0.00 in0.0 mm 0.09 in2.3 mm
04:57 PM 50.1°F10.1°C 41.8°F5.4°C 73% 13.9 mph W22.4 kmh W 17.0 mph27.4 kmh 30.01 in1016.3 mb 0.00 in0.0 mm 0.00 in0.0 mm 0.09 in2.3 mm
04:58 PM 50.1°F10.1°C 41.4°F5.2°C 72% 13.5 mph W21.7 kmh W 17.0 mph27.4 kmh 30.01 in1016.3 mb 0.00 in0.0 mm 0.00 in0.0 mm 0.09 in2.3 mm
04:59 PM 50.0°F10.0°C 41.3°F5.2°C 72% 12.7 mph W20.4 kmh W 17.0 mph27.4 kmh 30.01 in1016.3 mb 0.00 in0.0 mm 0.00 in0.0 mm 0.09 in2.3 mm
05:00 PM 50.1°F10.1°C 41.4°F5.2°C 72% 13.2 mph W21.2 kmh W 15.0 mph24.1 kmh 30.01 in1016.3 mb 0.00 in0.0 mm 0.00 in0.0 mm 0.09 in2.3 mm
05:01 PM 50.1°F10.1°C 41.1°F5.1°C 71% 17.1 mph WSW27.5 kmh WSW 19.0 mph30.6 kmh 30.01 in1016.3 mb 0.00 in0.0 mm 0.00 in0.0 mm 0.09 in2.3 mm
05:02 PM 50.1°F10.1°C 41.1°F5.1°C 71% 13.8 mph W22.2 kmh W 19.0 mph30.6 kmh 30.02 in1016.6 mb 0.00 in0.0 mm 0.00 in0.0 mm 0.09 in2.3 mm
05:03 PM 50.1°F10.1°C 41.1°F5.1°C 71% 11.6 mph W18.7 kmh W 16.0 mph25.7 kmh 30.01 in1016.3 mb 0.00 in0.0 mm 0.00 in0.0 mm 0.09 in2.3 mm
05:04 PM 50.2°F10.1°C 41.5°F5.3°C 72% 13.2 mph W21.2 kmh W 18.0 mph29.0 kmh 30.02 in1016.6 mb 0.00 in0.0 mm 0.00 in0.0 mm 0.09 in2.3 mm
05:05 PM 50.2°F10.1°C 40.8°F4.9°C 70% 14.3 mph W23.0 kmh W 18.0 mph29.0 kmh 30.02 in1016.6 mb 0.00 in0.0 mm 0.00 in0.0 mm 0.09 in2.3 mm
05:06 PM 50.3°F10.2°C 40.9°F4.9°C 70% 14.3 mph W23.0 kmh W 20.0 mph32.2 kmh 30.02 in1016.6 mb 0.00 in0.0 mm 0.00 in0.0 mm 0.09 in2.3 mm
05:07 PM 50.3°F10.2°C 40.9°F4.9°C 70% 12.4 mph W20.0 kmh W 20.0 mph32.2 kmh 30.02 in1016.6 mb 0.00 in0.0 mm 0.00 in0.0 mm 0.09 in2.3 mm
05:08 PM 50.3°F10.2°C 40.5°F4.7°C 69% 13.2 mph W21.2 kmh W 16.0 mph25.7 kmh 30.02 in1016.6 mb 0.00 in0.0 mm 0.00 in0.0 mm 0.09 in2.3 mm
05:09 PM 50.3°F10.2°C 39.8°F4.3°C 67% 15.5 mph W24.9 kmh W 18.0 mph29.0 kmh 30.02 in1016.6 mb 0.00 in0.0 mm 0.00 in0.0 mm 0.09 in2.3 mm
05:10 PM 50.3°F10.2°C 40.1°F4.5°C 68% 15.5 mph W24.9 kmh W 20.0 mph32.2 kmh 30.02 in1016.6 mb 0.00 in0.0 mm 0.00 in0.0 mm 0.09 in2.3 mm
05:11 PM 50.2°F10.1°C 40.4°F4.7°C 69% 16.2 mph W26.1 kmh W 20.0 mph32.2 kmh 30.02 in1016.6 mb 0.00 in0.0 mm 0.00 in0.0 mm 0.09 in2.3 mm
05:12 PM 50.2°F10.1°C 39.7°F4.3°C 67% 13.5 mph W21.7 kmh W 18.0 mph29.0 kmh 30.02 in1016.6 mb 0.00 in0.0 mm 0.00 in0.0 mm 0.09 in2.3 mm
05:13 PM 50.1°F10.1°C 40.0°F4.4°C 68% 15.0 mph W24.1 kmh W 17.0 mph27.4 kmh 30.02 in1016.6 mb 0.00 in0.0 mm 0.00 in0.0 mm 0.09 in2.3 mm
05:14 PM 50.1°F10.1°C 39.6°F4.2°C 67% 14.9 mph W24.0 kmh W 18.0 mph29.0 kmh 30.02 in1016.6 mb 0.00 in0.0 mm 0.00 in0.0 mm 0.09 in2.3 mm
05:15 PM 50.2°F10.1°C 40.4°F4.7°C 69% 13.5 mph W21.7 kmh W 17.0 mph27.4 kmh 30.02 in1016.6 mb 0.00 in0.0 mm 0.00 in0.0 mm 0.09 in2.3 mm
05:16 PM 50.2°F10.1°C 40.1°F4.5°C 68% 14.2 mph W22.9 kmh W 18.0 mph29.0 kmh 30.02 in1016.6 mb 0.00 in0.0 mm 0.00 in0.0 mm 0.09 in2.3 mm
05:17 PM 50.1°F10.1°C 40.0°F4.4°C 68% 16.0 mph W25.7 kmh W 19.0 mph30.6 kmh 30.02 in1016.6 mb 0.00 in0.0 mm 0.00 in0.0 mm 0.09 in2.3 mm
05:18 PM 49.9°F9.9°C 39.8°F4.3°C 68% 15.3 mph WNW24.6 kmh WNW 19.0 mph30.6 kmh 30.02 in1016.6 mb 0.00 in0.0 mm 0.00 in0.0 mm 0.09 in2.3 mm
05:19 PM 49.9°F9.9°C 40.5°F4.7°C 70% 13.1 mph WNW21.1 kmh WNW 18.0 mph29.0 kmh 30.02 in1016.6 mb 0.00 in0.0 mm 0.00 in0.0 mm 0.09 in2.3 mm
05:20 PM 49.9°F9.9°C 40.9°F4.9°C 71% 14.5 mph WNW23.3 kmh WNW 17.0 mph27.4 kmh 30.02 in1016.6 mb 0.00 in0.0 mm 0.00 in0.0 mm 0.09 in2.3 mm
05:21 PM 50.0°F10.0°C 41.0°F5.0°C 71% 11.1 mph WNW17.9 kmh WNW 17.0 mph27.4 kmh 30.02 in1016.6 mb 0.00 in0.0 mm 0.00 in0.0 mm 0.09 in2.3 mm
05:22 PM 50.0°F10.0°C 41.0°F5.0°C 71% 11.0 mph WNW17.7 kmh WNW 13.0 mph20.9 kmh 30.02 in1016.6 mb 0.00 in0.0 mm 0.00 in0.0 mm 0.09 in2.3 mm
05:23 PM 50.0°F10.0°C 40.2°F4.6°C 69% 13.5 mph WNW21.7 kmh WNW 15.0 mph24.1 kmh 30.02 in1016.6 mb 0.00 in0.0 mm 0.00 in0.0 mm 0.09 in2.3 mm
05:24 PM 50.2°F10.1°C 40.8°F4.9°C 70% 13.5 mph W21.7 kmh W 18.0 mph29.0 kmh 30.02 in1016.6 mb 0.00 in0.0 mm 0.00 in0.0 mm 0.09 in2.3 mm
05:25 PM 50.2°F10.1°C 40.4°F4.7°C 69% 16.3 mph W26.2 kmh W 18.0 mph29.0 kmh 30.02 in1016.6 mb 0.00 in0.0 mm 0.00 in0.0 mm 0.09 in2.3 mm
05:26 PM 50.2°F10.1°C 40.4°F4.7°C 69% 15.1 mph W24.3 kmh W 18.0 mph29.0 kmh 30.02 in1016.6 mb 0.00 in0.0 mm 0.00 in0.0 mm 0.09 in2.3 mm
05:27 PM 50.2°F10.1°C 40.1°F4.5°C 68% 14.9 mph W24.0 kmh W 18.0 mph29.0 kmh 30.02 in1016.6 mb 0.00 in0.0 mm 0.00 in0.0 mm 0.09 in2.3 mm
05:28 PM 50.3°F10.2°C 39.8°F4.3°C 67% 13.6 mph W21.9 kmh W 18.0 mph29.0 kmh 30.02 in1016.6 mb 0.00 in0.0 mm 0.00 in0.0 mm 0.09 in2.3 mm
05:29 PM 50.3°F10.2°C 40.1°F4.5°C 68% 14.4 mph W23.2 kmh W 17.0 mph27.4 kmh 30.02 in1016.6 mb 0.00 in0.0 mm 0.00 in0.0 mm 0.09 in2.3 mm
05:30 PM 50.3°F10.2°C 40.5°F4.7°C 69% 10.5 mph W16.9 kmh W 17.0 mph27.4 kmh 30.02 in1016.6 mb 0.00 in0.0 mm 0.00 in0.0 mm 0.09 in2.3 mm
05:31 PM 50.4°F10.2°C 40.6°F4.8°C 69% 13.1 mph W21.1 kmh W 16.0 mph25.7 kmh 30.02 in1016.6 mb 0.00 in0.0 mm 0.00 in0.0 mm 0.09 in2.3 mm
05:32 PM 50.4°F10.2°C 40.2°F4.6°C 68% 11.9 mph W19.2 kmh W 16.0 mph25.7 kmh 30.02 in1016.6 mb 0.00 in0.0 mm 0.00 in0.0 mm 0.09 in2.3 mm
05:33 PM 50.4°F10.2°C 40.2°F4.6°C 68% 13.3 mph W21.4 kmh W 15.0 mph24.1 kmh 30.02 in1016.6 mb 0.00 in0.0 mm 0.00 in0.0 mm 0.09 in2.3 mm
05:34 PM 50.4°F10.2°C 40.2°F4.6°C 68% 13.2 mph W21.2 kmh W 16.0 mph25.7 kmh 30.02 in1016.6 mb 0.00 in0.0 mm 0.00 in0.0 mm 0.09 in2.3 mm
05:35 PM 50.4°F10.2°C 40.2°F4.6°C 68% 14.6 mph WSW23.5 kmh WSW 17.0 mph27.4 kmh 30.02 in1016.6 mb 0.00 in0.0 mm 0.00 in0.0 mm 0.09 in2.3 mm
05:36 PM 50.4°F10.2°C 39.9°F4.4°C 67% 15.9 mph W25.6 kmh W 18.0 mph29.0 kmh 30.02 in1016.6 mb 0.00 in0.0 mm 0.00 in0.0 mm 0.09 in2.3 mm
05:37 PM 50.3°F10.2°C 40.1°F4.5°C 68% 14.0 mph W22.5 kmh W 18.0 mph29.0 kmh 30.03 in1016.9 mb 0.00 in0.0 mm 0.00 in0.0 mm 0.09 in2.3 mm
05:38 PM 50.2°F10.1°C 39.7°F4.3°C 67% 12.7 mph W20.4 kmh W 17.0 mph27.4 kmh 30.03 in1016.9 mb 0.00 in0.0 mm 0.00 in0.0 mm 0.09 in2.3 mm
05:39 PM 50.3°F10.2°C 40.5°F4.7°C 69% 11.2 mph W18.0 kmh W 15.0 mph24.1 kmh 30.02 in1016.6 mb 0.00 in0.0 mm 0.00 in0.0 mm 0.09 in2.3 mm
05:40 PM 50.3°F10.2°C 40.5°F4.7°C 69% 13.8 mph W22.2 kmh W 17.0 mph27.4 kmh 30.03 in1016.9 mb 0.00 in0.0 mm 0.00 in0.0 mm 0.09 in2.3 mm
05:41 PM 50.3°F10.2°C 40.1°F4.5°C 68% 13.4 mph W21.6 kmh W 17.0 mph27.4 kmh 30.03 in1016.9 mb 0.00 in0.0 mm 0.00 in0.0 mm 0.09 in2.3 mm
05:42 PM 50.3°F10.2°C 40.1°F4.5°C 68% 12.7 mph W20.4 kmh W 16.0 mph25.7 kmh 30.03 in1016.9 mb 0.00 in0.0 mm 0.00 in0.0 mm 0.09 in2.3 mm
05:43 PM 50.3°F10.2°C 40.1°F4.5°C 68% 12.3 mph W19.8 kmh W 16.0 mph25.7 kmh 30.03 in1016.9 mb 0.00 in0.0 mm 0.00 in0.0 mm 0.09 in2.3 mm
05:44 PM 50.3°F10.2°C 40.1°F4.5°C 68% 14.5 mph WSW23.3 kmh WSW 17.0 mph27.4 kmh 30.03 in1016.9 mb 0.00 in0.0 mm 0.00 in0.0 mm 0.09 in2.3 mm
05:45 PM 50.2°F10.1°C 40.1°F4.5°C 68% 16.2 mph WSW26.1 kmh WSW 18.0 mph29.0 kmh 30.03 in1016.9 mb 0.00 in0.0 mm 0.00 in0.0 mm 0.09 in2.3 mm
05:46 PM 50.2°F10.1°C 40.1°F4.5°C 68% 15.4 mph WSW24.8 kmh WSW 18.0 mph29.0 kmh 30.03 in1016.9 mb 0.00 in0.0 mm 0.00 in0.0 mm 0.09 in2.3 mm
05:47 PM 50.1°F10.1°C 40.0°F4.4°C 68% 15.2 mph WSW24.5 kmh WSW 18.0 mph29.0 kmh 30.03 in1016.9 mb 0.00 in0.0 mm 0.00 in0.0 mm 0.09 in2.3 mm
05:48 PM 50.1°F10.1°C 40.3°F4.6°C 69% 13.6 mph W21.9 kmh W 18.0 mph29.0 kmh 30.03 in1016.9 mb 0.00 in0.0 mm 0.00 in0.0 mm 0.09 in2.3 mm
05:49 PM 50.2°F10.1°C 40.4°F4.7°C 69% 12.2 mph W19.6 kmh W 16.0 mph25.7 kmh 30.03 in1016.9 mb 0.00 in0.0 mm 0.00 in0.0 mm 0.09 in2.3 mm
05:50 PM 50.2°F10.1°C 40.1°F4.5°C 68% 11.9 mph WNW19.2 kmh WNW 15.0 mph24.1 kmh 30.03 in1016.9 mb 0.00 in0.0 mm 0.00 in0.0 mm 0.09 in2.3 mm
05:51 PM 50.2°F10.1°C 40.1°F4.5°C 68% 13.6 mph WNW21.9 kmh WNW 19.0 mph30.6 kmh 30.03 in1016.9 mb 0.00 in0.0 mm 0.00 in0.0 mm 0.09 in2.3 mm
05:52 PM 50.1°F10.1°C 39.6°F4.2°C 67% 14.5 mph WNW23.3 kmh WNW 19.0 mph30.6 kmh 30.03 in1016.9 mb 0.00 in0.0 mm 0.00 in0.0 mm 0.09 in2.3 mm
05:53 PM 50.1°F10.1°C 40.0°F4.4°C 68% 14.1 mph W22.7 kmh W 17.0 mph27.4 kmh 30.03 in1016.9 mb 0.00 in0.0 mm 0.00 in0.0 mm 0.09 in2.3 mm
05:54 PM 50.1°F10.1°C 40.0°F4.4°C 68% 12.0 mph WNW19.3 kmh WNW 17.0 mph27.4 kmh 30.03 in1016.9 mb 0.00 in0.0 mm 0.00 in0.0 mm 0.09 in2.3 mm
05:55 PM 50.0°F10.0°C 39.9°F4.4°C 68% 14.4 mph WNW23.2 kmh WNW 17.0 mph27.4 kmh 30.03 in1016.9 mb 0.00 in0.0 mm 0.00 in0.0 mm 0.09 in2.3 mm
05:56 PM 50.0°F10.0°C 39.9°F4.4°C 68% 12.5 mph W20.1 kmh W 17.0 mph27.4 kmh 30.03 in1016.9 mb 0.00 in0.0 mm 0.00 in0.0 mm 0.09 in2.3 mm
05:57 PM 50.1°F10.1°C 40.3°F4.6°C 69% 12.6 mph W20.3 kmh W 16.0 mph25.7 kmh 30.03 in1016.9 mb 0.00 in0.0 mm 0.00 in0.0 mm 0.09 in2.3 mm
05:58 PM 50.1°F10.1°C 40.0°F4.4°C 68% 12.7 mph W20.4 kmh W 15.0 mph24.1 kmh 30.03 in1016.9 mb 0.00 in0.0 mm 0.00 in0.0 mm 0.09 in2.3 mm
05:59 PM 50.1°F10.1°C 40.0°F4.4°C 68% 13.5 mph WSW21.7 kmh WSW 15.0 mph24.1 kmh 30.03 in1016.9 mb 0.00 in0.0 mm 0.00 in0.0 mm 0.09 in2.3 mm
06:00 PM 50.1°F10.1°C 40.3°F4.6°C 69% 15.4 mph W24.8 kmh W 20.0 mph32.2 kmh 30.03 in1016.9 mb 0.00 in0.0 mm 0.00 in0.0 mm 0.09 in2.3 mm
06:01 PM 50.1°F10.1°C 39.6°F4.2°C 67% 14.6 mph W23.5 kmh W 20.0 mph32.2 kmh 30.03 in1016.9 mb 0.00 in0.0 mm 0.00 in0.0 mm 0.09 in2.3 mm
06:02 PM 49.9°F9.9°C 39.8°F4.3°C 68% 13.2 mph W21.2 kmh W 17.0 mph27.4 kmh 30.03 in1016.9 mb 0.00 in0.0 mm 0.00 in0.0 mm 0.09 in2.3 mm
06:03 PM 49.9°F9.9°C 39.4°F4.1°C 67% 12.5 mph W20.1 kmh W 16.0 mph25.7 kmh 30.03 in1016.9 mb 0.00 in0.0 mm 0.00 in0.0 mm 0.09 in2.3 mm
06:04 PM 49.9°F9.9°C 39.4°F4.1°C 67% 11.9 mph W19.2 kmh W 14.0 mph22.5 kmh 30.03 in1016.9 mb 0.00 in0.0 mm 0.00 in0.0 mm 0.09 in2.3 mm
06:05 PM 49.9°F9.9°C 39.4°F4.1°C 67% 12.4 mph W20.0 kmh W 15.0 mph24.1 kmh 30.03 in1016.9 mb 0.00 in0.0 mm 0.00 in0.0 mm 0.09 in2.3 mm
06:06 PM 49.8°F9.9°C 39.7°F4.3°C 68% 11.8 mph W19.0 kmh W 15.0 mph24.1 kmh 30.03 in1016.9 mb 0.00 in0.0 mm 0.00 in0.0 mm 0.09 in2.3 mm
06:07 PM 49.9°F9.9°C 39.8°F4.3°C 68% 11.9 mph W19.2 kmh W 15.0 mph24.1 kmh 30.03 in1016.9 mb 0.00 in0.0 mm 0.00 in0.0 mm 0.09 in2.3 mm
06:08 PM 49.9°F9.9°C 39.4°F4.1°C 67% 12.3 mph WSW19.8 kmh WSW 15.0 mph24.1 kmh 30.03 in1016.9 mb 0.00 in0.0 mm 0.00 in0.0 mm 0.09 in2.3 mm
06:09 PM 49.9°F9.9°C 39.4°F4.1°C 67% 12.2 mph W19.6 kmh W 15.0 mph24.1 kmh 30.03 in1016.9 mb 0.00 in0.0 mm 0.00 in0.0 mm 0.09 in2.3 mm
06:10 PM 49.9°F9.9°C 39.4°F4.1°C 67% 12.4 mph W20.0 kmh W 15.0 mph24.1 kmh 30.03 in1016.9 mb 0.00 in0.0 mm 0.00 in0.0 mm 0.09 in2.3 mm
06:11 PM 50.0°F10.0°C 39.5°F4.2°C 67% 12.7 mph W20.4 kmh W 15.0 mph24.1 kmh 30.04 in1017.3 mb 0.00 in0.0 mm 0.00 in0.0 mm 0.09 in2.3 mm
06:12 PM 49.9°F9.9°C 39.8°F4.3°C 68% 12.1 mph W19.5 kmh W 15.0 mph24.1 kmh 30.04 in1017.3 mb 0.00 in0.0 mm 0.00 in0.0 mm 0.09 in2.3 mm
06:13 PM 50.0°F10.0°C 39.9°F4.4°C 68% 11.2 mph W18.0 kmh W 14.0 mph22.5 kmh 30.03 in1016.9 mb 0.00 in0.0 mm 0.00 in0.0 mm 0.09 in2.3 mm
06:14 PM 50.0°F10.0°C 39.5°F4.2°C 67% 11.9 mph W19.2 kmh W 14.0 mph22.5 kmh 30.03 in1016.9 mb 0.00 in0.0 mm 0.00 in0.0 mm 0.09 in2.3 mm
06:15 PM 50.0°F10.0°C 39.9°F4.4°C 68% 12.9 mph W20.8 kmh W 15.0 mph24.1 kmh 30.04 in1017.3 mb 0.00 in0.0 mm 0.00 in0.0 mm 0.09 in2.3 mm
06:16 PM 49.9°F9.9°C 39.4°F4.1°C 67% 13.5 mph W21.7 kmh W 15.0 mph24.1 kmh 30.04 in1017.3 mb 0.00 in0.0 mm 0.00 in0.0 mm 0.09 in2.3 mm
06:17 PM 49.9°F9.9°C 39.0°F3.9°C 66% 14.0 mph W22.5 kmh W 17.0 mph27.4 kmh 30.04 in1017.3 mb 0.00 in0.0 mm 0.00 in0.0 mm 0.09 in2.3 mm
06:18 PM 49.9°F9.9°C 39.4°F4.1°C 67% 12.6 mph W20.3 kmh W 17.0 mph27.4 kmh 30.04 in1017.3 mb 0.00 in0.0 mm 0.00 in0.0 mm 0.09 in2.3 mm
06:19 PM 49.8°F9.9°C 39.3°F4.1°C 67% 13.0 mph W20.9 kmh W 15.0 mph24.1 kmh 30.04 in1017.3 mb 0.00 in0.0 mm 0.00 in0.0 mm 0.09 in2.3 mm
06:20 PM 49.9°F9.9°C 39.8°F4.3°C 68% 10.9 mph W17.5 kmh W 15.0 mph24.1 kmh 30.04 in1017.3 mb 0.00 in0.0 mm 0.00 in0.0 mm 0.09 in2.3 mm
06:21 PM 49.9°F9.9°C 39.4°F4.1°C 67% 11.9 mph W19.2 kmh W 13.0 mph20.9 kmh 30.04 in1017.3 mb 0.00 in0.0 mm 0.00 in0.0 mm 0.09 in2.3 mm
06:22 PM 49.9°F9.9°C 39.4°F4.1°C 67% 12.3 mph W19.8 kmh W 16.0 mph25.7 kmh 30.04 in1017.3 mb 0.00 in0.0 mm 0.00 in0.0 mm 0.09 in2.3 mm
06:23 PM 49.9°F9.9°C 39.8°F4.3°C 68% 12.0 mph W19.3 kmh W 16.0 mph25.7 kmh 30.04 in1017.3 mb 0.00 in0.0 mm 0.00 in0.0 mm 0.09 in2.3 mm
06:24 PM 49.9°F9.9°C 39.4°F4.1°C 67% 13.7 mph WNW22.0 kmh WNW 16.0 mph25.7 kmh 30.04 in1017.3 mb 0.00 in0.0 mm 0.00 in0.0 mm 0.09 in2.3 mm
06:25 PM 49.8°F9.9°C 39.7°F4.3°C 68% 11.5 mph W18.5 kmh W 16.0 mph25.7 kmh 30.04 in1017.3 mb 0.00 in0.0 mm 0.00 in0.0 mm 0.09 in2.3 mm
06:26 PM 49.9°F9.9°C 40.1°F4.5°C 69% 10.7 mph W17.2 kmh W 15.0 mph24.1 kmh 30.04 in1017.3 mb 0.00 in0.0 mm 0.00 in0.0 mm 0.09 in2.3 mm
06:27 PM 49.9°F9.9°C 40.1°F4.5°C 69% 11.7 mph W18.8 kmh W 15.0 mph24.1 kmh 30.04 in1017.3 mb 0.00 in0.0 mm 0.00 in0.0 mm 0.09 in2.3 mm
06:28 PM 49.9°F9.9°C 40.1°F4.5°C 69% 12.8 mph W20.6 kmh W 16.0 mph25.7 kmh 30.04 in1017.3 mb 0.00 in0.0 mm 0.00 in0.0 mm 0.09 in2.3 mm
06:29 PM 49.9°F9.9°C 39.8°F4.3°C 68% 13.8 mph W22.2 kmh W 17.0 mph27.4 kmh 30.04 in1017.3 mb 0.00 in0.0 mm 0.00 in0.0 mm 0.09 in2.3 mm
06:30 PM 49.7°F9.8°C 39.2°F4.0°C 67% 13.2 mph W21.2 kmh W 17.0 mph27.4 kmh 30.04 in1017.3 mb 0.00 in0.0 mm 0.00 in0.0 mm 0.09 in2.3 mm
06:31 PM 49.8°F9.9°C 39.3°F4.1°C 67% 13.9 mph W22.4 kmh W 18.0 mph29.0 kmh 30.04 in1017.3 mb 0.00 in0.0 mm 0.00 in0.0 mm 0.09 in2.3 mm
06:32 PM 49.7°F9.8°C 39.6°F4.2°C 68% 13.3 mph W21.4 kmh W 18.0 mph29.0 kmh 30.04 in1017.3 mb 0.00 in0.0 mm 0.00 in0.0 mm 0.09 in2.3 mm
06:33 PM 49.6°F9.8°C 39.1°F3.9°C 67% 16.1 mph W25.9 kmh W 19.0 mph30.6 kmh 30.04 in1017.3 mb 0.00 in0.0 mm 0.00 in0.0 mm 0.09 in2.3 mm
06:34 PM 49.6°F9.8°C 39.1°F3.9°C 67% 14.9 mph W24.0 kmh W 19.0 mph30.6 kmh 30.04 in1017.3 mb 0.00 in0.0 mm 0.00 in0.0 mm 0.09 in2.3 mm
06:35 PM 49.6°F9.8°C 39.1°F3.9°C 67% 13.7 mph W22.0 kmh W 18.0 mph29.0 kmh 30.05 in1017.6 mb 0.00 in0.0 mm 0.00 in0.0 mm 0.09 in2.3 mm
06:36 PM 49.5°F9.7°C 39.0°F3.9°C 67% 16.4 mph W26.4 kmh W 20.0 mph32.2 kmh 30.05 in1017.6 mb 0.00 in0.0 mm 0.00 in0.0 mm 0.09 in2.3 mm
06:37 PM 49.4°F9.7°C 38.9°F3.8°C 67% 14.3 mph W23.0 kmh W 20.0 mph32.2 kmh 30.05 in1017.6 mb 0.00 in0.0 mm 0.00 in0.0 mm 0.09 in2.3 mm
06:38 PM 49.5°F9.7°C 39.4°F4.1°C 68% 12.1 mph W19.5 kmh W 17.0 mph27.4 kmh 30.05 in1017.6 mb 0.00 in0.0 mm 0.00 in0.0 mm 0.09 in2.3 mm
06:39 PM 49.4°F9.7°C 38.5°F3.6°C 66% 13.6 mph WNW21.9 kmh WNW 16.0 mph25.7 kmh 30.05 in1017.6 mb 0.00 in0.0 mm 0.00 in0.0 mm 0.09 in2.3 mm
06:40 PM 49.4°F9.7°C 38.9°F3.8°C 67% 13.1 mph WNW21.1 kmh WNW 16.0 mph25.7 kmh 30.05 in1017.6 mb 0.00 in0.0 mm 0.00 in0.0 mm 0.09 in2.3 mm
06:41 PM 49.4°F9.7°C 38.9°F3.8°C 67% 12.4 mph W20.0 kmh W 15.0 mph24.1 kmh 30.05 in1017.6 mb 0.00 in0.0 mm 0.00 in0.0 mm 0.09 in2.3 mm
06:42 PM 49.4°F9.7°C 38.9°F3.8°C 67% 13.4 mph W21.6 kmh W 16.0 mph25.7 kmh 30.05 in1017.6 mb 0.00 in0.0 mm 0.00 in0.0 mm 0.09 in2.3 mm
06:43 PM 49.4°F9.7°C 39.3°F4.1°C 68% 12.4 mph W20.0 kmh W 16.0 mph25.7 kmh 30.05 in1017.6 mb 0.00 in0.0 mm 0.00 in0.0 mm 0.09 in2.3 mm
06:44 PM 49.4°F9.7°C 39.3°F4.1°C 68% 13.7 mph W22.0 kmh W 16.0 mph25.7 kmh 30.05 in1017.6 mb 0.00 in0.0 mm 0.00 in0.0 mm 0.09 in2.3 mm
06:45 PM 49.4°F9.7°C 39.7°F4.3°C 69% 11.8 mph W19.0 kmh W 16.0 mph25.7 kmh 30.05 in1017.6 mb 0.00 in0.0 mm 0.00 in0.0 mm 0.09 in2.3 mm
06:46 PM 49.3°F9.6°C 39.9°F4.4°C 70% 12.2 mph W19.6 kmh W 16.0 mph25.7 kmh 30.05 in1017.6 mb 0.00 in0.0 mm 0.00 in0.0 mm 0.09 in2.3 mm
06:47 PM 49.3°F9.6°C 39.9°F4.4°C 70% 14.1 mph W22.7 kmh W 16.0 mph25.7 kmh 30.05 in1017.6 mb 0.00 in0.0 mm 0.00 in0.0 mm 0.09 in2.3 mm
06:48 PM 49.3°F9.6°C 39.9°F4.4°C 70% 11.2 mph W18.0 kmh W 16.0 mph25.7 kmh 30.05 in1017.6 mb 0.00 in0.0 mm 0.00 in0.0 mm 0.09 in2.3 mm
06:49 PM 49.2°F9.6°C 39.8°F4.3°C 70% 11.7 mph W18.8 kmh W 16.0 mph25.7 kmh 30.05 in1017.6 mb 0.00 in0.0 mm 0.00 in0.0 mm 0.09 in2.3 mm
06:50 PM 49.2°F9.6°C 39.5°F4.2°C 69% 13.3 mph W21.4 kmh W 16.0 mph25.7 kmh 30.06 in1017.9 mb 0.00 in0.0 mm 0.00 in0.0 mm 0.09 in2.3 mm
06:51 PM 49.2°F9.6°C 39.5°F4.2°C 69% 13.9 mph W22.4 kmh W 17.0 mph27.4 kmh 30.05 in1017.6 mb 0.00 in0.0 mm 0.00 in0.0 mm 0.09 in2.3 mm
06:52 PM 49.1°F9.5°C 39.4°F4.1°C 69% 12.0 mph W19.3 kmh W 17.0 mph27.4 kmh 30.06 in1017.9 mb 0.00 in0.0 mm 0.00 in0.0 mm 0.09 in2.3 mm
06:53 PM 49.1°F9.5°C 40.1°F4.5°C 71% 12.9 mph W20.8 kmh W 16.0 mph25.7 kmh 30.06 in1017.9 mb 0.00 in0.0 mm 0.00 in0.0 mm 0.09 in2.3 mm
06:54 PM 49.0°F9.4°C 39.6°F4.2°C 70% 14.5 mph W23.3 kmh W 18.0 mph29.0 kmh 30.06 in1017.9 mb 0.00 in0.0 mm 0.00 in0.0 mm 0.09 in2.3 mm
06:55 PM 48.9°F9.4°C 39.2°F4.0°C 69% 15.4 mph W24.8 kmh W 18.0 mph29.0 kmh 30.06 in1017.9 mb 0.00 in0.0 mm 0.00 in0.0 mm 0.09 in2.3 mm
06:56 PM 48.8°F9.3°C 39.5°F4.2°C 70% 14.3 mph W23.0 kmh W 18.0 mph29.0 kmh 30.06 in1017.9 mb 0.00 in0.0 mm 0.00 in0.0 mm 0.09 in2.3 mm
06:57 PM 48.8°F9.3°C 39.1°F3.9°C 69% 13.7 mph W22.0 kmh W 18.0 mph29.0 kmh 30.06 in1017.9 mb 0.00 in0.0 mm 0.00 in0.0 mm 0.09 in2.3 mm
06:58 PM 48.8°F9.3°C 39.1°F3.9°C 69% 12.1 mph W19.5 kmh W 15.0 mph24.1 kmh 30.06 in1017.9 mb 0.00 in0.0 mm 0.00 in0.0 mm 0.09 in2.3 mm
06:59 PM 48.8°F9.3°C 39.5°F4.2°C 70% 13.4 mph W21.6 kmh W 15.0 mph24.1 kmh 30.06 in1017.9 mb 0.00 in0.0 mm 0.00 in0.0 mm 0.09 in2.3 mm
07:00 PM 48.7°F9.3°C 39.4°F4.1°C 70% 10.8 mph W17.4 kmh W 15.0 mph24.1 kmh 30.06 in1017.9 mb 0.00 in0.0 mm 0.00 in0.0 mm 0.09 in2.3 mm
07:01 PM 48.7°F9.3°C 39.7°F4.3°C 71% 12.8 mph W20.6 kmh W 16.0 mph25.7 kmh 30.06 in1017.9 mb 0.00 in0.0 mm 0.00 in0.0 mm 0.09 in2.3 mm
07:02 PM 48.7°F9.3°C 39.7°F4.3°C 71% 11.2 mph W18.0 kmh W 16.0 mph25.7 kmh 30.06 in1017.9 mb 0.00 in0.0 mm 0.00 in0.0 mm 0.09 in2.3 mm
07:03 PM 48.7°F9.3°C 39.7°F4.3°C 71% 13.5 mph W21.7 kmh W 15.0 mph24.1 kmh 30.06 in1017.9 mb 0.00 in0.0 mm 0.00 in0.0 mm 0.09 in2.3 mm
07:04 PM 48.7°F9.3°C 39.7°F4.3°C 71% 13.2 mph W21.2 kmh W 16.0 mph25.7 kmh 30.06 in1017.9 mb 0.00 in0.0 mm 0.00 in0.0 mm 0.09 in2.3 mm
07:05 PM 48.7°F9.3°C 40.1°F4.5°C 72% 12.9 mph W20.8 kmh W 16.0 mph25.7 kmh 30.06 in1017.9 mb 0.00 in0.0 mm 0.00 in0.0 mm 0.09 in2.3 mm
07:06 PM 48.6°F9.2°C 39.6°F4.2°C 71% 13.6 mph W21.9 kmh W 15.0 mph24.1 kmh 30.06 in1017.9 mb 0.00 in0.0 mm 0.00 in0.0 mm 0.09 in2.3 mm
07:07 PM 48.5°F9.2°C 39.5°F4.2°C 71% 11.9 mph W19.2 kmh W 15.0 mph24.1 kmh 30.06 in1017.9 mb 0.00 in0.0 mm 0.00 in0.0 mm 0.09 in2.3 mm
07:08 PM 48.5°F9.2°C 39.9°F4.4°C 72% 11.5 mph W18.5 kmh W 16.0 mph25.7 kmh 30.06 in1017.9 mb 0.00 in0.0 mm 0.00 in0.0 mm 0.09 in2.3 mm
07:09 PM 48.4°F9.1°C 39.4°F4.1°C 71% 13.0 mph W20.9 kmh W 16.0 mph25.7 kmh 30.06 in1017.9 mb 0.00 in0.0 mm 0.00 in0.0 mm 0.09 in2.3 mm
07:10 PM 48.3°F9.1°C 39.3°F4.1°C 71% 13.8 mph W22.2 kmh W 17.0 mph27.4 kmh 30.06 in1017.9 mb 0.00 in0.0 mm 0.00 in0.0 mm 0.09 in2.3 mm
07:11 PM 48.2°F9.0°C 39.2°F4.0°C 71% 13.7 mph W22.0 kmh W 17.0 mph27.4 kmh 30.07 in1018.3 mb 0.00 in0.0 mm 0.00 in0.0 mm 0.09 in2.3 mm
07:12 PM 48.3°F9.1°C 39.3°F4.1°C 71% 12.2 mph W19.6 kmh W 17.0 mph27.4 kmh 30.07 in1018.3 mb 0.00 in0.0 mm 0.00 in0.0 mm 0.09 in2.3 mm
07:13 PM 48.2°F9.0°C 39.2°F4.0°C 71% 14.0 mph W22.5 kmh W 17.0 mph27.4 kmh 30.07 in1018.3 mb 0.00 in0.0 mm 0.00 in0.0 mm 0.09 in2.3 mm
07:14 PM 48.2°F9.0°C 39.2°F4.0°C 71% 11.6 mph W18.7 kmh W 17.0 mph27.4 kmh 30.07 in1018.3 mb 0.00 in0.0 mm 0.00 in0.0 mm 0.09 in2.3 mm
07:15 PM 48.2°F9.0°C 39.6°F4.2°C 72% 11.0 mph W17.7 kmh W 14.0 mph22.5 kmh 30.06 in1017.9 mb 0.00 in0.0 mm 0.00 in0.0 mm 0.09 in2.3 mm
07:16 PM 48.2°F9.0°C 39.6°F4.2°C 72% 11.2 mph W18.0 kmh W 13.0 mph20.9 kmh 30.07 in1018.3 mb 0.00 in0.0 mm 0.00 in0.0 mm 0.09 in2.3 mm
07:17 PM 48.1°F8.9°C 39.5°F4.2°C 72% 11.9 mph W19.2 kmh W 14.0 mph22.5 kmh 30.07 in1018.3 mb 0.00 in0.0 mm 0.00 in0.0 mm 0.09 in2.3 mm
07:18 PM 47.8°F8.8°C 39.2°F4.0°C 72% 14.0 mph W22.5 kmh W 16.0 mph25.7 kmh 30.07 in1018.3 mb 0.00 in0.0 mm 0.00 in0.0 mm 0.09 in2.3 mm
07:19 PM 47.6°F8.7°C 39.0°F3.9°C 72% 14.0 mph W22.5 kmh W 15.0 mph24.1 kmh 30.07 in1018.3 mb 0.00 in0.0 mm 0.00 in0.0 mm 0.09 in2.3 mm
07:20 PM 47.6°F8.7°C 39.0°F3.9°C 72% 13.0 mph W20.9 kmh W 16.0 mph25.7 kmh 30.07 in1018.3 mb 0.00 in0.0 mm 0.00 in0.0 mm 0.09 in2.3 mm
07:21 PM 47.6°F8.7°C 39.0°F3.9°C 72% 12.0 mph W19.3 kmh W 14.0 mph22.5 kmh 30.07 in1018.3 mb 0.00 in0.0 mm 0.00 in0.0 mm 0.09 in2.3 mm
07:22 PM 47.5°F8.6°C 39.3°F4.1°C 73% 12.0 mph W19.3 kmh W 14.0 mph22.5 kmh 30.07 in1018.3 mb 0.00 in0.0 mm 0.00 in0.0 mm 0.09 in2.3 mm
07:23 PM 47.5°F8.6°C 39.3°F4.1°C 73% 12.0 mph W19.3 kmh W 15.0 mph24.1 kmh 30.07 in1018.3 mb 0.00 in0.0 mm 0.00 in0.0 mm 0.09 in2.3 mm
07:24 PM 47.5°F8.6°C 39.3°F4.1°C 73% 14.0 mph W22.5 kmh W 15.0 mph24.1 kmh 30.07 in1018.3 mb 0.00 in0.0 mm 0.00 in0.0 mm 0.09 in2.3 mm
07:25 PM 47.8°F8.8°C 39.6°F4.2°C 73% 12.0 mph W19.3 kmh W 15.0 mph24.1 kmh 30.07 in1018.3 mb 0.00 in0.0 mm 0.00 in0.0 mm 0.09 in2.3 mm
07:26 PM 47.4°F8.6°C 39.2°F4.0°C 73% 13.0 mph W20.9 kmh W 17.0 mph27.4 kmh 30.07 in1018.3 mb 0.00 in0.0 mm 0.00 in0.0 mm 0.09 in2.3 mm
07:27 PM 47.4°F8.6°C 39.2°F4.0°C 73% 13.0 mph W20.9 kmh W 15.0 mph24.1 kmh 30.07 in1018.3 mb 0.00 in0.0 mm 0.00 in0.0 mm 0.09 in2.3 mm
07:28 PM 47.4°F8.6°C 39.2°F4.0°C 73% 13.0 mph W20.9 kmh W 15.0 mph24.1 kmh 30.07 in1018.3 mb 0.00 in0.0 mm 0.00 in0.0 mm 0.09 in2.3 mm
07:29 PM 47.4°F8.6°C 39.2°F4.0°C 73% 11.0 mph W17.7 kmh W 15.0 mph24.1 kmh 30.07 in1018.3 mb 0.00 in0.0 mm 0.00 in0.0 mm 0.09 in2.3 mm
07:30 PM 47.4°F8.6°C 39.5°F4.2°C 74% 11.0 mph W17.7 kmh W 14.0 mph22.5 kmh 30.07 in1018.3 mb 0.00 in0.0 mm 0.00 in0.0 mm 0.09 in2.3 mm
07:31 PM 47.4°F8.6°C 39.5°F4.2°C 74% 11.0 mph W17.7 kmh W 13.0 mph20.9 kmh 30.07 in1018.3 mb 0.00 in0.0 mm 0.00 in0.0 mm 0.09 in2.3 mm
07:32 PM 47.3°F8.5°C 39.8°F4.3°C 75% 12.0 mph W19.3 kmh W 14.0 mph22.5 kmh 30.07 in1018.3 mb 0.00 in0.0 mm 0.00 in0.0 mm 0.09 in2.3 mm
07:33 PM 47.3°F8.5°C 39.4°F4.1°C 74% 11.0 mph W17.7 kmh W 12.0 mph19.3 kmh 30.07 in1018.3 mb<